KL598 / PH-BVA 7700 Squawk Report (20th of November, 2017)

Aircraft B77W Reg No. PH-BVA Age 9 years old
Model 777 Jet engines 2 First flight 24-01-08
Registered 13-02-08 Rollout 07-01-08 Delivered 12-02-08
Construction No. 35671 Line No. 0694 Series 306(ER)
ADSHEX 48455E Airline name KLM Royal Dutch Airlines Owner N/A
Airfield based Amsterdam-Schiphol~Noord-Holland~PH First tracked 2011-04-02 02:52:01

Flight history for PH-BVA

Route Flight No Date Playback
Schiphol (AMS) - Guarulhos Gov Andre Franco Montoro (GRU) KL791 2017-12-11 15:03:00
Arturo Merino Benitez Intl (SCL) - Ministro Pistarini (EZE) - Schiphol (AMS) KL702 2017-12-10 09:28:00
Schiphol (AMS) - Ministro Pistarini (EZE) - Arturo Merino Benitez Intl (SCL) KL701 2017-12-09 14:04:00
Pudong (PVG) - Schiphol (AMS) KL896 2017-12-08 21:05:00
Schiphol (AMS) - Pudong (PVG) KL895 2017-12-08 05:00:00
Soekarno Hatta Intl (CGK) - Kuala Lumpur Intl (KUL) - Schiphol (AMS) KL810 2017-12-07 16:23:00
Soekarno Hatta Intl (CGK) - Kuala Lumpur Intl (KUL) - Schiphol (AMS) KL810 2017-12-07 04:58:00
Schiphol (AMS) - Kuala Lumpur Intl (KUL) - Soekarno Hatta Intl (CGK) KL809 2017-12-06 11:05:00
Suvarnabhumi Intl (BKK) - Schiphol (AMS) KL876 2017-12-05 20:02:00
Schiphol (AMS) - Suvarnabhumi Intl (BKK) KL875 2017-12-05 05:38:00
O. R. Tambo International Airport (JNB) - Schiphol (AMS) KL592 2017-12-04 16:38:00
Schiphol (AMS) - O. R. Tambo International Airport (JNB) KL591 2017-12-03 20:13:00
???? N/A 2017-12-03 09:43:00
Schiphol (AMS) - Taoyuan Intl (TPE) - Ninoy Aquino Intl (MNL) KL807 2017-12-02 12:53:00
Pudong (PVG) - Schiphol (AMS) KL896 2017-12-01 20:46:00
Schiphol (AMS) - Pudong (PVG) KL895 2017-12-01 04:58:00
Indira Gandhi Intl (DEL) - Schiphol (AMS) KL872 2017-11-30 16:29:00
Schiphol (AMS) - Indira Gandhi Intl (DEL) KL871 2017-11-29 22:12:00
Ninoy Aquino Intl (MNL) - Taoyuan Intl (TPE) - Schiphol (AMS) KL808 2017-11-29 05:16:00
Schiphol (AMS) - Taoyuan Intl (TPE) - Ninoy Aquino Intl (MNL) KL807 2017-11-28 12:43:00
Time Lat Lon Altitude Heading Speed Vertical Rate
2017-11-20 14:52:35 GMT 52.31356 4.76177 0 87 2 0
2017-11-20 14:52:33 GMT 52.31356 4.76177 0 87 2 0
2017-11-20 14:52:02 GMT 52.31361 4.76177 0 87 2 0
2017-11-20 14:51:51 GMT 52.31371 4.76175 0 87 2 0
2017-11-20 14:51:24 GMT 52.31433 4.76171 0 87 7 0
2017-11-20 14:51:13 GMT 52.31454 4.76143 0 87 9 0
2017-11-20 14:51:03 GMT 52.31452 4.76059 0 87 13 0
2017-11-20 14:50:57 GMT 52.31450 4.76007 0 87 13 0
2017-11-20 14:50:48 GMT 52.31447 4.75928 0 87 12 0
2017-11-20 14:50:27 GMT 52.31442 4.75741 0 87 12 0
2017-11-20 14:50:16 GMT 52.31439 4.75666 0 87 9 0
2017-11-20 14:49:59 GMT 52.31436 4.75567 0 87 11 0
2017-11-20 14:49:45 GMT 52.31428 4.75418 0 84 16 0
2017-11-20 14:49:39 GMT 52.31423 4.75338 0 87 17 0
2017-11-20 14:49:33 GMT 52.31421 4.75261 0 87 18 0
2017-11-20 14:49:27 GMT 52.31418 4.75195 0 87 19 0
2017-11-20 14:49:20 GMT 52.31414 4.75090 0 87 20 0
2017-11-20 14:49:13 GMT 52.31411 4.74989 0 87 20 0
2017-11-20 14:49:00 GMT 52.31408 4.74800 0 87 18 0
2017-11-20 14:48:38 GMT 52.31397 4.74515 0 87 17 0
2017-11-20 14:48:21 GMT 52.31390 4.74327 0 59 14 0
2017-11-20 14:48:10 GMT 52.31333 4.74276 0 2 18 0
2017-11-20 14:47:58 GMT 52.31219 4.74266 0 2 26 0
2017-11-20 14:47:48 GMT 52.31082 4.74254 0 2 31 0
2017-11-20 14:47:40 GMT 52.30966 4.74242 0 2 30 0
2017-11-20 14:47:10 GMT 52.30578 4.74207 0 2 29 0
2017-11-20 14:46:47 GMT 52.30311 4.74184 0 5 23 0
2017-11-20 14:46:39 GMT 52.30233 4.74153 0 22 21 0
2017-11-20 14:46:26 GMT 52.30129 4.74086 0 19 20 0
2017-11-20 14:46:06 GMT 52.29982 4.73917 0 64 23 0
2017-11-20 14:45:55 GMT 52.29918 4.73687 0 75 20 0
2017-11-20 14:45:20 GMT 52.29959 4.73315 0 154 16 0
2017-11-20 14:44:47 GMT 52.30306 4.73316 0 182 29 0
2017-11-20 14:44:40 GMT 52.30401 4.73324 0 182 28 0
2017-11-20 14:44:30 GMT 52.30533 4.73338 0 182 30 0
2017-11-20 14:44:20 GMT 52.30665 4.73350 0 182 30 0
2017-11-20 14:44:10 GMT 52.30803 4.73362 0 182 31 0
2017-11-20 14:43:58 GMT 52.30964 4.73375 0 182 31 0
2017-11-20 14:43:49 GMT 52.31097 4.73389 0 182 30 0
2017-11-20 14:43:36 GMT 52.31338 4.73410 0 182 30 0
2017-11-20 14:43:21 GMT 52.31470 4.73423 0 182 30 0
2017-11-20 14:43:11 GMT 52.31608 4.73434 0 182 28 0
2017-11-20 14:43:02 GMT 52.31721 4.73446 0 182 25 0
2017-11-20 14:42:52 GMT 52.31838 4.73457 0 182 24 0
2017-11-20 14:42:38 GMT 52.32014 4.73442 0 151 21 0
2017-11-20 14:42:26 GMT 52.32074 4.73375 0 140 23 0
2017-11-20 14:42:15 GMT 52.32172 4.73234 0 137 29 0
2017-11-20 14:42:03 GMT 52.32291 4.73068 0 140 34 0
2017-11-20 14:41:52 GMT 52.32420 4.72887 0 140 32 0
2017-11-20 14:41:35 GMT 52.32611 4.72620 0 137 30 0
2017-11-20 14:41:33 GMT 52.32628 4.72597 0 137 29 0
2017-11-20 14:41:24 GMT 52.32710 4.72464 0 132 25 0
2017-11-20 14:41:22 GMT 52.32725 4.72435 0 132 24 0
2017-11-20 14:41:13 GMT 52.32786 4.72324 0 132 19 0
2017-11-20 14:41:04 GMT 52.32832 4.72238 0 112 18 0
2017-11-20 14:40:59 GMT 52.32843 4.72170 0 87 19 0
2017-11-20 14:40:53 GMT 52.32840 4.72092 0 87 19 0
2017-11-20 14:40:51 GMT 52.32840 4.72057 0 90 18 0
2017-11-20 14:40:39 GMT 52.32865 4.71920 0 132 19 0
2017-11-20 14:40:32 GMT 52.32909 4.71839 0 132 26 0
2017-11-20 14:40:30 GMT 52.32927 4.71807 0 132 27 0
2017-11-20 14:40:20 GMT 52.33008 4.71657 0 132 25 0
2017-11-20 14:40:10 GMT 52.33076 4.71529 0 132 22 0
2017-11-20 14:40:08 GMT 52.33087 4.71510 0 132 21 0
2017-11-20 14:39:50 GMT 52.33192 4.71312 0 132 18 0
2017-11-20 14:39:46 GMT 52.33214 4.71270 0 137 17 0
2017-11-20 14:39:30 GMT 52.33327 4.71211 0 182 21 0
2017-11-20 14:39:27 GMT 52.33360 4.71214 0 182 22 0
2017-11-20 14:39:16 GMT 52.33464 4.71221 0 182 20 0
2017-11-20 14:39:10 GMT 52.33522 4.71227 0 182 19 0
2017-11-20 14:39:05 GMT 52.33555 4.71230 0 174 19 0
2017-11-20 14:38:55 GMT 52.33643 4.71180 0 154 26 0
2017-11-20 14:38:43 GMT 52.33784 4.71066 0 154 30 0
2017-11-20 14:38:30 GMT 52.33953 4.70989 0 177 30 0
2017-11-20 14:38:23 GMT 52.34056 4.70991 0 182 43 0
2017-11-20 14:38:18 GMT 52.34167 4.71004 0 182 54 0
2017-11-20 14:38:13 GMT 52.34283 4.71014 0 182 61 0
2017-11-20 14:38:01 GMT 52.34678 4.71050 0 182 90 0
2017-11-20 14:37:55 GMT 52.34916 4.71071 0 182 105 0
2017-11-20 14:37:52 GMT 52.35341 4.71113 0 182 135 0
2017-11-20 14:37:46 GMT 52.35413 4.71119 0 182 135 0
2017-11-20 14:37:37 GMT 52.36042 4.71172 125 184 138 -704
2017-11-20 14:37:24 GMT 52.36759 4.71243 300 184 138 -768
2017-11-20 14:37:16 GMT 52.37336 4.71290 400 183 135 -704
2017-11-20 14:37:07 GMT 52.37846 4.71344 500 184 136 -704
2017-11-20 14:37:05 GMT 52.38011 4.71361 525 184 137 -768
2017-11-20 14:37:01 GMT 52.38199 4.71375 575 183 137 -768
2017-11-20 14:36:57 GMT 52.38455 4.71397 625 183 137 -704
2017-11-20 14:36:55 GMT 52.38606 4.71413 650 184 137 -704
2017-11-20 14:36:52 GMT 52.38835 4.71428 675 183 137 -768
2017-11-20 14:36:50 GMT 52.38908 4.71436 700 183 137 -768
2017-11-20 14:36:47 GMT 52.39101 4.71455 725 184 138 -768
2017-11-20 14:36:45 GMT 52.39249 4.71470 775 184 138 -704
2017-11-20 14:36:42 GMT 52.39431 4.71486 800 184 138 -768
2017-11-20 14:36:40 GMT 52.39585 4.71502 825 184 138 -768
2017-11-20 14:36:37 GMT 52.39762 4.71518 875 184 138 -768
2017-11-20 14:36:34 GMT 52.39915 4.71525 900 184 138 -768
2017-11-20 14:36:32 GMT 52.40080 4.71542 950 184 137 -832
2017-11-20 14:36:30 GMT 52.40181 4.71558 950 184 138 -832
2017-11-20 14:36:27 GMT 52.40395 4.71572 1,000 184 136 -704
2017-11-20 14:36:24 GMT 52.40584 4.71596 1,025 183 137 -704
2017-11-20 14:36:21 GMT 52.40828 4.71612 1,075 184 139 -768
2017-11-20 14:36:19 GMT 52.40863 4.71619 1,100 184 139 -768
2017-11-20 14:36:17 GMT 52.41069 4.71634 1,125 184 140 -704
2017-11-20 14:36:16 GMT 52.41096 4.71641 1,150 184 140 -768
2017-11-20 14:36:12 GMT 52.41357 4.71664 1,200 184 145 -832
2017-11-20 14:36:10 GMT 52.41447 4.71675 1,200 184 152 -768
2017-11-20 14:36:08 GMT 52.41577 4.71682 1,225 184 147 -768
2017-11-20 14:36:06 GMT 52.41735 4.71698 1,250 184 144 -832
2017-11-20 14:36:04 GMT 52.41922 4.71714 1,300 184 149 -704
2017-11-20 14:36:02 GMT 52.42044 4.71725 1,325 184 152 -768
2017-11-20 14:35:57 GMT 52.42410 4.71756 1,400 183 154 -832
2017-11-20 14:35:55 GMT 52.42480 4.71761 1,400 183 155 -832
2017-11-20 14:35:53 GMT 52.42667 4.71779 1,425 184 156 -896
2017-11-20 14:35:51 GMT 52.42769 4.71792 1,450 184 156 -896
2017-11-20 14:35:47 GMT 52.43141 4.71824 1,525 184 156 -768
2017-11-20 14:35:45 GMT 52.43216 4.71832 1,550 184 157 -832
2017-11-20 14:35:43 GMT 52.43390 4.71847 1,575 184 157 -832
2017-11-20 14:35:38 GMT 52.43723 4.71878 1,650 184 159 -896
2017-11-20 14:35:36 GMT 52.43944 4.71901 1,700 184 160 -832
2017-11-20 14:35:34 GMT 52.43989 4.71902 1,700 184 160 -832
2017-11-20 14:35:32 GMT 52.44165 4.71918 1,725 184 161 -832
2017-11-20 14:35:28 GMT 52.44491 4.71949 1,800 184 161 -960
2017-11-20 14:35:25 GMT 52.44729 4.71973 1,850 184 162 -896
2017-11-20 14:35:21 GMT 52.44955 4.71992 1,900 184 164 -896
2017-11-20 14:35:19 GMT 52.45106 4.72008 1,925 184 165 -832
2017-11-20 14:35:17 GMT 52.45301 4.72028 1,950 184 166 -832
2017-11-20 14:35:15 GMT 52.45532 4.72046 2,000 184 167 -704
2017-11-20 14:35:10 GMT 52.45827 4.72075 2,050 184 172 -320
2017-11-20 14:35:06 GMT 52.46144 4.72106 2,075 183 174 -128
2017-11-20 14:35:04 GMT 52.46324 4.72122 2,100 184 177 128
2017-11-20 14:35:01 GMT 52.46535 4.72138 2,100 184 179 128
2017-11-20 14:34:57 GMT 52.46996 4.72177 2,075 183 180 0
2017-11-20 14:34:56 GMT 52.46996 4.72177 2,075 183 180 0
2017-11-20 14:34:54 GMT 52.47229 4.72200 2,075 183 180 0
2017-11-20 14:34:51 GMT 52.47382 4.72214 2,075 183 181 0
2017-11-20 14:34:49 GMT 52.47546 4.72229 2,100 184 180 0
2017-11-20 14:34:46 GMT 52.47812 4.72252 2,100 184 180 0
2017-11-20 14:34:44 GMT 52.47964 4.72263 2,100 184 179 64
2017-11-20 14:34:41 GMT 52.48311 4.72298 2,100 184 180 0
2017-11-20 14:34:38 GMT 52.48430 4.72310 2,075 184 180 0
2017-11-20 14:34:36 GMT 52.48677 4.72336 2,075 184 180 0
2017-11-20 14:34:34 GMT 52.48825 4.72349 2,075 184 181 0
2017-11-20 14:34:32 GMT 52.48993 4.72373 2,075 184 182 64
2017-11-20 14:34:29 GMT 52.49213 4.72389 2,075 184 184 0
2017-11-20 14:34:26 GMT 52.49500 4.72420 2,075 184 187 0
2017-11-20 14:34:24 GMT 52.49673 4.72436 2,075 184 188 64
2017-11-20 14:34:21 GMT 52.49899 4.72458 2,075 183 191 64
2017-11-20 14:34:19 GMT 52.50178 4.72481 2,075 183 194 0
2017-11-20 14:34:16 GMT 52.50445 4.72498 2,075 183 196 0
2017-11-20 14:34:14 GMT 52.50499 4.72504 2,075 183 197 0
2017-11-20 14:34:11 GMT 52.50792 4.72519 2,075 182 199 0
2017-11-20 14:34:09 GMT 52.50975 4.72527 2,100 182 199 0
2017-11-20 14:34:05 GMT 52.51474 4.72538 2,100 179 201 128
2017-11-20 14:34:02 GMT 52.51639 4.72534 2,100 179 202 128
2017-11-20 14:34:01 GMT 52.51847 4.72530 2,100 177 203 192
2017-11-20 14:34:00 GMT 52.51790 4.72534 2,100 163 210 384
2017-11-20 14:33:58 GMT 52.51996 4.72522 2,100 176 203 192
2017-11-20 14:33:55 GMT 52.52293 4.72491 2,100 174 203 256
2017-11-20 14:33:53 GMT 52.52484 4.72459 2,100 171 206 320
2017-11-20 14:33:49 GMT 52.52936 4.72342 2,075 165 209 384
2017-11-20 14:33:47 GMT 52.53030 4.72305 2,075 160 211 320
2017-11-20 14:33:45 GMT 52.53276 4.72184 2,075 158 212 256
2017-11-20 14:33:42 GMT 52.53621 4.71954 2,075 155 214 192
2017-11-20 14:33:39 GMT 52.53804 4.71809 2,100 153 216 64
2017-11-20 14:33:37 GMT 52.53983 4.71664 2,100 153 216 0
2017-11-20 14:33:35 GMT 52.54193 4.71489 2,100 153 215 0
2017-11-20 14:33:33 GMT 52.54340 4.71367 2,075 153 215 0
2017-11-20 14:33:31 GMT 52.54495 4.71235 2,100 153 215 0
2017-11-20 14:33:29 GMT 52.54729 4.71054 2,100 153 215 0
2017-11-20 14:33:26 GMT 52.54944 4.70879 2,075 153 215 0
2017-11-20 14:33:24 GMT 52.55122 4.70734 2,075 153 213 0
2017-11-20 14:33:21 GMT 52.55389 4.70521 2,075 153 213 0
2017-11-20 14:33:19 GMT 52.55548 4.70390 2,075 152 215 64
2017-11-20 14:33:16 GMT 52.55813 4.70176 2,075 153 214 0
2017-11-20 14:33:14 GMT 52.56043 4.69986 2,075 152 215 64
2017-11-20 14:33:09 GMT 52.56399 4.69688 2,075 152 216 64
2017-11-20 14:33:07 GMT 52.56627 4.69485 2,075 150 216 128
2017-11-20 14:33:05 GMT 52.56800 4.69320 2,100 147 218 192
2017-11-20 14:33:02 GMT 52.57042 4.69069 2,100 143 219 320
2017-11-20 14:33:00 GMT 52.57219 4.68849 2,100 137 219 320
2017-11-20 14:32:58 GMT 52.57466 4.68498 2,100 132 220 192
2017-11-20 14:32:54 GMT 52.57654 4.68140 2,100 125 221 128
2017-11-20 14:32:52 GMT 52.57763 4.67892 2,100 119 222 0
2017-11-20 14:32:50 GMT 52.57898 4.67547 2,100 114 223 0
2017-11-20 14:32:45 GMT 52.58085 4.66864 2,100 106 225 -64
2017-11-20 14:32:43 GMT 52.58153 4.66499 2,125 102 226 64
2017-11-20 14:32:41 GMT 52.58212 4.66095 2,125 96 227 128
2017-11-20 14:32:39 GMT 52.58243 4.65648 2,100 92 228 128
2017-11-20 14:32:35 GMT 52.58258 4.65126 2,100 87 231 192
2017-11-20 14:32:33 GMT 52.58254 4.64775 2,100 84 233 256
2017-11-20 14:32:31 GMT 52.58235 4.64424 2,100 81 235 192
2017-11-20 14:32:28 GMT 52.58194 4.63928 2,075 69 239 128
2017-11-20 14:32:26 GMT 52.58121 4.63432 2,075 69 239 128
2017-11-20 14:32:23 GMT 52.58043 4.63058 2,075 65 240 192
2017-11-20 14:32:21 GMT 52.57959 4.62721 2,075 60 241 192
2017-11-20 14:32:19 GMT 52.57851 4.62364 2,075 58 242 256
2017-11-20 14:32:15 GMT 52.57540 4.61598 2,050 46 244 128
2017-11-20 14:32:12 GMT 52.57407 4.61350 2,075 44 243 128
2017-11-20 14:32:10 GMT 52.57205 4.61002 2,075 40 244 64
2017-11-20 14:32:06 GMT 52.56830 4.60525 2,075 34 243 0
2017-11-20 14:32:04 GMT 52.56665 4.60351 2,075 28 241 -64
2017-11-20 14:32:01 GMT 52.56372 4.60083 2,075 25 238 0
2017-11-20 14:31:59 GMT 52.56232 4.59974 2,100 24 238 0
2017-11-20 14:31:55 GMT 52.55772 4.59633 2,100 23 236 0
2017-11-20 14:31:53 GMT 52.55571 4.59495 2,100 23 236 0
2017-11-20 14:31:51 GMT 52.55370 4.59351 2,100 23 235 0
2017-11-20 14:31:48 GMT 52.55090 4.59152 2,100 23 236 0
2017-11-20 14:31:45 GMT 52.54811 4.58954 2,100 23 236 0
2017-11-20 14:31:43 GMT 52.54551 4.58773 2,100 23 237 -64
2017-11-20 14:31:41 GMT 52.54289 4.58588 2,100 23 238 0
2017-11-20 14:31:39 GMT 52.54188 4.58514 2,075 23 238 0
2017-11-20 14:31:34 GMT 52.53722 4.58183 2,075 23 240 0
2017-11-20 14:31:32 GMT 52.53536 4.58059 2,075 23 241 64
2017-11-20 14:31:29 GMT 52.53149 4.57779 2,100 23 243 0
2017-11-20 14:31:27 GMT 52.52985 4.57665 2,100 22 264 -576
2017-11-20 14:31:23 GMT 52.52503 4.57329 2,075 22 247 128
2017-11-20 14:31:18 GMT 52.52019 4.56993 2,075 22 251 64
2017-11-20 14:31:15 GMT 52.51656 4.56741 2,075 22 255 64
2017-11-20 14:31:12 GMT 52.51373 4.56551 2,075 22 257 0
2017-11-20 14:31:10 GMT 52.51112 4.56367 2,075 22 259 -64
2017-11-20 14:31:07 GMT 52.50847 4.56184 2,075 22 261 -128
2017-11-20 14:31:07 GMT 52.50801 4.56154 2,075 23 265 -960
2017-11-20 14:31:04 GMT 52.50469 4.55925 2,075 22 263 -320
2017-11-20 14:31:02 GMT 52.50245 4.55768 2,075 22 264 -384
2017-11-20 14:31:00 GMT 52.49975 4.55579 2,100 22 264 -576
2017-11-20 14:30:57 GMT 52.49612 4.55328 2,125 23 265 -896
2017-11-20 14:30:52 GMT 52.49048 4.54941 2,200 23 265 -960
2017-11-20 14:30:48 GMT 52.48574 4.54606 2,250 23 264 -960
2017-11-20 14:30:46 GMT 52.48439 4.54512 2,275 23 264 -960
2017-11-20 14:30:43 GMT 52.48146 4.54308 2,325 23 264 -960
2017-11-20 14:30:41 GMT 52.47922 4.54155 2,350 23 264 -960
2017-11-20 14:30:38 GMT 52.47606 4.53934 2,400 23 263 -1024
2017-11-20 14:30:36 GMT 52.47382 4.53773 2,425 23 263 -960
2017-11-20 14:30:34 GMT 52.47116 4.53583 2,475 23 263 -960
2017-11-20 14:30:32 GMT 52.46938 4.53461 2,500 23 263 -960
2017-11-20 14:30:30 GMT 52.46735 4.53319 2,525 23 263 -960
2017-11-20 14:30:28 GMT 52.46512 4.53162 2,575 23 263 -1024
2017-11-20 14:30:25 GMT 52.46178 4.52927 2,625 23 262 -1024
2017-11-20 14:30:23 GMT 52.45862 4.52705 2,675 23 262 -1024
2017-11-20 14:30:20 GMT 52.45551 4.52484 2,700 23 262 -960
2017-11-20 14:30:17 GMT 52.45217 4.52244 2,750 23 261 -960
2017-11-20 14:30:15 GMT 52.45020 4.52103 2,800 23 261 -1024
2017-11-20 14:30:13 GMT 52.44841 4.51981 2,825 23 260 -960
2017-11-20 14:30:10 GMT 52.44421 4.51679 2,875 23 259 -960
2017-11-20 14:30:07 GMT 52.44044 4.51408 2,950 23 258 -960
2017-11-20 14:30:05 GMT 52.43829 4.51256 2,975 23 257 -960
2017-11-20 14:30:03 GMT 52.43719 4.51177 3,000 23 257 -960
2017-11-20 14:30:00 GMT 52.43349 4.50913 3,050 23 256 -960
2017-11-20 14:29:58 GMT 52.43109 4.50738 3,075 23 256 -1024
2017-11-20 14:29:56 GMT 52.42890 4.50589 3,100 23 257 -1024
2017-11-20 14:29:53 GMT 52.42587 4.50369 3,150 24 257 -960
2017-11-20 14:29:48 GMT 52.41911 4.49867 3,250 25 258 -960
2017-11-20 14:29:46 GMT 52.41759 4.49757 3,275 26 259 -1024
2017-11-20 14:29:44 GMT 52.41586 4.49623 3,300 26 259 -1024
2017-11-20 14:29:42 GMT 52.41414 4.49482 3,325 26 260 -1024
2017-11-20 14:29:39 GMT 52.40986 4.49113 3,400 29 261 -1024
2017-11-20 14:29:37 GMT 52.40877 4.49020 3,425 30 262 -1024
2017-11-20 14:29:35 GMT 52.40625 4.48784 3,450 32 264 -960
2017-11-20 14:29:33 GMT 52.40419 4.48578 3,500 32 264 -1024
2017-11-20 14:29:28 GMT 52.39901 4.48046 3,575 31 265 -960
2017-11-20 14:29:25 GMT 52.39482 4.47614 3,650 31 265 -960
2017-11-20 14:29:22 GMT 52.39357 4.47489 3,650 31 265 -960
2017-11-20 14:29:19 GMT 52.38984 4.47112 3,725 31 266 -960
2017-11-20 14:29:17 GMT 52.38666 4.46793 3,775 31 266 -960
2017-11-20 14:29:14 GMT 52.38458 4.46586 3,800 31 266 -960
2017-11-20 14:29:12 GMT 52.38267 4.46398 3,825 31 267 -1024
2017-11-20 14:29:09 GMT 52.37700 4.45831 3,925 31 267 -960
2017-11-20 14:29:07 GMT 52.37700 4.45831 3,925 31 267 -960
2017-11-20 14:29:05 GMT 52.37489 4.45618 3,950 31 267 -960
2017-11-20 14:29:02 GMT 52.37173 4.45307 4,000 31 267 -960
2017-11-20 14:28:58 GMT 52.36771 4.44908 4,075 31 268 -960
2017-11-20 14:28:56 GMT 52.36514 4.44656 4,100 31 268 -960
2017-11-20 14:28:54 GMT 52.36326 4.44468 4,125 31 268 -960
2017-11-20 14:28:51 GMT 52.35986 4.44130 4,200 31 269 -960
2017-11-20 14:28:49 GMT 52.35709 4.43855 4,225 31 270 -960
2017-11-20 14:28:47 GMT 52.35667 4.43817 4,250 31 270 -960
2017-11-20 14:28:45 GMT 52.35344 4.43494 4,275 31 271 -960
2017-11-20 14:28:42 GMT 52.35068 4.43214 4,325 31 272 -960
2017-11-20 14:28:41 GMT 52.34920 4.43063 4,350 31 272 -960
2017-11-20 14:28:40 GMT 52.34770 4.42917 4,375 31 272 -960
2017-11-20 14:28:38 GMT 52.34618 4.42765 4,400 31 272 -960
2017-11-20 14:28:38 GMT 52.34509 4.42657 4,425 31 272 -960
2017-11-20 14:28:36 GMT 52.34362 4.42506 4,450 31 272 -960
2017-11-20 14:28:31 GMT 52.33887 4.42043 4,525 30 272 -960
2017-11-20 14:28:29 GMT 52.33562 4.41727 4,550 30 272 -960
2017-11-20 14:28:26 GMT 52.33305 4.41475 4,600 29 271 -960
2017-11-20 14:28:24 GMT 52.33193 4.41376 4,625 29 272 -960
2017-11-20 14:28:21 GMT 52.32779 4.40994 4,675 28 271 -960
2017-11-20 14:28:20 GMT 52.32692 4.40910 4,700 27 271 -960
2017-11-20 14:28:18 GMT 52.32513 4.40758 4,725 27 271 -960
2017-11-20 14:28:16 GMT 52.32178 4.40481 4,775 26 271 -960
2017-11-20 14:28:16 GMT 52.32178 4.40481 4,775 25 271 -960
2017-11-20 14:28:14 GMT 52.31908 4.40261 4,800 25 271 -960
2017-11-20 14:28:12 GMT 52.31749 4.40140 4,825 25 271 -960
2017-11-20 14:28:10 GMT 52.31592 4.40010 4,850 25 272 -960
2017-11-20 14:28:09 GMT 52.31479 4.39926 4,875 25 272 -1024
2017-11-20 14:28:07 GMT 52.31255 4.39743 4,900 26 272 -960
2017-11-20 14:28:04 GMT 52.30824 4.39398 4,975 26 273 -960
2017-11-20 14:28:01 GMT 52.30554 4.39186 5,000 26 273 -960
2017-11-20 14:27:59 GMT 52.30372 4.39037 5,025 25 273 -1024
2017-11-20 14:27:59 GMT 52.30372 4.39037 5,025 26 273 -960
2017-11-20 14:27:57 GMT 52.30028 4.38767 5,075 25 273 -1024
2017-11-20 14:27:55 GMT 52.29734 4.38535 5,125 25 273 -1024
2017-11-20 14:27:53 GMT 52.29666 4.38484 5,150 25 273 -1024
2017-11-20 14:27:49 GMT 52.29163 4.38087 5,200 25 273 -960
2017-11-20 14:27:45 GMT 52.28618 4.37660 5,300 25 273 -1024
2017-11-20 14:27:43 GMT 52.28526 4.37592 5,300 25 273 -1024
2017-11-20 14:27:41 GMT 52.28252 4.37378 5,350 25 274 -1024
2017-11-20 14:27:39 GMT 52.28023 4.37195 5,375 25 274 -1024
2017-11-20 14:27:35 GMT 52.27570 4.36836 5,450 25 274 -1024
2017-11-20 14:27:33 GMT 52.27387 4.36699 5,475 25 274 -1024
2017-11-20 14:27:33 GMT 52.27387 4.36699 5,475 25 274 -1024
2017-11-20 14:27:31 GMT 52.27085 4.36463 5,525 25 275 -1024
2017-11-20 14:27:29 GMT 52.26791 4.36226 5,550 25 275 -1024
2017-11-20 14:27:29 GMT 52.26791 4.36226 5,550 25 275 -1024
2017-11-20 14:27:25 GMT 52.26355 4.35883 5,625 25 276 -1024
2017-11-20 14:27:23 GMT 52.26237 4.35799 5,625 25 276 -1024
2017-11-20 14:27:21 GMT 52.26009 4.35616 5,675 25 276 -960
2017-11-20 14:27:18 GMT 52.25666 4.35341 5,725 25 277 -960
2017-11-20 14:27:18 GMT 52.25666 4.35341 5,725 25 277 -960
2017-11-20 14:27:16 GMT 52.25340 4.35090 5,775 25 277 -1024
2017-11-20 14:27:16 GMT 52.25272 4.35036 5,775 25 277 -1024
2017-11-20 14:27:13 GMT 52.24997 4.34814 5,825 25 277 -1024
2017-11-20 14:27:10 GMT 52.24764 4.34631 5,850 25 279 -960
2017-11-20 14:27:07 GMT 52.24418 4.34360 5,900 25 279 -960
2017-11-20 14:27:04 GMT 52.23999 4.34031 5,950 25 279 -960
2017-11-20 14:27:02 GMT 52.23766 4.33842 6,000 25 279 -960
2017-11-20 14:27:00 GMT 52.23533 4.33662 6,025 25 279 -1024
2017-11-20 14:26:57 GMT 52.23184 4.33388 6,075 26 280 -1024
2017-11-20 14:26:54 GMT 52.22742 4.33034 6,150 26 283 -960
2017-11-20 14:26:51 GMT 52.22484 4.32831 6,175 26 281 -960
2017-11-20 14:26:49 GMT 52.22323 4.32697 6,200 26 281 -960
2017-11-20 14:26:46 GMT 52.21971 4.32419 6,250 26 283 -960
2017-11-20 14:26:44 GMT 52.21733 4.32236 6,275 26 283 -1024
2017-11-20 14:26:42 GMT 52.21429 4.31990 6,325 26 283 -960
2017-11-20 14:26:40 GMT 52.21197 4.31802 6,350 26 283 -960
2017-11-20 14:26:37 GMT 52.20840 4.31519 6,400 26 283 -960
2017-11-20 14:26:35 GMT 52.20561 4.31290 6,450 26 284 -1024
2017-11-20 14:26:33 GMT 52.20396 4.31158 6,475 26 284 -960
2017-11-20 14:26:30 GMT 52.20019 4.30852 6,525 26 284 -1024
2017-11-20 14:26:25 GMT 52.19497 4.30436 6,600 26 284 -1024
2017-11-20 14:26:23 GMT 52.19051 4.30069 6,650 26 286 -960
2017-11-20 14:26:21 GMT 52.18955 4.29993 6,675 26 286 -960
2017-11-20 14:26:19 GMT 52.18743 4.29824 6,700 26 286 -1024
2017-11-20 14:26:17 GMT 52.18387 4.29535 6,750 26 286 -960
2017-11-20 14:26:15 GMT 52.18268 4.29440 6,775 26 286 -960
2017-11-20 14:26:13 GMT 52.18031 4.29244 6,800 26 286 -960
2017-11-20 14:26:11 GMT 52.17723 4.28993 6,850 26 287 -1024
2017-11-20 14:26:09 GMT 52.17535 4.28841 6,875 26 287 -960
2017-11-20 14:26:05 GMT 52.17133 4.28506 6,925 26 287 -960
2017-11-20 14:26:02 GMT 52.16607 4.28082 7,000 26 288 -960
2017-11-20 14:25:59 GMT 52.16369 4.27894 7,025 26 287 -960
2017-11-20 14:25:57 GMT 52.16132 4.27698 7,050 25 288 -960
2017-11-20 14:25:55 GMT 52.15965 4.27567 7,100 25 288 -960
2017-11-20 14:25:53 GMT 52.15652 4.27321 7,125 25 288 -960
2017-11-20 14:25:51 GMT 52.15410 4.27133 7,150 25 288 -960
2017-11-20 14:25:49 GMT 52.15122 4.26905 7,200 24 288 -960
2017-11-20 14:25:47 GMT 52.14858 4.26704 7,225 22 289 -960
2017-11-20 14:25:44 GMT 52.14540 4.26474 7,275 22 289 -960
2017-11-20 14:25:42 GMT 52.14297 4.26301 7,300 22 289 -960
2017-11-20 14:25:40 GMT 52.14125 4.26186 7,325 17 287 -960
2017-11-20 14:25:38 GMT 52.13753 4.25948 7,375 19 287 -1024
2017-11-20 14:25:34 GMT 52.13352 4.25720 7,425 17 287 -960
2017-11-20 14:25:32 GMT 52.13101 4.25579 7,475 17 287 -960
2017-11-20 14:25:30 GMT 52.12696 4.25375 7,525 17 286 -960
2017-11-20 14:25:28 GMT 52.12569 4.25316 7,525 17 287 -960
2017-11-20 14:25:26 GMT 52.12367 4.25209 7,550 17 287 -960
2017-11-20 14:25:23 GMT 52.11809 4.24927 7,625 17 287 -960
2017-11-20 14:25:21 GMT 52.11579 4.24810 7,650 17 287 -960
2017-11-20 14:25:18 GMT 52.11272 4.24661 7,700 17 287 -960
2017-11-20 14:25:16 GMT 52.11020 4.24535 7,725 17 287 -960
2017-11-20 14:25:14 GMT 52.10713 4.24378 7,775 17 287 -832
2017-11-20 14:25:12 GMT 52.10508 4.24276 7,800 17 287 -832
2017-11-20 14:25:09 GMT 52.10103 4.24072 7,850 17 287 -832
2017-11-20 14:25:07 GMT 52.09927 4.23981 7,875 17 286 -704
2017-11-20 14:25:05 GMT 52.09671 4.23859 7,900 17 286 -704
2017-11-20 14:25:03 GMT 52.09369 4.23706 7,925 17 284 -448
2017-11-20 14:25:01 GMT 52.09191 4.23609 7,925 17 285 -448
2017-11-20 14:24:59 GMT 52.08837 4.23437 7,950 17 284 -448
2017-11-20 14:24:57 GMT 52.08614 4.23317 7,975 17 283 -512
2017-11-20 14:24:54 GMT 52.08288 4.23154 8,000 17 283 -640
2017-11-20 14:24:52 GMT 52.07913 4.22966 8,025 17 283 -960
2017-11-20 14:24:50 GMT 52.07712 4.22859 8,050 17 283 -1024
2017-11-20 14:24:48 GMT 52.07414 4.22707 8,075 17 282 -1024
2017-11-20 14:24:44 GMT 52.06865 4.22432 8,150 17 281 -1024
2017-11-20 14:24:41 GMT 52.06644 4.22314 8,200 17 277 -832
2017-11-20 14:24:41 GMT 52.06644 4.22314 8,200 17 280 -960
2017-11-20 14:24:39 GMT 52.06421 4.22203 8,225 17 278 -896
2017-11-20 14:24:37 GMT 52.06104 4.22032 8,275 18 274 -832
2017-11-20 14:24:35 GMT 52.05981 4.21974 8,275 17 275 -832
2017-11-20 14:24:32 GMT 52.05425 4.21679 8,325 18 274 -832
2017-11-20 14:24:30 GMT 52.05258 4.21593 8,350 18 274 -832
2017-11-20 14:24:28 GMT 52.05066 4.21486 8,375 18 274 -832
2017-11-20 14:24:26 GMT 52.04727 4.21310 8,400 17 275 -832
2017-11-20 14:24:22 GMT 52.04246 4.21059 8,475 18 275 -896
2017-11-20 14:24:20 GMT 52.04004 4.20929 8,500 18 275 -896
2017-11-20 14:24:18 GMT 52.03637 4.20737 8,550 18 277 -896
2017-11-20 14:24:16 GMT 52.03590 4.20706 8,550 18 277 -832
2017-11-20 14:24:14 GMT 52.03446 4.20627 8,575 18 277 -832
2017-11-20 14:24:11 GMT 52.02957 4.20368 8,625 18 278 -960
2017-11-20 14:24:09 GMT 52.02762 4.20258 8,650 18 282 -832
2017-11-20 14:24:07 GMT 52.02493 4.20120 8,675 18 278 -896
2017-11-20 14:24:05 GMT 52.02200 4.19960 8,725 18 279 -896
2017-11-20 14:24:00 GMT 52.01614 4.19640 8,775 18 279 -896
2017-11-20 14:23:58 GMT 52.01367 4.19510 8,825 18 280 -896
2017-11-20 14:23:57 GMT 52.01198 4.19419 8,825 18 280 -896
2017-11-20 14:23:56 GMT 52.01147 4.19387 8,850 18 282 -832
2017-11-20 14:23:56 GMT 52.01198 4.19419 8,825 18 280 -896
2017-11-20 14:23:53 GMT 52.00877 4.19243 8,875 18 281 -896
2017-11-20 14:23:50 GMT 52.00433 4.19006 8,925 18 282 -832
2017-11-20 14:23:48 GMT 52.00186 4.18869 8,950 18 282 -832
2017-11-20 14:23:46 GMT 51.99866 4.18697 9,000 18 283 -832
2017-11-20 14:23:43 GMT 51.99641 4.18579 9,025 18 283 -832
2017-11-20 14:23:39 GMT 51.99019 4.18250 9,100 18 283 -832
2017-11-20 14:23:37 GMT 51.98670 4.18069 9,125 17 285 -832
2017-11-20 14:23:35 GMT 51.98568 4.18014 9,150 17 285 -896
2017-11-20 14:23:33 GMT 51.98321 4.17881 9,175 17 285 -832
2017-11-20 14:23:29 GMT 51.97842 4.17633 9,225 18 287 -960
2017-11-20 14:23:27 GMT 51.97641 4.17526 9,250 18 287 -832
2017-11-20 14:23:25 GMT 51.97259 4.17331 9,300 17 288 -832
2017-11-20 14:23:23 GMT 51.96932 4.17152 9,325 17 288 -832
2017-11-20 14:23:23 GMT 51.96932 4.17152 9,325 17 288 -832
2017-11-20 14:23:21 GMT 51.96881 4.17129 9,350 18 288 -704
2017-11-20 14:23:19 GMT 51.96574 4.16969 9,375 17 288 -768
2017-11-20 14:23:17 GMT 51.96323 4.16840 9,400 18 288 -768
2017-11-20 14:23:14 GMT 51.95793 4.16554 9,450 18 288 -704
2017-11-20 14:23:12 GMT 51.95663 4.16489 9,475 18 288 -704
2017-11-20 14:23:10 GMT 51.95486 4.16390 9,500 18 288 -704
2017-11-20 14:23:08 GMT 51.95210 4.16244 9,525 18 289 -768
2017-11-20 14:23:06 GMT 51.94829 4.16037 9,550 18 289 -832
2017-11-20 14:23:04 GMT 51.94578 4.15895 9,575 18 289 -832
2017-11-20 14:23:02 GMT 51.94373 4.15785 9,600 18 289 -832
2017-11-20 14:22:59 GMT 51.94019 4.15589 9,650 20 289 -960
2017-11-20 14:22:57 GMT 51.93791 4.15459 9,675 19 289 -1024
2017-11-20 14:22:55 GMT 51.93517 4.15299 9,700 20 288 -896
2017-11-20 14:22:53 GMT 51.93214 4.15126 9,750 21 288 -1024
2017-11-20 14:22:51 GMT 51.93041 4.15016 9,775 21 288 -1088
2017-11-20 14:22:49 GMT 51.92642 4.14757 9,825 22 287 -1024
2017-11-20 14:22:47 GMT 51.92546 4.14696 9,825 23 287 -1088
2017-11-20 14:22:44 GMT 51.92107 4.14383 9,900 25 286 -896
2017-11-20 14:22:40 GMT 51.91676 4.14055 9,950 26 286 -832
2017-11-20 14:22:38 GMT 51.91412 4.13839 9,975 27 288 -576
2017-11-20 14:22:36 GMT 51.91200 4.13666 10,000 27 288 -576
2017-11-20 14:22:33 GMT 51.90798 4.13329 10,025 18 290 -384
2017-11-20 14:22:31 GMT 51.90556 4.13149 10,025 22 290 -448
2017-11-20 14:22:29 GMT 51.90431 4.13055 10,050 21 290 -448
2017-11-20 14:22:27 GMT 51.90062 4.12811 10,075 17 291 -448
2017-11-20 14:22:25 GMT 51.89806 4.12670 10,075 17 291 -448
2017-11-20 14:22:23 GMT 51.89555 4.12537 10,100 15 291 -512
2017-11-20 14:22:21 GMT 51.89346 4.12442 10,100 15 292 -448
2017-11-20 14:22:21 GMT 51.89346 4.12442 10,100 15 292 -448
2017-11-20 14:22:19 GMT 51.89062 4.12314 10,125 14 291 -448
2017-11-20 14:22:17 GMT 51.88802 4.12203 10,150 14 293 -512
2017-11-20 14:22:13 GMT 51.88330 4.11995 10,175 15 297 -512
2017-11-20 14:22:11 GMT 51.87930 4.11827 10,200 15 299 -576
2017-11-20 14:22:09 GMT 51.87721 4.11728 10,225 15 299 -512
2017-11-20 14:22:07 GMT 51.87451 4.11613 10,225 15 302 -448
2017-11-20 14:22:02 GMT 51.86697 4.11278 10,275 15 306 -384
2017-11-20 14:21:59 GMT 51.86403 4.11141 10,300 15 307 -384
2017-11-20 14:21:56 GMT 51.86045 4.10980 10,300 15 309 -512
2017-11-20 14:21:55 GMT 51.85909 4.10926 10,325 15 309 -512
2017-11-20 14:21:53 GMT 51.85496 4.10744 10,350 15 311 -768
2017-11-20 14:21:51 GMT 51.85272 4.10644 10,350 15 313 -768
2017-11-20 14:21:49 GMT 51.84937 4.10492 10,400 15 313 -768
2017-11-20 14:21:47 GMT 51.84741 4.10406 10,400 15 314 -832
2017-11-20 14:21:45 GMT 51.84462 4.10280 10,425 15 315 -1152
2017-11-20 14:21:41 GMT 51.84013 4.10079 10,500 15 316 -1472
2017-11-20 14:21:39 GMT 51.83592 4.09897 10,550 15 317 -1600
2017-11-20 14:21:37 GMT 51.83281 4.09760 10,625 15 316 -1600
2017-11-20 14:21:35 GMT 51.82942 4.09612 10,675 14 317 -1664
2017-11-20 14:21:34 GMT 51.82800 4.09546 10,725 15 316 -1664
2017-11-20 14:21:31 GMT 51.82572 4.09454 10,750 14 317 -1664
2017-11-20 14:21:29 GMT 51.82091 4.09248 10,850 14 317 -1728
2017-11-20 14:21:27 GMT 51.81837 4.09141 10,900 14 317 -1664
2017-11-20 14:21:25 GMT 51.81664 4.09065 10,925 14 316 -1664
2017-11-20 14:21:23 GMT 51.81468 4.08988 10,975 14 317 -1728
2017-11-20 14:21:21 GMT 51.81070 4.08825 11,050 14 317 -1600
2017-11-20 14:21:21 GMT 51.81070 4.08825 11,050 14 317 -1600
2017-11-20 14:21:20 GMT 51.80901 4.08751 11,075 14 317 -1600
2017-11-20 14:21:18 GMT 51.80701 4.08669 11,125 14 317 -1664
2017-11-20 14:21:16 GMT 51.80388 4.08543 11,175 14 317 -1664
2017-11-20 14:21:14 GMT 51.80104 4.08432 11,250 14 318 -1664
2017-11-20 14:21:12 GMT 51.79849 4.08325 11,300 14 318 -1600
2017-11-20 14:21:10 GMT 51.79422 4.08142 11,375 14 318 -1664
2017-11-20 14:21:08 GMT 51.79220 4.08058 11,400 14 318 -1664
2017-11-20 14:21:06 GMT 51.78936 4.07936 11,475 14 318 -1600
2017-11-20 14:21:04 GMT 51.78566 4.07786 11,525 14 319 -1664
2017-11-20 14:21:01 GMT 51.78308 4.07677 11,575 14 319 -1728
2017-11-20 14:20:59 GMT 51.77939 4.07519 11,650 14 319 -1728
2017-11-20 14:20:57 GMT 51.77740 4.07433 11,700 14 319 -1728
2017-11-20 14:20:55 GMT 51.77312 4.07251 11,775 14 319 -1728
2017-11-20 14:20:55 GMT 51.77312 4.07251 11,775 14 319 -1728
2017-11-20 14:20:53 GMT 51.77197 4.07199 11,800 14 319 -1728
2017-11-20 14:20:51 GMT 51.76854 4.07058 11,875 14 319 -1728
2017-11-20 14:20:49 GMT 51.76396 4.06858 11,950 14 320 -1664
2017-11-20 14:20:47 GMT 51.76250 4.06799 11,975 14 320 -1664
2017-11-20 14:20:45 GMT 51.75993 4.06687 12,025 14 320 -1664
2017-11-20 14:20:45 GMT 51.75993 4.06687 12,025 14 320 -1664
2017-11-20 14:20:43 GMT 51.75650 4.06546 12,100 14 320 -1664
2017-11-20 14:20:41 GMT 51.75338 4.06410 12,150 14 320 -1728
2017-11-20 14:20:39 GMT 51.75137 4.06323 12,200 14 320 -1664
2017-11-20 14:20:37 GMT 51.74705 4.06143 12,275 14 321 -1728
2017-11-20 14:20:35 GMT 51.74560 4.06078 12,300 14 321 -1728
2017-11-20 14:20:33 GMT 51.74162 4.05908 12,375 14 321 -1728
2017-11-20 14:20:31 GMT 51.73819 4.05759 12,450 14 321 -1728
2017-11-20 14:20:28 GMT 51.73471 4.05611 12,525 14 321 -1664
2017-11-20 14:20:28 GMT 51.73471 4.05611 12,525 14 321 -1664
2017-11-20 14:20:26 GMT 51.73242 4.05514 12,550 14 321 -1664
2017-11-20 14:20:24 GMT 51.72954 4.05396 12,625 14 321 -1664
2017-11-20 14:20:22 GMT 51.72526 4.05205 12,700 14 321 -1664
2017-11-20 14:20:20 GMT 51.72238 4.05083 12,750 14 322 -1664
2017-11-20 14:20:18 GMT 51.72093 4.05024 12,775 15 323 -1664
2017-11-20 14:20:16 GMT 51.71716 4.04861 12,850 15 323 -1664
2017-11-20 14:20:13 GMT 51.71428 4.04732 12,900 15 323 -1728
2017-11-20 14:20:11 GMT 51.71144 4.04610 12,950 15 323 -1728
2017-11-20 14:20:09 GMT 51.70766 4.04445 13,025 15 324 -1728
2017-11-20 14:20:07 GMT 51.70363 4.04275 13,100 15 324 -1664
2017-11-20 14:20:03 GMT 51.69756 4.04007 13,225 15 324 -1728
2017-11-20 14:20:01 GMT 51.69579 4.03938 13,250 15 324 -1664
2017-11-20 14:19:59 GMT 51.69291 4.03809 13,325 14 323 -1664
2017-11-20 14:19:57 GMT 51.69090 4.03725 13,350 14 324 -1664
2017-11-20 14:19:55 GMT 51.68769 4.03587 13,425 14 324 -1664
2017-11-20 14:19:53 GMT 51.68364 4.03412 13,500 14 324 -1664
2017-11-20 14:19:50 GMT 51.67932 4.03228 13,575 14 325 -1664
2017-11-20 14:19:48 GMT 51.67699 4.03131 13,625 14 325 -1664
2017-11-20 14:19:46 GMT 51.67322 4.02969 13,700 14 325 -1664
2017-11-20 14:19:43 GMT 51.67033 4.02847 13,750 14 325 -1664
2017-11-20 14:19:41 GMT 51.66710 4.02708 13,800 14 326 -1664
2017-11-20 14:19:39 GMT 51.66335 4.02542 13,875 14 326 -1664
2017-11-20 14:19:36 GMT 51.66074 4.02434 13,925 15 326 -1664
2017-11-20 14:19:34 GMT 51.65637 4.02245 14,000 15 326 -1728
2017-11-20 14:19:32 GMT 51.65460 4.02168 14,050 15 326 -1728
2017-11-20 14:19:30 GMT 51.64966 4.01951 14,125 15 326 -1728
2017-11-20 14:19:27 GMT 51.64673 4.01825 14,200 14 326 -1728
2017-11-20 14:19:25 GMT 51.64384 4.01706 14,250 14 326 -1728
2017-11-20 14:19:22 GMT 51.63918 4.01506 14,350 14 326 -1728
2017-11-20 14:19:20 GMT 51.63770 4.01443 14,375 14 326 -1664
2017-11-20 14:19:18 GMT 51.63391 4.01276 14,450 14 326 -1664
2017-11-20 14:19:16 GMT 51.63098 4.01157 14,500 14 326 -1664
2017-11-20 14:19:14 GMT 51.62778 4.01016 14,550 14 326 -1728
2017-11-20 14:19:12 GMT 51.62369 4.00841 14,625 14 327 -1728
2017-11-20 14:19:10 GMT 51.62192 4.00772 14,675 15 328 -1728
2017-11-20 14:19:08 GMT 51.61959 4.00665 14,700 15 328 -1728
2017-11-20 14:19:06 GMT 51.61697 4.00556 14,750 15 328 -1728
2017-11-20 14:19:04 GMT 51.61345 4.00400 14,825 15 328 -1728
2017-11-20 14:19:02 GMT 51.61052 4.00274 14,875 15 328 -1728
2017-11-20 14:19:00 GMT 51.60699 4.00125 14,950 15 329 -1728
2017-11-20 14:18:58 GMT 51.60347 3.99969 15,025 15 329 -1664
2017-11-20 14:18:56 GMT 51.60143 3.99879 15,050 15 329 -1664
2017-11-20 14:18:53 GMT 51.59729 3.99704 15,150 15 329 -1664
2017-11-20 14:18:51 GMT 51.59319 3.99528 15,225 15 329 -1664
2017-11-20 14:18:49 GMT 51.59175 3.99464 15,250 15 329 -1664
2017-11-20 14:18:47 GMT 51.58733 3.99269 15,325 15 330 -1536
2017-11-20 14:18:44 GMT 51.58263 3.99063 15,400 15 330 -1536
2017-11-20 14:18:42 GMT 51.57935 3.98922 15,475 15 331 -1472
2017-11-20 14:18:40 GMT 51.57761 3.98848 15,500 15 331 -1472
2017-11-20 14:18:38 GMT 51.57555 3.98758 15,525 15 331 -1344
2017-11-20 14:18:36 GMT 51.57141 3.98575 15,600 15 333 -1088
2017-11-20 14:18:34 GMT 51.56813 3.98433 15,650 15 333 -1024
2017-11-20 14:18:32 GMT 51.56575 3.98329 15,675 15 334 -832
2017-11-20 14:18:30 GMT 51.56368 3.98239 15,700 15 334 -832
2017-11-20 14:18:28 GMT 51.56099 3.98128 15,725 15 334 -768
2017-11-20 14:18:26 GMT 51.55712 3.97957 15,775 14 335 -896
2017-11-20 14:18:24 GMT 51.55414 3.97827 15,800 14 335 -832
2017-11-20 14:18:22 GMT 51.55055 3.97675 15,825 14 335 -832
2017-11-20 14:18:20 GMT 51.54666 3.97512 15,875 14 335 -896
2017-11-20 14:18:17 GMT 51.54217 3.97316 15,900 14 335 -896
2017-11-20 14:18:14 GMT 51.53798 3.97140 15,950 14 335 -896
2017-11-20 14:18:12 GMT 51.53617 3.97064 15,975 14 335 -896
2017-11-20 14:18:10 GMT 51.53375 3.96965 16,000 14 335 -896
2017-11-20 14:18:08 GMT 51.52895 3.96759 16,025 14 336 -832
2017-11-20 14:18:06 GMT 51.52748 3.96696 16,050 14 336 -832
2017-11-20 14:18:04 GMT 51.52506 3.96599 16,075 14 336 -896
2017-11-20 14:18:02 GMT 51.52057 3.96400 16,125 14 336 -960
2017-11-20 14:18:02 GMT 51.52057 3.96400 16,125 14 336 -960
2017-11-20 14:18:00 GMT 51.51846 3.96310 16,125 14 337 -960
2017-11-20 14:17:58 GMT 51.51544 3.96183 16,175 12 335 -1088
2017-11-20 14:17:56 GMT 51.51183 3.96035 16,200 12 335 -1088
2017-11-20 14:17:54 GMT 51.50912 3.95935 16,250 11 334 -1088
2017-11-20 14:17:52 GMT 51.50609 3.95828 16,275 11 334 -1088
2017-11-20 14:17:50 GMT 51.50276 3.95723 16,300 10 333 -1024
2017-11-20 14:17:48 GMT 51.49915 3.95627 16,350 8 332 -960
2017-11-20 14:17:46 GMT 51.49731 3.95582 16,375 7 332 -896
2017-11-20 14:17:44 GMT 51.49429 3.95523 16,400 4 330 -960
2017-11-20 14:17:44 GMT 51.49429 3.95523 16,400 6 330 -960
2017-11-20 14:17:42 GMT 51.49213 3.95477 16,425 5 330 -960
2017-11-20 14:17:40 GMT 51.48910 3.95424 16,450 4 329 -960
2017-11-20 14:17:38 GMT 51.48518 3.95382 16,475 1 328 -960
2017-11-20 14:17:36 GMT 51.48063 3.95340 16,525 1 328 -960
2017-11-20 14:17:34 GMT 51.47910 3.95330 16,550 0 328 -896
2017-11-20 14:17:31 GMT 51.47305 3.95322 16,600 359 327 -896
2017-11-20 14:17:28 GMT 51.46944 3.95330 16,650 357 326 -960
2017-11-20 14:17:26 GMT 51.46732 3.95348 16,650 357 325 -960
2017-11-20 14:17:24 GMT 51.46339 3.95382 16,700 356 325 -960
2017-11-20 14:17:22 GMT 51.46101 3.95411 16,725 355 325 -896
2017-11-20 14:17:19 GMT 51.45685 3.95471 16,775 354 324 -896
2017-11-20 14:17:17 GMT 51.45387 3.95530 16,800 353 324 -896
2017-11-20 14:17:15 GMT 51.45030 3.95604 16,825 351 323 -960
2017-11-20 14:17:12 GMT 51.44586 3.95721 16,875 350 322 -960
2017-11-20 14:17:10 GMT 51.44236 3.95821 16,900 349 323 -960
2017-11-20 14:17:08 GMT 51.43913 3.95931 16,950 348 322 -896
2017-11-20 14:17:08 GMT 51.43913 3.95931 16,950 348 322 -896
2017-11-20 14:17:06 GMT 51.43650 3.96019 16,975 348 322 -896
2017-11-20 14:17:04 GMT 51.43506 3.96072 16,975 348 322 -896
2017-11-20 14:17:02 GMT 51.43068 3.96225 17,025 348 323 -896
2017-11-20 14:16:59 GMT 51.42632 3.96384 17,075 348 323 -896
2017-11-20 14:16:57 GMT 51.42339 3.96488 17,100 348 323 -896
2017-11-20 14:16:55 GMT 51.42076 3.96576 17,125 348 324 -896
2017-11-20 14:16:53 GMT 51.41783 3.96683 17,150 348 324 -896
2017-11-20 14:16:51 GMT 51.41579 3.96755 17,175 348 324 -896
2017-11-20 14:16:49 GMT 51.41141 3.96912 17,225 348 325 -896
2017-11-20 14:16:47 GMT 51.40933 3.96978 17,250 348 325 -896
2017-11-20 14:16:45 GMT 51.40640 3.97082 17,275 348 325 -896
2017-11-20 14:16:43 GMT 51.40317 3.97194 17,300 348 325 -896
2017-11-20 14:16:41 GMT 51.40084 3.97278 17,325 348 326 -896
2017-11-20 14:16:37 GMT 51.39553 3.97461 17,375 348 326 -896
2017-11-20 14:16:35 GMT 51.39083 3.97621 17,425 348 326 -896
2017-11-20 14:16:35 GMT 51.39083 3.97621 17,425 348 326 -896
2017-11-20 14:16:32 GMT 51.38785 3.97728 17,475 348 327 -896
2017-11-20 14:16:30 GMT 51.38461 3.97839 17,500 348 327 -896
2017-11-20 14:16:28 GMT 51.38017 3.97987 17,550 348 327 -896
2017-11-20 14:16:26 GMT 51.37811 3.98061 17,550 348 327 -896
2017-11-20 14:16:24 GMT 51.37518 3.98165 17,600 348 327 -896
2017-11-20 14:16:22 GMT 51.37221 3.98269 17,625 348 328 -896
2017-11-20 14:16:20 GMT 51.36983 3.98351 17,650 348 328 -896
2017-11-20 14:16:18 GMT 51.36658 3.98460 17,675 348 328 -896
2017-11-20 14:16:16 GMT 51.36214 3.98618 17,725 348 328 -896
2017-11-20 14:16:16 GMT 51.36214 3.98618 17,725 348 328 -896
2017-11-20 14:16:14 GMT 51.35976 3.98700 17,750 348 329 -896
2017-11-20 14:16:12 GMT 51.35769 3.98766 17,750 348 329 -896
2017-11-20 14:16:08 GMT 51.35173 3.98972 17,825 348 329 -896
2017-11-20 14:16:05 GMT 51.34577 3.99178 17,875 348 330 -896
2017-11-20 14:16:03 GMT 51.34488 3.99212 17,900 348 330 -896
2017-11-20 14:16:01 GMT 51.34158 3.99322 17,925 348 330 -896
2017-11-20 14:15:59 GMT 51.33769 3.99457 17,950 348 330 -896
2017-11-20 14:15:56 GMT 51.33385 3.99590 18,000 348 330 -896
2017-11-20 14:15:54 GMT 51.33082 3.99696 18,025 348 330 -896
2017-11-20 14:15:52 GMT 51.32877 3.99761 18,050 348 330 -896
2017-11-20 14:15:50 GMT 51.32396 3.99925 18,100 348 330 -896
2017-11-20 14:15:48 GMT 51.32098 4.00028 18,125 348 331 -896
2017-11-20 14:15:46 GMT 51.31801 4.00132 18,150 348 331 -896
2017-11-20 14:15:44 GMT 51.31499 4.00229 18,200 348 330 -896
2017-11-20 14:15:42 GMT 51.31230 4.00322 18,225 348 330 -896
2017-11-20 14:15:39 GMT 51.30871 4.00444 18,250 348 330 -896
2017-11-20 14:15:37 GMT 51.30573 4.00543 18,275 348 330 -896
2017-11-20 14:15:35 GMT 51.30275 4.00650 18,300 348 330 -896
2017-11-20 14:15:33 GMT 51.29947 4.00763 18,350 348 330 -896
2017-11-20 14:15:31 GMT 51.29680 4.00856 18,375 348 330 -896
2017-11-20 14:15:29 GMT 51.29352 4.00971 18,400 348 330 -896
2017-11-20 14:15:27 GMT 51.29173 4.01031 18,425 348 330 -896
2017-11-20 14:15:24 GMT 51.28604 4.01230 18,475 348 330 -896
2017-11-20 14:15:22 GMT 51.28246 4.01360 18,525 348 331 -896
2017-11-20 14:15:19 GMT 51.27860 4.01498 18,550 348 331 -896
2017-11-20 14:15:19 GMT 51.27860 4.01498 18,550 348 331 -896
2017-11-20 14:15:16 GMT 51.27468 4.01642 18,600 348 331 -896
2017-11-20 14:15:14 GMT 51.26962 4.01825 18,650 348 331 -896
2017-11-20 14:15:12 GMT 51.26784 4.01884 18,650 348 331 -896
2017-11-20 14:15:09 GMT 51.26427 4.02018 18,700 348 331 -896
2017-11-20 14:15:07 GMT 51.26129 4.02129 18,725 348 332 -896
2017-11-20 14:15:05 GMT 51.25858 4.02222 18,750 348 331 -896
2017-11-20 14:15:02 GMT 51.25172 4.02471 18,825 348 331 -896
2017-11-20 14:15:00 GMT 51.25020 4.02519 18,825 347 330 -960
2017-11-20 14:14:57 GMT 51.24424 4.02740 18,875 345 329 -960
2017-11-20 14:14:54 GMT 51.23982 4.02931 18,925 342 327 -960
2017-11-20 14:14:51 GMT 51.23579 4.03131 18,975 341 326 -960
2017-11-20 14:14:48 GMT 51.23209 4.03336 19,000 338 324 -960
2017-11-20 14:14:44 GMT 51.22646 4.03679 19,075 335 322 -960
2017-11-20 14:14:42 GMT 51.22483 4.03793 19,075 333 321 -960
2017-11-20 14:14:42 GMT 51.22483 4.03793 19,075 336 323 -960
2017-11-20 14:14:40 GMT 51.22152 4.04022 19,125 334 322 -960
2017-11-20 14:14:38 GMT 51.21963 4.04171 19,150 333 321 -960
2017-11-20 14:14:36 GMT 51.21593 4.04468 19,175 332 320 -960
2017-11-20 14:14:34 GMT 51.21463 4.04579 19,200 331 320 -960
2017-11-20 14:14:32 GMT 51.21151 4.04854 19,225 329 318 -960
2017-11-20 14:14:32 GMT 51.21151 4.04854 19,225 329 318 -960
2017-11-20 14:14:29 GMT 51.20723 4.05262 19,275 327 317 -960
2017-11-20 14:14:27 GMT 51.20476 4.05514 19,325 326 317 -960
2017-11-20 14:14:24 GMT 51.20183 4.05833 19,350 325 317 -960
2017-11-20 14:14:22 GMT 51.19894 4.06160 19,375 323 316 -896
2017-11-20 14:14:19 GMT 51.19473 4.06665 19,425 322 316 -960
2017-11-20 14:14:17 GMT 51.19312 4.06868 19,450 322 316 -960
2017-11-20 14:14:15 GMT 51.19020 4.07244 19,500 319 316 -960
2017-11-20 14:14:13 GMT 51.18861 4.07455 19,500 320 316 -960
2017-11-20 14:14:10 GMT 51.18485 4.07971 19,550 318 315 -960
2017-11-20 14:14:08 GMT 51.18310 4.08216 19,575 318 315 -960
2017-11-20 14:14:06 GMT 51.18158 4.08440 19,600 315 316 -896
2017-11-20 14:14:04 GMT 51.17776 4.09012 19,650 315 316 -896
2017-11-20 14:14:02 GMT 51.17711 4.09115 19,675 315 316 -896
2017-11-20 14:14:00 GMT 51.17404 4.09607 19,700 315 318 -832
2017-11-20 14:13:58 GMT 51.17258 4.09842 19,725 315 318 -832
2017-11-20 14:13:56 GMT 51.17031 4.10202 19,750 315 318 -832
2017-11-20 14:13:54 GMT 51.16727 4.10703 19,800 315 319 -768
2017-11-20 14:13:54 GMT 51.16826 4.10538 19,775 315 318 -768
2017-11-20 14:13:52 GMT 51.16640 4.10837 19,800 315 319 -768
2017-11-20 14:13:49 GMT 51.16333 4.11339 19,850 315 319 -704
2017-11-20 14:13:47 GMT 51.16082 4.11743 19,875 315 319 -640
2017-11-20 14:13:44 GMT 51.15733 4.12314 19,900 315 321 -640
2017-11-20 14:13:42 GMT 51.15523 4.12648 19,925 315 321 -640
2017-11-20 14:13:42 GMT 51.15625 4.12483 19,925 315 321 -576
2017-11-20 14:13:40 GMT 51.15421 4.12819 19,950 315 323 -512
2017-11-20 14:13:37 GMT 51.15106 4.13324 19,975 315 324 -320
2017-11-20 14:13:37 GMT 51.15106 4.13324 19,975 315 327 -64
2017-11-20 14:13:37 GMT 51.15106 4.13324 19,975 315 324 -320
2017-11-20 14:13:35 GMT 51.14750 4.13895 19,975 315 325 -192
2017-11-20 14:13:33 GMT 51.14662 4.14032 20,000 315 327 -64
2017-11-20 14:13:33 GMT 51.14708 4.13963 19,975 315 326 -128
2017-11-20 14:13:31 GMT 51.14346 4.14548 20,000 315 330 192
2017-11-20 14:13:29 GMT 51.14154 4.14856 20,000 315 330 192
2017-11-20 14:13:26 GMT 51.13810 4.15405 20,000 315 333 64
2017-11-20 14:13:22 GMT 51.13465 4.15962 19,975 315 338 64
2017-11-20 14:13:19 GMT 51.13158 4.16458 19,975 315 341 64
2017-11-20 14:13:17 GMT 51.12897 4.16885 19,975 315 342 64
2017-11-20 14:13:15 GMT 51.12721 4.17175 19,975 315 343 64
2017-11-20 14:13:12 GMT 51.12295 4.17859 20,000 315 345 0
2017-11-20 14:13:10 GMT 51.12143 4.18114 20,000 315 345 0
2017-11-20 14:13:08 GMT 51.11897 4.18512 20,000 315 345 0
2017-11-20 14:13:05 GMT 51.11608 4.18984 20,000 315 345 64
2017-11-20 14:13:03 GMT 51.11275 4.19529 20,000 315 345 0
2017-11-20 14:13:00 GMT 51.10918 4.20108 20,000 315 344 -128
2017-11-20 14:12:58 GMT 51.10739 4.20398 20,000 315 344 -256
2017-11-20 14:12:56 GMT 51.10606 4.20613 20,000 315 342 -256
2017-11-20 14:12:55 GMT 51.10495 4.20792 20,000 315 342 -256
2017-11-20 14:12:53 GMT 51.10208 4.21266 20,000 315 341 -576
2017-11-20 14:12:51 GMT 51.10053 4.21516 20,025 315 342 -448
2017-11-20 14:12:49 GMT 51.09856 4.21845 20,025 315 341 -640
2017-11-20 14:12:47 GMT 51.09611 4.22241 20,050 315 341 -1216
2017-11-20 14:12:45 GMT 51.09325 4.22706 20,075 315 340 -960
2017-11-20 14:12:43 GMT 51.09151 4.22989 20,100 315 341 -1152
2017-11-20 14:12:41 GMT 51.08931 4.23352 20,125 315 341 -1344
2017-11-20 14:12:39 GMT 51.08752 4.23634 20,150 315 341 -1408
2017-11-20 14:12:37 GMT 51.08579 4.23924 20,200 315 341 -1408
2017-11-20 14:12:34 GMT 51.08089 4.24711 20,300 315 341 -1536
2017-11-20 14:12:32 GMT 51.07823 4.25134 20,350 315 341 -1536
2017-11-20 14:12:30 GMT 51.07711 4.25316 20,375 315 342 -1472
2017-11-20 14:12:27 GMT 51.07446 4.25743 20,450 315 342 -1472
2017-11-20 14:12:24 GMT 51.07068 4.26351 20,525 315 343 -1536
2017-11-20 14:12:21 GMT 51.06670 4.26990 20,625 315 343 -1472
2017-11-20 14:12:18 GMT 51.06399 4.27420 20,675 315 344 -1536
2017-11-20 14:12:18 GMT 51.06399 4.27420 20,675 315 343 -1472
2017-11-20 14:12:16 GMT 51.06152 4.27811 20,725 315 344 -1536
2017-11-20 14:12:14 GMT 51.05840 4.28314 20,800 315 344 -1536
2017-11-20 14:12:11 GMT 51.05548 4.28779 20,875 315 345 -1536
2017-11-20 14:12:08 GMT 51.05191 4.29358 20,950 315 345 -1536
2017-11-20 14:12:08 GMT 51.05191 4.29358 20,950 315 345 -1472
2017-11-20 14:12:06 GMT 51.04895 4.29817 21,000 315 345 -1536
2017-11-20 14:12:04 GMT 51.04738 4.30070 21,050 315 345 -1536
2017-11-20 14:12:04 GMT 51.04738 4.30070 21,050 315 345 -1536
2017-11-20 14:12:01 GMT 51.04468 4.30501 21,100 315 346 -1536
2017-11-20 14:11:59 GMT 51.04220 4.30901 21,150 315 346 -1536
2017-11-20 14:11:56 GMT 51.03815 4.31549 21,250 315 347 -1536
2017-11-20 14:11:54 GMT 51.03612 4.31874 21,300 315 347 -1536
2017-11-20 14:11:52 GMT 51.03545 4.31984 21,325 315 347 -1536
2017-11-20 14:11:50 GMT 51.03229 4.32487 21,375 315 348 -1536
2017-11-20 14:11:47 GMT 51.02934 4.32958 21,450 315 348 -1472
2017-11-20 14:11:45 GMT 51.02660 4.33396 21,500 315 349 -1472
2017-11-20 14:11:43 GMT 51.02363 4.33868 21,575 315 350 -1472
2017-11-20 14:11:41 GMT 51.02135 4.34227 21,625 315 350 -1472
2017-11-20 14:11:39 GMT 51.01932 4.34554 21,675 315 350 -1472
2017-11-20 14:11:37 GMT 51.01653 4.34992 21,725 315 352 -1472
2017-11-20 14:11:35 GMT 51.01469 4.35281 21,775 316 352 -1536
2017-11-20 14:11:35 GMT 51.01469 4.35281 21,775 316 352 -1472
2017-11-20 14:11:33 GMT 51.01241 4.35645 21,825 316 352 -1472
2017-11-20 14:11:30 GMT 51.00915 4.36157 21,875 316 354 -1472
2017-11-20 14:11:28 GMT 51.00732 4.36447 21,925 315 354 -1472
2017-11-20 14:11:26 GMT 51.00499 4.36818 21,975 315 357 -1472
2017-11-20 14:11:26 GMT 51.00499 4.36818 21,975 315 356 -1472
2017-11-20 14:11:23 GMT 51.00105 4.37439 22,050 315 356 -1472
2017-11-20 14:11:21 GMT 50.99919 4.37737 22,100 315 357 -1472
2017-11-20 14:11:19 GMT 50.99593 4.38255 22,175 315 359 -1536
2017-11-20 14:11:17 GMT 50.99336 4.38666 22,225 315 359 -1536
2017-11-20 14:11:16 GMT 50.99267 4.38774 22,225 315 360 -1472
2017-11-20 14:11:15 GMT 50.99267 4.38774 22,225 315 359 -1472
2017-11-20 14:11:13 GMT 50.98915 4.39334 22,300 315 361 -1536
2017-11-20 14:11:11 GMT 50.98750 4.39598 22,350 315 361 -1536
2017-11-20 14:11:09 GMT 50.98586 4.39861 22,375 315 362 -1472
2017-11-20 14:11:07 GMT 50.98256 4.40381 22,450 315 362 -1472
2017-11-20 14:11:05 GMT 50.98089 4.40651 22,500 315 364 -1408
2017-11-20 14:11:05 GMT 50.98089 4.40651 22,500 315 362 -1408
2017-11-20 14:11:03 GMT 50.97759 4.41177 22,550 315 364 -1472
2017-11-20 14:11:01 GMT 50.97475 4.41627 22,625 315 364 -1536
2017-11-20 14:10:59 GMT 50.97308 4.41888 22,650 315 364 -1472
2017-11-20 14:10:57 GMT 50.97116 4.42192 22,700 315 364 -1472
2017-11-20 14:10:55 GMT 50.96832 4.42645 22,750 315 364 -1472
2017-11-20 14:10:52 GMT 50.96474 4.43214 22,825 315 365 -1536
2017-11-20 14:10:49 GMT 50.96022 4.43929 22,925 315 365 -1472
2017-11-20 14:10:45 GMT 50.95546 4.44686 23,025 315 366 -1472
2017-11-20 14:10:45 GMT 50.95617 4.44572 23,000 315 366 -1536
2017-11-20 14:10:42 GMT 50.95258 4.45139 23,075 315 366 -1408
2017-11-20 14:10:40 GMT 50.95020 4.45518 23,125 315 366 -1472
2017-11-20 14:10:40 GMT 50.94969 4.45599 23,150 315 366 -1472
2017-11-20 14:10:38 GMT 50.94803 4.45862 23,175 315 366 -1472
2017-11-20 14:10:36 GMT 50.94635 4.46127 23,225 315 366 -1472
2017-11-20 14:10:34 GMT 50.94347 4.46587 23,275 315 367 -1472
2017-11-20 14:10:34 GMT 50.94347 4.46587 23,275 315 366 -1472
2017-11-20 14:10:32 GMT 50.94013 4.47121 23,350 315 367 -1472
2017-11-20 14:10:30 GMT 50.93820 4.47426 23,375 315 368 -1472
2017-11-20 14:10:28 GMT 50.93606 4.47769 23,425 314 369 -1472
2017-11-20 14:10:26 GMT 50.93390 4.48116 23,475 315 368 -1408
2017-11-20 14:10:24 GMT 50.93106 4.48576 23,525 315 369 -1472
2017-11-20 14:10:21 GMT 50.92818 4.49036 23,575 314 369 -1472
2017-11-20 14:10:18 GMT 50.92397 4.49742 23,675 314 369 -1472
2017-11-20 14:10:16 GMT 50.92135 4.50172 23,725 313 370 -1472
2017-11-20 14:10:14 GMT 50.91925 4.50528 23,775 312 371 -1472
2017-11-20 14:10:14 GMT 50.91856 4.50645 23,775 313 370 -1472
2017-11-20 14:10:11 GMT 50.91674 4.50966 23,825 313 370 -1472
2017-11-20 14:10:08 GMT 50.91234 4.51731 23,900 312 371 -1472
2017-11-20 14:10:06 GMT 50.91027 4.52095 23,950 312 372 -1408
2017-11-20 14:10:03 GMT 50.90706 4.52660 24,025 313 373 -1408
2017-11-20 14:10:01 GMT 50.90497 4.53030 24,075 313 373 -1344
2017-11-20 14:09:58 GMT 50.90030 4.53832 24,150 314 375 -1344
2017-11-20 14:09:57 GMT 50.89910 4.54025 24,175 314 375 -1344
2017-11-20 14:09:55 GMT 50.89673 4.54422 24,225 315 376 -1344
2017-11-20 14:09:53 GMT 50.89504 4.54700 24,275 315 377 -1344
2017-11-20 14:09:51 GMT 50.89261 4.55094 24,300 316 378 -1344
2017-11-20 14:09:49 GMT 50.88891 4.55681 24,375 317 379 -1280
2017-11-20 14:09:47 GMT 50.88793 4.55833 24,400 317 379 -1280
2017-11-20 14:09:44 GMT 50.88336 4.56528 24,475 318 380 -1280
2017-11-20 14:09:41 GMT 50.88029 4.56985 24,550 318 380 -1280
2017-11-20 14:09:39 GMT 50.87671 4.57512 24,600 318 379 -1152
2017-11-20 14:09:37 GMT 50.87434 4.57848 24,650 318 380 -1216
2017-11-20 14:09:35 GMT 50.87228 4.58145 24,675 318 380 -1152
2017-11-20 14:09:33 GMT 50.86996 4.58488 24,700 318 379 -1152
2017-11-20 14:09:31 GMT 50.86812 4.58746 24,750 318 379 -1088
2017-11-20 14:09:29 GMT 50.86505 4.59191 24,775 318 377 -960
2017-11-20 14:09:27 GMT 50.86194 4.59644 24,825 318 377 -960
2017-11-20 14:09:25 GMT 50.85933 4.60015 24,875 318 376 -832
2017-11-20 14:09:23 GMT 50.85677 4.60386 24,900 318 376 -704
2017-11-20 14:09:23 GMT 50.85677 4.60386 24,900 318 376 -704
2017-11-20 14:09:21 GMT 50.85420 4.60758 24,925 318 375 -128
2017-11-20 14:09:19 GMT 50.85241 4.61014 24,950 318 376 -576
2017-11-20 14:09:17 GMT 50.84802 4.61648 24,975 318 375 -192
2017-11-20 14:09:15 GMT 50.84524 4.62051 24,975 318 375 -128
2017-11-20 14:09:13 GMT 50.84294 4.62383 25,000 318 375 -64
2017-11-20 14:09:11 GMT 50.84165 4.62570 25,000 318 375 0
2017-11-20 14:09:08 GMT 50.83832 4.63051 25,000 318 375 0
2017-11-20 14:09:07 GMT 50.83525 4.63489 25,000 318 375 -64
2017-11-20 14:09:05 GMT 50.83397 4.63676 25,000 318 375 -64
2017-11-20 14:09:03 GMT 50.83141 4.64043 25,000 318 375 -64
2017-11-20 14:09:01 GMT 50.82885 4.64417 25,000 318 375 -128
2017-11-20 14:09:00 GMT 50.82806 4.64521 25,000 318 374 -192
2017-11-20 14:08:57 GMT 50.82220 4.65370 25,000 318 374 -384
2017-11-20 14:08:55 GMT 50.82037 4.65627 25,000 318 374 -448
2017-11-20 14:08:53 GMT 50.81856 4.65889 25,025 318 375 -512
2017-11-20 14:08:51 GMT 50.81525 4.66362 25,050 318 376 -960
2017-11-20 14:08:48 GMT 50.81117 4.66956 25,075 318 375 -960
2017-11-20 14:08:46 GMT 50.80935 4.67209 25,100 318 375 -960
2017-11-20 14:08:44 GMT 50.80550 4.67765 25,150 318 376 -960
2017-11-20 14:08:42 GMT 50.80371 4.68025 25,175 318 377 -960
2017-11-20 14:08:39 GMT 50.80060 4.68468 25,200 318 377 -960
2017-11-20 14:08:36 GMT 50.79625 4.69101 25,250 318 377 -960
2017-11-20 14:08:33 GMT 50.79213 4.69695 25,300 318 377 -960
2017-11-20 14:08:31 GMT 50.79031 4.69955 25,350 318 378 -960
2017-11-20 14:08:29 GMT 50.78801 4.70289 25,375 318 378 -960
2017-11-20 14:08:29 GMT 50.78801 4.70289 25,375 318 378 -960
2017-11-20 14:08:29 GMT 50.78851 4.70215 25,350 318 378 -960
2017-11-20 14:08:27 GMT 50.78514 4.70695 25,400 318 379 -960
2017-11-20 14:08:25 GMT 50.78207 4.71138 25,450 318 379 -960
2017-11-20 14:08:22 GMT 50.77895 4.71588 25,475 318 379 -960
2017-11-20 14:08:20 GMT 50.77556 4.72071 25,525 318 380 -960
2017-11-20 14:08:18 GMT 50.77429 4.72260 25,550 318 380 -960
2017-11-20 14:08:17 GMT 50.77300 4.72449 25,550 318 380 -960
2017-11-20 14:08:15 GMT 50.76988 4.72895 25,600 318 380 -960
2017-11-20 14:08:13 GMT 50.76754 4.73229 25,625 318 380 -960
2017-11-20 14:08:11 GMT 50.76311 4.73867 25,675 318 380 -960
2017-11-20 14:08:09 GMT 50.76260 4.73941 25,675 318 380 -960
2017-11-20 14:08:09 GMT 50.76000 4.74312 25,725 318 380 -960
2017-11-20 14:08:07 GMT 50.75819 4.74579 25,750 318 380 -960
2017-11-20 14:08:05 GMT 50.75507 4.75021 25,775 318 380 -960
2017-11-20 14:08:02 GMT 50.75246 4.75395 25,825 318 380 -960
2017-11-20 14:08:00 GMT 50.75015 4.75730 25,850 318 380 -960
2017-11-20 14:07:58 GMT 50.74599 4.76332 25,900 318 380 -960
2017-11-20 14:07:56 GMT 50.74443 4.76554 25,900 318 380 -960
2017-11-20 14:07:54 GMT 50.74208 4.76891 25,950 318 380 -960
2017-11-20 14:07:51 GMT 50.73789 4.77486 26,000 318 380 -1024
2017-11-20 14:07:49 GMT 50.73610 4.77742 26,025 318 379 -960
2017-11-20 14:07:47 GMT 50.73349 4.78120 26,050 318 379 -960
2017-11-20 14:07:45 GMT 50.72932 4.78714 26,100 318 379 -960
2017-11-20 14:07:43 GMT 50.72853 4.78821 26,125 318 379 -960
2017-11-20 14:07:41 GMT 50.72516 4.79308 26,150 318 379 -960
2017-11-20 14:07:38 GMT 50.72076 4.79935 26,225 318 380 -1024
2017-11-20 14:07:38 GMT 50.71893 4.80199 26,250 318 380 -1024
2017-11-20 14:07:36 GMT 50.71843 4.80273 26,250 318 380 -960
2017-11-20 14:07:34 GMT 50.71632 4.80570 26,275 318 380 -1024
2017-11-20 14:07:31 GMT 50.71216 4.81164 26,325 318 380 -1024
2017-11-20 14:07:31 GMT 50.71216 4.81164 26,325 318 380 -960
2017-11-20 14:07:29 GMT 50.70982 4.81499 26,350 318 380 -960
2017-11-20 14:07:27 GMT 50.70721 4.81873 26,400 318 380 -960
2017-11-20 14:07:25 GMT 50.70488 4.82203 26,425 318 380 -960
2017-11-20 14:07:23 GMT 50.70227 4.82575 26,450 318 380 -960
2017-11-20 14:07:21 GMT 50.69837 4.83131 26,500 318 380 -1024
2017-11-20 14:07:18 GMT 50.69576 4.83505 26,525 318 381 -960
2017-11-20 14:07:16 GMT 50.69367 4.83803 26,550 318 381 -960
2017-11-20 14:07:14 GMT 50.69003 4.84322 26,600 318 381 -960
2017-11-20 14:07:11 GMT 50.68556 4.84957 26,650 318 381 -960
2017-11-20 14:07:10 GMT 50.68426 4.85146 26,675 318 383 -960
2017-11-20 14:07:09 GMT 50.68375 4.85214 26,675 318 382 -960
2017-11-20 14:07:07 GMT 50.68114 4.85588 26,725 318 383 -960
2017-11-20 14:07:05 GMT 50.67849 4.85962 26,750 318 383 -960
2017-11-20 14:07:03 GMT 50.67588 4.86336 26,775 318 383 -960
2017-11-20 14:06:59 GMT 50.67062 4.87080 26,850 318 383 -960
2017-11-20 14:06:57 GMT 50.66670 4.87648 26,900 318 385 -960
2017-11-20 14:06:55 GMT 50.66515 4.87873 26,925 318 384 -960
2017-11-20 14:06:53 GMT 50.66275 4.88209 26,950 318 384 -960
2017-11-20 14:06:48 GMT 50.65512 4.89296 27,050 318 385 -960
2017-11-20 14:06:46 GMT 50.65330 4.89560 27,075 318 385 -960
2017-11-20 14:06:44 GMT 50.65172 4.89782 27,075 318 386 -960
2017-11-20 14:06:41 GMT 50.64693 4.90465 27,150 318 386 -960
2017-11-20 14:06:39 GMT 50.64299 4.91031 27,200 318 387 -960
2017-11-20 14:06:37 GMT 50.64167 4.91215 27,200 318 387 -960
2017-11-20 14:06:35 GMT 50.63768 4.91783 27,250 318 387 -960
2017-11-20 14:06:33 GMT 50.63529 4.92121 27,275 318 388 -960
2017-11-20 14:06:31 GMT 50.63397 4.92310 27,300 318 388 -960
2017-11-20 14:06:28 GMT 50.62971 4.92917 27,350 318 388 -960
2017-11-20 14:06:26 GMT 50.62706 4.93293 27,375 318 388 -960
2017-11-20 14:06:26 GMT 50.62706 4.93293 27,375 318 388 -960
2017-11-20 14:06:24 GMT 50.62467 4.93635 27,400 318 389 -960
2017-11-20 14:06:24 GMT 50.62467 4.93635 27,400 318 389 -960
2017-11-20 14:06:22 GMT 50.62202 4.94014 27,450 318 389 -960
2017-11-20 14:06:22 GMT 50.62202 4.94014 27,450 318 389 -960
2017-11-20 14:06:20 GMT 50.61881 4.94466 27,475 318 389 -960
2017-11-20 14:06:18 GMT 50.61694 4.94739 27,500 318 389 -960
2017-11-20 14:06:16 GMT 50.61374 4.95194 27,550 318 390 -960
2017-11-20 14:06:13 GMT 50.60838 4.95953 27,600 318 390 -960
2017-11-20 14:06:11 GMT 50.60783 4.96026 27,625 318 390 -960
2017-11-20 14:06:09 GMT 50.60463 4.96481 27,650 318 390 -960
2017-11-20 14:06:07 GMT 50.60193 4.96864 27,700 318 392 -960
2017-11-20 14:06:05 GMT 50.59846 4.97361 27,725 318 392 -960
2017-11-20 14:06:02 GMT 50.59497 4.97854 27,775 318 392 -960
2017-11-20 14:06:00 GMT 50.59307 4.98119 27,800 318 394 -960
2017-11-20 14:05:57 GMT 50.58771 4.98883 27,850 318 392 -960
2017-11-20 14:05:55 GMT 50.58581 4.99155 27,875 319 393 -960
2017-11-20 14:05:53 GMT 50.58366 4.99459 27,900 319 393 -960
2017-11-20 14:05:51 GMT 50.57932 5.00066 27,950 318 394 -960
2017-11-20 14:05:48 GMT 50.57552 5.00601 28,000 318 394 -960
2017-11-20 14:05:46 GMT 50.57202 5.01103 28,050 318 394 -1024
2017-11-20 14:05:43 GMT 50.56932 5.01481 28,075 318 394 -960
2017-11-20 14:05:41 GMT 50.56658 5.01867 28,125 318 395 -1024
2017-11-20 14:05:39 GMT 50.56388 5.02253 28,150 318 395 -1024
2017-11-20 14:05:36 GMT 50.55927 5.02899 28,200 318 395 -1024
2017-11-20 14:05:36 GMT 50.55927 5.02899 28,200 318 395 -1024
2017-11-20 14:05:34 GMT 50.55602 5.03362 28,250 318 395 -1024
2017-11-20 14:05:31 GMT 50.55303 5.03782 28,300 318 394 -1024
2017-11-20 14:05:29 GMT 50.54846 5.04439 28,350 318 394 -1024
2017-11-20 14:05:27 GMT 50.54712 5.04629 28,350 318 394 -1024
2017-11-20 14:05:25 GMT 50.54521 5.04901 28,400 318 394 -1088
2017-11-20 14:05:23 GMT 50.54251 5.05284 28,425 318 394 -1024
2017-11-20 14:05:21 GMT 50.53790 5.05935 28,475 318 394 -1088
2017-11-20 14:05:19 GMT 50.53656 5.06130 28,500 318 394 -1088
2017-11-20 14:05:19 GMT 50.53711 5.06058 28,500 318 394 -1088
2017-11-20 14:05:17 GMT 50.53441 5.06441 28,525 318 393 -1088
2017-11-20 14:05:15 GMT 50.53171 5.06824 28,575 318 393 -1088
2017-11-20 14:05:12 GMT 50.52690 5.07510 28,625 318 392 -1088
2017-11-20 14:05:10 GMT 50.52445 5.07858 28,675 318 392 -1088
2017-11-20 14:05:08 GMT 50.52123 5.08311 28,700 318 391 -1088
2017-11-20 14:05:06 GMT 50.51909 5.08622 28,750 318 391 -1088
2017-11-20 14:05:04 GMT 50.51669 5.08963 28,775 318 391 -1088
2017-11-20 14:05:02 GMT 50.51239 5.09570 28,825 318 390 -1152
2017-11-20 14:05:00 GMT 50.51079 5.09802 28,850 319 391 -1216
2017-11-20 14:04:58 GMT 50.50703 5.10329 28,900 319 390 -1216
2017-11-20 14:04:56 GMT 50.50438 5.10705 28,950 319 390 -1152
2017-11-20 14:04:54 GMT 50.50223 5.11009 28,975 319 390 -1216
2017-11-20 14:04:51 GMT 50.49926 5.11428 29,025 319 391 -1216
2017-11-20 14:04:49 GMT 50.49498 5.12030 29,075 319 392 -1280
2017-11-20 14:04:45 GMT 50.49042 5.12678 29,150 318 392 -1280
2017-11-20 14:04:42 GMT 50.48637 5.13247 29,200 318 394 -1344
2017-11-20 14:04:41 GMT 50.48447 5.13517 29,250 318 395 -1472
2017-11-20 14:04:40 GMT 50.48362 5.13633 29,250 319 397 -1920
2017-11-20 14:04:38 GMT 50.48067 5.14052 29,300 318 395 -1472
2017-11-20 14:04:36 GMT 50.47929 5.14242 29,325 318 395 -1536
2017-11-20 14:04:34 GMT 50.47522 5.14818 29,400 318 397 -1600
2017-11-20 14:04:34 GMT 50.47522 5.14818 29,400 318 397 -1600
2017-11-20 14:04:31 GMT 50.47087 5.15432 29,475 318 397 -1792
2017-11-20 14:04:29 GMT 50.46952 5.15623 29,500 319 397 -1920
2017-11-20 14:04:26 GMT 50.46542 5.16206 29,600 319 397 -1920
2017-11-20 14:04:24 GMT 50.46213 5.16668 29,675 319 399 -1920
2017-11-20 14:04:21 GMT 50.45723 5.17362 29,800 319 399 -1920
2017-11-20 14:04:19 GMT 50.45583 5.17553 29,825 319 399 -1920
2017-11-20 14:04:16 GMT 50.45034 5.18325 29,950 319 400 -1920
2017-11-20 14:04:13 GMT 50.44652 5.18867 30,050 319 400 -1920
2017-11-20 14:04:11 GMT 50.44433 5.19171 30,100 319 400 -1920
2017-11-20 14:04:09 GMT 50.44075 5.19675 30,175 319 400 -1920
2017-11-20 14:04:09 GMT 50.44075 5.19675 30,175 319 400 -1920
2017-11-20 14:04:06 GMT 50.43796 5.20058 30,250 319 400 -1920
2017-11-20 14:04:04 GMT 50.43356 5.20680 30,350 319 400 -1920
2017-11-20 14:04:04 GMT 50.43356 5.20680 30,350 319 400 -1920
2017-11-20 14:04:01 GMT 50.42943 5.21257 30,450 319 400 -1920
2017-11-20 14:03:58 GMT 50.42669 5.21643 30,525 319 400 -1920
2017-11-20 14:03:56 GMT 50.42389 5.22029 30,575 319 400 -1920
2017-11-20 14:03:54 GMT 50.42088 5.22450 30,650 319 400 -1920
2017-11-20 14:03:54 GMT 50.42003 5.22571 30,675 319 400 -1856
2017-11-20 14:03:52 GMT 50.41814 5.22841 30,725 319 400 -1856
2017-11-20 14:03:50 GMT 50.41672 5.23031 30,750 319 400 -1856
2017-11-20 14:03:48 GMT 50.41315 5.23535 30,825 319 399 -1792
2017-11-20 14:03:46 GMT 50.40849 5.24189 30,925 319 399 -1856
2017-11-20 14:03:44 GMT 50.40681 5.24419 30,975 319 399 -1856
2017-11-20 14:03:42 GMT 50.40376 5.24843 31,050 319 399 -1792
2017-11-20 14:03:40 GMT 50.40102 5.25226 31,100 319 399 -1792
2017-11-20 14:03:37 GMT 50.39772 5.25689 31,175 319 399 -1792
2017-11-20 14:03:35 GMT 50.39388 5.26231 31,275 319 399 -1792
2017-11-20 14:03:33 GMT 50.39278 5.26382 31,300 319 399 -1728
2017-11-20 14:03:31 GMT 50.38893 5.26917 31,375 319 399 -1728
2017-11-20 14:03:29 GMT 50.38618 5.27308 31,425 319 399 -1728
2017-11-20 14:03:27 GMT 50.38428 5.27574 31,475 319 398 -1664
2017-11-20 14:03:25 GMT 50.38069 5.28074 31,550 319 398 -1600
2017-11-20 14:03:23 GMT 50.37689 5.28616 31,625 319 398 -1600
2017-11-20 14:03:21 GMT 50.37634 5.28688 31,625 319 398 -1536
2017-11-20 14:03:19 GMT 50.37278 5.29192 31,700 319 397 -1536
2017-11-20 14:03:16 GMT 50.36840 5.29801 31,775 319 397 -1280
2017-11-20 14:03:14 GMT 50.36591 5.30148 31,825 319 397 -1216
2017-11-20 14:03:12 GMT 50.36266 5.30611 31,875 319 396 -1024
2017-11-20 14:03:10 GMT 50.35965 5.31033 31,925 319 396 -704
2017-11-20 14:03:08 GMT 50.35666 5.31449 31,975 318 395 -640
2017-11-20 14:03:06 GMT 50.35583 5.31567 31,975 319 396 -704
2017-11-20 14:03:04 GMT 50.35176 5.32143 32,025 318 395 -512
2017-11-20 14:03:02 GMT 50.34956 5.32447 32,025 319 395 -512
2017-11-20 14:03:00 GMT 50.34686 5.32830 32,050 319 395 -704
2017-11-20 14:02:57 GMT 50.34280 5.33401 32,075 319 395 -832
2017-11-20 14:02:55 GMT 50.34061 5.33705 32,075 319 395 -1024
2017-11-20 14:02:53 GMT 50.33816 5.34044 32,100 319 395 -1088
2017-11-20 14:02:51 GMT 50.33546 5.34427 32,150 319 395 -1280
2017-11-20 14:02:49 GMT 50.33167 5.34962 32,200 319 394 -1280
2017-11-20 14:02:47 GMT 50.32951 5.35266 32,250 319 394 -1216
2017-11-20 14:02:45 GMT 50.32758 5.35532 32,275 319 394 -1216
2017-11-20 14:02:43 GMT 50.32488 5.35910 32,325 319 394 -1216
2017-11-20 14:02:43 GMT 50.32488 5.35910 32,325 319 394 -1216
2017-11-20 14:02:41 GMT 50.32082 5.36480 32,375 319 394 -1216
2017-11-20 14:02:38 GMT 50.31729 5.36972 32,425 319 394 -1216
2017-11-20 14:02:36 GMT 50.31403 5.37424 32,475 319 393 -1280
2017-11-20 14:02:33 GMT 50.30997 5.37998 32,550 319 393 -1280
2017-11-20 14:02:30 GMT 50.30593 5.38560 32,600 319 393 -1216
2017-11-20 14:02:28 GMT 50.30267 5.39020 32,650 319 393 -1216
2017-11-20 14:02:25 GMT 50.30022 5.39356 32,700 319 393 -1216
2017-11-20 14:02:23 GMT 50.29778 5.39696 32,725 319 393 -1216
2017-11-20 14:02:21 GMT 50.29457 5.40149 32,775 319 393 -1216
2017-11-20 14:02:19 GMT 50.29024 5.40757 32,850 319 392 -1152
2017-11-20 14:02:17 GMT 50.28886 5.40947 32,875 319 393 -1216
2017-11-20 14:02:14 GMT 50.28428 5.41589 32,925 319 393 -1216
2017-11-20 14:02:11 GMT 50.28158 5.41960 32,975 319 392 -1152
2017-11-20 14:02:09 GMT 50.27833 5.42413 33,025 319 392 -1152
2017-11-20 14:02:07 GMT 50.27562 5.42791 33,050 319 392 -1152
2017-11-20 14:02:05 GMT 50.27261 5.43202 33,100 319 392 -1216
2017-11-20 14:02:03 GMT 50.27018 5.43541 33,125 319 392 -1216
2017-11-20 14:02:00 GMT 50.26611 5.44105 33,200 319 392 -1152
2017-11-20 14:01:58 GMT 50.26396 5.44409 33,225 319 392 -1152
2017-11-20 14:01:56 GMT 50.26021 5.44936 33,275 319 391 -1152
2017-11-20 14:01:54 GMT 50.25751 5.45312 33,325 319 392 -1152
2017-11-20 14:01:52 GMT 50.25612 5.45501 33,350 319 392 -1152
2017-11-20 14:01:50 GMT 50.25261 5.45992 33,400 319 392 -1152
2017-11-20 14:01:48 GMT 50.25021 5.46332 33,425 319 391 -1152
2017-11-20 14:01:47 GMT 50.24886 5.46519 33,450 319 392 -1152
2017-11-20 14:01:45 GMT 50.24588 5.46934 33,500 319 392 -1280
2017-11-20 14:01:43 GMT 50.24155 5.47535 33,550 319 392 -1216
2017-11-20 14:01:40 GMT 50.23885 5.47906 33,600 319 392 -1280
2017-11-20 14:01:38 GMT 50.23564 5.48359 33,650 319 392 -1280
2017-11-20 14:01:36 GMT 50.23375 5.48623 33,675 319 391 -1280
2017-11-20 14:01:34 GMT 50.23075 5.49034 33,725 319 391 -1280
2017-11-20 14:01:32 GMT 50.22780 5.49446 33,775 319 391 -1280
2017-11-20 14:01:30 GMT 50.22510 5.49822 33,825 319 391 -1280
2017-11-20 14:01:28 GMT 50.22185 5.50270 33,875 319 391 -1280
2017-11-20 14:01:27 GMT 50.22130 5.50343 33,875 319 391 -1280
2017-11-20 14:01:26 GMT 50.22046 5.50460 33,900 319 391 -1216
2017-11-20 14:01:24 GMT 50.21645 5.51015 33,950 319 391 -1216
2017-11-20 14:01:22 GMT 50.21375 5.51391 34,000 319 391 -1216
2017-11-20 14:01:19 GMT 50.21104 5.51767 34,050 319 390 -1216
2017-11-20 14:01:17 GMT 50.20645 5.52397 34,125 319 390 -1216
2017-11-20 14:01:14 GMT 50.20426 5.52701 34,150 319 390 -1216
2017-11-20 14:01:12 GMT 50.20074 5.53183 34,200 319 390 -1152
2017-11-20 14:01:08 GMT 50.19539 5.53935 34,275 319 390 -1152
2017-11-20 14:01:05 GMT 50.19269 5.54304 34,325 319 390 -1152
2017-11-20 14:01:05 GMT 50.19188 5.54416 34,325 319 390 -1152
2017-11-20 14:01:03 GMT 50.18918 5.54795 34,375 319 391 -1024
2017-11-20 14:01:01 GMT 50.18648 5.55166 34,400 319 390 -1088
2017-11-20 14:00:59 GMT 50.18189 5.55800 34,475 319 391 -1024
2017-11-20 14:00:59 GMT 50.18322 5.55611 34,450 319 391 -1024
2017-11-20 14:00:59 GMT 50.18322 5.55611 34,450 319 391 -1024
2017-11-20 14:00:56 GMT 50.17918 5.56176 34,500 319 391 -960
2017-11-20 14:00:56 GMT 50.17863 5.56248 34,500 319 391 -960
2017-11-20 14:00:54 GMT 50.17648 5.56544 34,550 319 391 -960
2017-11-20 14:00:52 GMT 50.17268 5.57072 34,575 319 391 -1088
2017-11-20 14:00:50 GMT 50.17213 5.57144 34,575 319 391 -1024
2017-11-20 14:00:48 GMT 50.16888 5.57592 34,625 319 391 -1088
2017-11-20 14:00:48 GMT 50.16888 5.57592 34,625 319 391 -1088
2017-11-20 14:00:47 GMT 50.16702 5.57853 34,650 319 392 -1152
2017-11-20 14:00:46 GMT 50.16702 5.57853 34,650 319 392 -1152
2017-11-20 14:00:44 GMT 50.16348 5.58344 34,700 319 392 -1344
2017-11-20 14:00:42 GMT 50.16050 5.58751 34,750 319 392 -1344
2017-11-20 14:00:40 GMT 50.15753 5.59168 34,800 319 391 -1536
2017-11-20 14:00:39 GMT 50.15753 5.59168 34,800 319 391 -1536
2017-11-20 14:00:36 GMT 50.15189 5.59954 34,900 319 391 -1600
2017-11-20 14:00:34 GMT 50.14838 5.60440 34,975 319 390 -1664
2017-11-20 14:00:32 GMT 50.14700 5.60629 35,000 319 390 -1664
2017-11-20 14:00:30 GMT 50.14430 5.61001 35,050 319 389 -1728
2017-11-20 14:00:28 GMT 50.14165 5.61372 35,100 319 389 -1728
2017-11-20 14:00:26 GMT 50.13977 5.61633 35,150 319 386 -1408
2017-11-20 14:00:24 GMT 50.13518 5.62270 35,250 319 388 -1536
2017-11-20 14:00:22 GMT 50.13359 5.62493 35,275 319 388 -1600
2017-11-20 14:00:20 GMT 50.13141 5.62789 35,325 319 388 -1536
2017-11-20 14:00:18 GMT 50.12819 5.63235 35,375 319 388 -1472
2017-11-20 14:00:15 GMT 50.12421 5.63794 35,475 319 387 -1472
2017-11-20 14:00:13 GMT 50.12182 5.64126 35,500 319 387 -1472
2017-11-20 14:00:11 GMT 50.11780 5.64683 35,575 319 387 -1408
2017-11-20 14:00:09 GMT 50.11539 5.65017 35,625 319 386 -1344
2017-11-20 14:00:07 GMT 50.11459 5.65124 35,625 319 386 -1344
2017-11-20 14:00:05 GMT 50.11009 5.65759 35,725 319 386 -1280
2017-11-20 14:00:03 GMT 50.10794 5.66048 35,750 319 386 -1216
2017-11-20 14:00:01 GMT 50.10608 5.66309 35,775 319 385 -1088
2017-11-20 13:59:59 GMT 50.10342 5.66678 35,825 319 385 -1024
2017-11-20 13:59:57 GMT 50.10106 5.67013 35,850 319 385 -896
2017-11-20 13:59:54 GMT 50.09651 5.67639 35,900 319 386 -640
2017-11-20 13:59:52 GMT 50.09331 5.68087 35,950 319 387 -512
2017-11-20 13:59:50 GMT 50.09010 5.68528 35,975 319 387 -384
2017-11-20 13:59:48 GMT 50.08745 5.68897 35,975 319 387 -256
2017-11-20 13:59:46 GMT 50.08504 5.69233 36,000 319 388 0
2017-11-20 13:59:43 GMT 50.08159 5.69713 36,000 319 388 0
2017-11-20 13:59:41 GMT 50.07917 5.70049 36,000 319 388 0
2017-11-20 13:59:38 GMT 50.07568 5.70530 36,000 319 388 0
2017-11-20 13:59:36 GMT 50.07198 5.71043 36,000 319 387 0
2017-11-20 13:59:34 GMT 50.06796 5.71601 36,000 319 387 0
2017-11-20 13:59:34 GMT 50.06873 5.71491 36,000 319 387 0
2017-11-20 13:59:32 GMT 50.06607 5.71860 36,000 319 388 0
2017-11-20 13:59:30 GMT 50.06497 5.72005 36,000 319 388 0
2017-11-20 13:59:28 GMT 50.06177 5.72445 36,000 319 388 0
2017-11-20 13:59:26 GMT 50.05990 5.72707 36,000 319 387 0
2017-11-20 13:59:23 GMT 50.05586 5.73255 36,000 319 388 0
2017-11-20 13:59:23 GMT 50.05450 5.73442 36,000 319 388 0
2017-11-20 13:59:21 GMT 50.05211 5.73768 36,000 319 388 0
2017-11-20 13:59:18 GMT 50.04859 5.74251 36,000 319 387 0
2017-11-20 13:59:16 GMT 50.04426 5.74830 36,000 319 387 0
2017-11-20 13:59:14 GMT 50.04240 5.75091 36,000 319 388 0
2017-11-20 13:59:12 GMT 50.03993 5.75416 36,000 319 388 0
2017-11-20 13:59:10 GMT 50.03723 5.75788 36,000 319 388 0
2017-11-20 13:59:08 GMT 50.03480 5.76117 36,000 319 388 0
2017-11-20 13:59:06 GMT 50.03215 5.76486 36,000 319 388 0
2017-11-20 13:59:03 GMT 50.02755 5.77109 36,000 319 388 0
2017-11-20 13:59:01 GMT 50.02490 5.77480 36,000 321 389 128
2017-11-20 13:58:59 GMT 50.02300 5.77736 36,000 320 388 64
2017-11-20 13:58:57 GMT 50.02001 5.78141 36,000 321 389 128
2017-11-20 13:58:54 GMT 50.01503 5.78779 36,000 324 389 128
2017-11-20 13:58:52 GMT 50.01306 5.79023 36,000 323 389 128
2017-11-20 13:58:50 GMT 50.00879 5.79529 36,000 325 390 128
2017-11-20 13:58:48 GMT 50.00823 5.79603 36,000 325 390 128
2017-11-20 13:58:46 GMT 50.00474 5.79997 36,000 326 390 64
2017-11-20 13:58:44 GMT 50.00034 5.80476 36,000 327 389 64
2017-11-20 13:58:42 GMT 49.99883 5.80627 36,000 327 389 64
2017-11-20 13:58:40 GMT 49.99585 5.80939 36,000 329 391 64
2017-11-20 13:58:40 GMT 49.99585 5.80939 36,000 330 391 64
2017-11-20 13:58:38 GMT 49.99156 5.81355 36,000 336 392 64
2017-11-20 13:58:37 GMT 49.98940 5.81560 36,000 330 391 64
2017-11-20 13:58:36 GMT 49.98849 5.81644 36,000 332 391 64
2017-11-20 13:58:34 GMT 49.98663 5.81815 36,000 332 391 64
2017-11-20 13:58:31 GMT 49.98225 5.82209 36,000 333 391 64
2017-11-20 13:58:29 GMT 49.97749 5.82608 36,000 333 392 64
2017-11-20 13:58:27 GMT 49.97588 5.82736 36,000 334 391 64
2017-11-20 13:58:25 GMT 49.97266 5.82988 36,000 335 392 64
2017-11-20 13:58:23 GMT 49.96907 5.83258 36,000 336 392 64
2017-11-20 13:58:20 GMT 49.96349 5.83664 36,000 338 393 64
2017-11-20 13:58:18 GMT 49.96019 5.83886 36,000 338 393 64
2017-11-20 13:58:16 GMT 49.95781 5.84039 36,000 340 394 64
2017-11-20 13:58:14 GMT 49.95279 5.84354 36,000 339 393 64
2017-11-20 13:58:12 GMT 49.95074 5.84480 36,000 340 394 64
2017-11-20 13:58:10 GMT 49.94632 5.84733 36,000 341 394 64
2017-11-20 13:58:08 GMT 49.94459 5.84829 36,000 342 394 64
2017-11-20 13:58:06 GMT 49.93975 5.85081 36,000 343 395 64
2017-11-20 13:58:04 GMT 49.93593 5.85275 36,000 344 396 64
2017-11-20 13:58:02 GMT 49.93103 5.85499 36,000 345 397 64
2017-11-20 13:58:00 GMT 49.92750 5.85651 36,000 345 397 64
2017-11-20 13:57:58 GMT 49.92574 5.85727 36,000 346 397 64
2017-11-20 13:57:56 GMT 49.92256 5.85853 36,000 347 397 64
2017-11-20 13:57:54 GMT 49.91866 5.86002 36,000 348 397 64
2017-11-20 13:57:52 GMT 49.91578 5.86106 36,000 348 398 0
2017-11-20 13:57:50 GMT 49.91149 5.86254 36,000 348 397 0
2017-11-20 13:57:48 GMT 49.90861 5.86351 36,000 348 397 0
2017-11-20 13:57:46 GMT 49.90572 5.86447 36,000 348 397 0
2017-11-20 13:57:44 GMT 49.90178 5.86583 36,000 348 397 0
2017-11-20 13:57:42 GMT 49.89748 5.86721 36,000 348 397 0
2017-11-20 13:57:39 GMT 49.89029 5.86966 36,000 348 397 0
2017-11-20 13:57:37 GMT 49.88850 5.87026 36,000 348 397 0
2017-11-20 13:57:35 GMT 49.88347 5.87190 36,000 348 397 0
2017-11-20 13:57:33 GMT 49.88128 5.87264 36,000 348 397 0
2017-11-20 13:57:31 GMT 49.87625 5.87427 36,000 348 397 0
2017-11-20 13:57:29 GMT 49.87341 5.87524 36,000 348 397 0
2017-11-20 13:57:27 GMT 49.86873 5.87682 36,000 348 397 0
2017-11-20 13:57:24 GMT 49.86516 5.87798 36,000 348 397 0
2017-11-20 13:57:22 GMT 49.86227 5.87891 36,000 348 397 0
2017-11-20 13:57:20 GMT 49.85689 5.88073 36,000 348 396 0
2017-11-20 13:57:18 GMT 49.85330 5.88192 36,000 348 397 0
2017-11-20 13:57:18 GMT 49.85330 5.88192 36,000 348 397 0
2017-11-20 13:57:15 GMT 49.84863 5.88347 36,000 348 396 0
2017-11-20 13:57:12 GMT 49.84291 5.88535 36,000 348 396 0
2017-11-20 13:57:09 GMT 49.83822 5.88689 36,000 348 396 0
2017-11-20 13:57:07 GMT 49.83464 5.88808 36,000 348 396 0
2017-11-20 13:57:05 GMT 49.83180 5.88904 36,000 348 396 0
2017-11-20 13:57:03 GMT 49.82639 5.89077 36,000 348 396 0
2017-11-20 13:57:01 GMT 49.82281 5.89200 36,000 348 396 0
2017-11-20 13:56:59 GMT 49.81960 5.89305 36,000 348 396 0
2017-11-20 13:56:57 GMT 49.81851 5.89344 36,000 348 396 0
2017-11-20 13:56:55 GMT 49.81099 5.89587 36,000 348 396 0
2017-11-20 13:56:53 GMT 49.80849 5.89677 36,000 348 396 0
2017-11-20 13:56:51 GMT 49.80671 5.89736 36,000 348 396 0
2017-11-20 13:56:49 GMT 49.80345 5.89836 36,000 348 396 0
2017-11-20 13:56:46 GMT 49.79521 5.90114 36,000 348 396 0
2017-11-20 13:56:46 GMT 49.79521 5.90114 36,000 348 396 0
2017-11-20 13:56:46 GMT 49.79521 5.90114 36,000 348 396 0
2017-11-20 13:56:42 GMT 49.78770 5.90363 36,000 348 396 0
2017-11-20 13:56:38 GMT 49.78092 5.90589 36,000 348 396 0
2017-11-20 13:56:38 GMT 49.78161 5.90560 36,000 348 396 0
2017-11-20 13:56:37 GMT 49.78092 5.90589 36,000 348 396 0
2017-11-20 13:56:36 GMT 49.78017 5.90612 36,000 348 396 0
2017-11-20 13:56:34 GMT 49.77480 5.90790 36,000 348 396 0
2017-11-20 13:56:32 GMT 49.77086 5.90916 36,000 348 396 0
2017-11-20 13:56:30 GMT 49.76907 5.90978 36,000 348 396 0
2017-11-20 13:56:28 GMT 49.76369 5.91153 36,000 348 396 0
2017-11-20 13:56:26 GMT 49.76225 5.91205 36,000 348 396 0
2017-11-20 13:56:24 GMT 49.75722 5.91369 36,000 348 396 0
2017-11-20 13:56:24 GMT 49.75722 5.91369 36,000 348 396 0
2017-11-20 13:56:22 GMT 49.75401 5.91476 36,000 348 396 0
2017-11-20 13:56:20 GMT 49.74971 5.91621 36,000 348 396 0
2017-11-20 13:56:18 GMT 49.74614 5.91737 36,000 348 397 0
2017-11-20 13:56:17 GMT 49.74502 5.91770 36,000 348 396 0
2017-11-20 13:56:15 GMT 49.74144 5.91896 36,000 348 397 0
2017-11-20 13:56:13 GMT 49.73785 5.92015 36,000 348 397 0
2017-11-20 13:56:10 GMT 49.73143 5.92222 36,000 348 397 0
2017-11-20 13:56:07 GMT 49.72710 5.92371 36,000 348 397 0
2017-11-20 13:56:05 GMT 49.72458 5.92452 36,000 348 397 0
2017-11-20 13:56:03 GMT 49.71959 5.92618 36,000 348 397 0
2017-11-20 13:56:03 GMT 49.71959 5.92618 36,000 348 397 0
2017-11-20 13:55:59 GMT 49.71167 5.92879 36,000 348 397 0
2017-11-20 13:55:56 GMT 49.70737 5.93016 36,000 348 397 0
2017-11-20 13:55:54 GMT 49.70415 5.93128 36,000 348 397 0
2017-11-20 13:55:52 GMT 49.70052 5.93247 36,000 348 397 0
2017-11-20 13:55:52 GMT 49.70052 5.93247 36,000 348 397 0
2017-11-20 13:55:50 GMT 49.69549 5.93410 36,000 348 397 0
2017-11-20 13:55:47 GMT 49.69011 5.93587 36,000 348 397 0
2017-11-20 13:55:45 GMT 49.68688 5.93692 36,000 348 397 0
2017-11-20 13:55:43 GMT 49.68404 5.93789 36,000 348 397 0
2017-11-20 13:55:41 GMT 49.68150 5.93876 36,000 348 397 0
2017-11-20 13:55:39 GMT 49.67613 5.94049 36,000 348 397 0
2017-11-20 13:55:36 GMT 49.67143 5.94209 36,000 348 397 0
2017-11-20 13:55:33 GMT 49.66644 5.94375 36,000 348 397 0
2017-11-20 13:55:31 GMT 49.66209 5.94512 36,000 348 397 0
2017-11-20 13:55:31 GMT 49.66209 5.94512 36,000 348 397 0
2017-11-20 13:55:29 GMT 49.65779 5.94657 36,000 348 397 0
2017-11-20 13:55:27 GMT 49.65527 5.94739 36,000 348 397 0
2017-11-20 13:55:25 GMT 49.65134 5.94874 36,000 348 397 0
2017-11-20 13:55:23 GMT 49.64772 5.94989 36,000 348 397 0
2017-11-20 13:55:21 GMT 49.64273 5.95155 36,000 348 397 0
2017-11-20 13:55:18 GMT 49.63911 5.95271 36,000 348 397 0
2017-11-20 13:55:16 GMT 49.63446 5.95429 36,000 348 397 0
2017-11-20 13:55:15 GMT 49.63372 5.95452 36,000 348 397 0
2017-11-20 13:55:13 GMT 49.62836 5.95625 36,000 348 397 0
2017-11-20 13:55:10 GMT 49.62474 5.95748 36,000 348 397 0
2017-11-20 13:55:09 GMT 49.62366 5.95778 36,000 348 397 0
2017-11-20 13:55:08 GMT 49.62117 5.95864 36,000 348 397 0
2017-11-20 13:55:06 GMT 49.61755 5.95979 36,000 348 397 0
2017-11-20 13:55:04 GMT 49.61430 5.96090 36,000 348 398 0
2017-11-20 13:55:02 GMT 49.61037 5.96218 36,000 348 397 0
2017-11-20 13:54:59 GMT 49.60569 5.96372 36,000 348 397 0
2017-11-20 13:54:59 GMT 49.60569 5.96372 36,000 348 397 0
2017-11-20 13:54:59 GMT 49.60569 5.96372 36,000 348 398 0
2017-11-20 13:54:57 GMT 49.60030 5.96543 36,000 348 398 0
2017-11-20 13:54:55 GMT 49.59778 5.96632 36,000 348 398 0
2017-11-20 13:54:53 GMT 49.59345 5.96773 36,000 348 398 0
2017-11-20 13:54:51 GMT 49.59169 5.96832 36,000 348 398 0
2017-11-20 13:54:48 GMT 49.58554 5.97033 36,000 348 398 0
2017-11-20 13:54:46 GMT 49.58125 5.97174 36,000 348 398 0
2017-11-20 13:54:44 GMT 49.57585 5.97346 36,000 348 397 0
2017-11-20 13:54:42 GMT 49.57223 5.97468 36,000 348 397 0
2017-11-20 13:54:38 GMT 49.56505 5.97700 36,000 348 397 0
2017-11-20 13:54:36 GMT 49.56324 5.97760 36,000 348 397 0
2017-11-20 13:54:33 GMT 49.55713 5.97967 36,000 348 397 0
2017-11-20 13:54:31 GMT 49.55462 5.98050 36,000 348 397 0
2017-11-20 13:54:28 GMT 49.54926 5.98227 36,000 348 397 0
2017-11-20 13:54:28 GMT 49.54926 5.98227 36,000 348 397 0
2017-11-20 13:54:26 GMT 49.54422 5.98393 36,000 348 397 0
2017-11-20 13:54:21 GMT 49.53630 5.98654 36,000 348 397 0
2017-11-20 13:54:19 GMT 49.53377 5.98733 36,000 348 397 0
2017-11-20 13:54:17 GMT 49.52838 5.98907 36,000 348 397 0
2017-11-20 13:54:13 GMT 49.52232 5.99111 36,000 348 397 0
2017-11-20 13:54:11 GMT 49.51762 5.99261 36,000 348 397 0
2017-11-20 13:54:08 GMT 49.51440 5.99371 36,000 348 397 0
2017-11-20 13:54:06 GMT 49.51082 5.99490 36,000 348 397 0
2017-11-20 13:54:06 GMT 49.51082 5.99490 36,000 348 397 0
2017-11-20 13:54:04 GMT 49.50505 5.99675 36,000 348 397 0
2017-11-20 13:54:02 GMT 49.50360 5.99720 36,000 348 397 0
2017-11-20 13:54:00 GMT 49.49822 5.99897 36,000 348 397 0
2017-11-20 13:53:58 GMT 49.49643 5.99957 36,000 348 397 0
2017-11-20 13:53:56 GMT 49.49141 6.00121 36,000 348 397 0
2017-11-20 13:53:56 GMT 49.49141 6.00121 36,000 348 397 0
2017-11-20 13:53:56 GMT 49.49141 6.00121 36,000 348 397 0
2017-11-20 13:53:54 GMT 49.48814 6.00229 36,000 348 397 0
2017-11-20 13:53:50 GMT 49.47991 6.00499 36,000 348 397 0
2017-11-20 13:53:46 GMT 49.47488 6.00663 36,000 348 397 0
2017-11-20 13:53:44 GMT 49.46878 6.00858 36,000 348 397 0
2017-11-20 13:53:42 GMT 49.46771 6.00893 36,000 348 397 0
2017-11-20 13:53:40 GMT 49.46159 6.01089 36,000 348 397 0
2017-11-20 13:53:38 GMT 49.45798 6.01212 36,000 348 397 0
2017-11-20 13:53:35 GMT 49.45226 6.01400 36,000 348 397 0
2017-11-20 13:53:32 GMT 49.44686 6.01576 36,000 348 397 0
2017-11-20 13:53:30 GMT 49.44397 6.01665 36,000 348 397 0
2017-11-20 13:53:28 GMT 49.44145 6.01747 36,000 348 397 0
2017-11-20 13:53:25 GMT 49.43606 6.01925 36,000 348 397 0
2017-11-20 13:53:23 GMT 49.43103 6.02095 36,000 348 397 0
2017-11-20 13:53:21 GMT 49.42996 6.02130 36,000 348 397 0
2017-11-20 13:53:19 GMT 49.42566 6.02269 36,000 348 397 0
2017-11-20 13:53:17 GMT 49.42136 6.02410 36,000 348 398 0
2017-11-20 13:53:15 GMT 49.41701 6.02551 36,000 348 398 0
2017-11-20 13:53:14 GMT 49.41525 6.02607 36,000 348 398 0
2017-11-20 13:53:13 GMT 49.41270 6.02692 36,000 348 398 0
2017-11-20 13:53:12 GMT 49.41162 6.02730 36,000 348 398 0
2017-11-20 13:53:10 GMT 49.40982 6.02790 36,000 348 398 0
2017-11-20 13:53:08 GMT 49.40589 6.02918 36,000 348 398 0
2017-11-20 13:53:02 GMT 49.39330 6.03332 36,000 348 398 0
2017-11-20 13:52:59 GMT 49.38821 6.03494 36,000 348 398 0
2017-11-20 13:52:57 GMT 49.38538 6.03586 36,000 348 398 0
2017-11-20 13:52:54 GMT 49.37961 6.03776 36,000 348 398 0
2017-11-20 13:52:52 GMT 49.37707 6.03858 36,000 348 398 0
2017-11-20 13:52:52 GMT 49.37599 6.03896 36,000 348 398 0
2017-11-20 13:52:52 GMT 49.37707 6.03858 36,000 348 398 0
2017-11-20 13:52:49 GMT 49.36916 6.04118 36,000 348 398 0
2017-11-20 13:52:47 GMT 49.36772 6.04161 36,000 348 398 0
2017-11-20 13:52:45 GMT 49.36304 6.04319 36,000 348 398 0
2017-11-20 13:52:43 GMT 49.36050 6.04400 36,000 348 398 0
2017-11-20 13:52:40 GMT 49.35329 6.04631 36,000 348 398 0
2017-11-20 13:52:37 GMT 49.34970 6.04747 36,000 348 398 0
2017-11-20 13:52:34 GMT 49.34467 6.04913 36,000 348 398 0
2017-11-20 13:52:32 GMT 49.33997 6.05065 36,000 348 398 0
2017-11-20 13:52:30 GMT 49.33493 6.05227 36,000 348 398 0
2017-11-20 13:52:28 GMT 49.33131 6.05340 36,000 348 398 0
2017-11-20 13:52:28 GMT 49.33205 6.05319 36,000 348 398 0
2017-11-20 13:52:26 GMT 49.32774 6.05459 36,000 348 398 0
2017-11-20 13:52:24 GMT 49.32413 6.05579 36,000 348 398 0
2017-11-20 13:52:21 GMT 49.31909 6.05741 36,000 348 398 0
2017-11-20 13:52:19 GMT 49.31547 6.05861 36,000 348 398 0
2017-11-20 13:52:17 GMT 49.31297 6.05939 36,000 349 399 0
2017-11-20 13:52:15 GMT 49.31117 6.06002 36,000 348 398 0
2017-11-20 13:52:12 GMT 49.30431 6.06221 36,000 348 398 0
2017-11-20 13:52:10 GMT 49.30179 6.06304 36,000 348 398 0
2017-11-20 13:52:08 GMT 49.29744 6.06445 36,000 349 399 0
2017-11-20 13:52:06 GMT 49.29491 6.06525 36,000 349 399 0
2017-11-20 13:52:04 GMT 49.28914 6.06713 36,000 349 399 0
2017-11-20 13:52:01 GMT 49.28590 6.06819 36,000 349 399 0
2017-11-20 13:51:58 GMT 49.27764 6.07089 36,000 349 399 0
2017-11-20 13:51:57 GMT 49.27652 6.07121 36,000 349 399 0
2017-11-20 13:51:55 GMT 49.27475 6.07183 36,000 349 399 0
2017-11-20 13:51:53 GMT 49.27042 6.07320 36,000 349 399 0
2017-11-20 13:51:50 GMT 49.26535 6.07486 36,000 349 399 0
2017-11-20 13:51:48 GMT 49.26102 6.07623 36,000 349 399 0
2017-11-20 13:51:46 GMT 49.25744 6.07739 36,000 349 399 0
2017-11-20 13:51:44 GMT 49.25380 6.07862 36,000 349 399 0
2017-11-20 13:51:39 GMT 49.24589 6.08115 36,000 349 399 0
2017-11-20 13:51:37 GMT 49.23903 6.08340 36,000 349 399 0
2017-11-20 13:51:37 GMT 49.24012 6.08303 36,000 349 399 0
2017-11-20 13:51:35 GMT 49.23579 6.08447 36,000 349 399 0
2017-11-20 13:51:31 GMT 49.23002 6.08635 36,000 349 399 0
2017-11-20 13:51:31 GMT 49.22927 6.08657 36,000 349 399 0
2017-11-20 13:51:26 GMT 49.22131 6.08917 36,000 349 399 0
2017-11-20 13:51:24 GMT 49.21842 6.09004 36,000 349 399 0
2017-11-20 13:51:24 GMT 49.21773 6.09033 36,000 349 399 0
2017-11-20 13:51:22 GMT 49.21410 6.09148 36,000 349 399 0
2017-11-20 13:51:20 GMT 49.20907 6.09315 36,000 349 399 0
2017-11-20 13:51:16 GMT 49.20218 6.09537 36,000 349 400 0
2017-11-20 13:51:14 GMT 49.19929 6.09628 36,000 349 400 0
2017-11-20 13:51:14 GMT 49.19929 6.09628 36,000 349 400 0
2017-11-20 13:51:11 GMT 49.19459 6.09777 36,000 349 400 0
2017-11-20 13:51:08 GMT 49.18882 6.09965 36,000 349 400 0
2017-11-20 13:51:06 GMT 49.18444 6.10103 36,000 349 400 0
2017-11-20 13:51:04 GMT 49.18086 6.10218 36,000 349 400 0
2017-11-20 13:51:02 GMT 49.17648 6.10363 36,000 349 400 0
2017-11-20 13:51:00 GMT 49.17540 6.10396 36,000 349 400 0
2017-11-20 13:50:57 GMT 49.17032 6.10558 36,000 349 400 0
2017-11-20 13:50:55 GMT 49.16489 6.10731 36,000 349 400 0
2017-11-20 13:50:55 GMT 49.16345 6.10782 36,000 349 400 0
2017-11-20 13:50:55 GMT 49.16419 6.10753 36,000 349 400 0
2017-11-20 13:50:53 GMT 49.16167 6.10840 36,000 349 400 0
2017-11-20 13:50:53 GMT 49.16167 6.10840 36,000 349 400 0
2017-11-20 13:50:51 GMT 49.15874 6.10931 36,000 349 400 0
2017-11-20 13:50:49 GMT 49.15439 6.11072 36,000 349 400 0
2017-11-20 13:50:45 GMT 49.14574 6.11347 36,000 349 400 0
2017-11-20 13:50:45 GMT 49.14574 6.11347 36,000 349 400 0
2017-11-20 13:50:43 GMT 49.14245 6.11454 36,000 349 400 0
2017-11-20 13:50:43 GMT 49.14354 6.11417 36,000 349 400 0
2017-11-20 13:50:39 GMT 49.13704 6.11629 36,000 349 400 0
2017-11-20 13:50:35 GMT 49.12981 6.11861 36,000 349 400 0
2017-11-20 13:50:33 GMT 49.12583 6.11989 36,000 349 400 0
2017-11-20 13:50:31 GMT 49.12326 6.12072 36,000 349 400 0
2017-11-20 13:50:28 GMT 49.11676 6.12284 36,000 349 400 0
2017-11-20 13:50:24 GMT 49.10738 6.12586 36,000 349 400 0
2017-11-20 13:50:22 GMT 49.10554 6.12647 36,000 349 400 0
2017-11-20 13:50:17 GMT 49.09506 6.12981 36,000 349 400 0
2017-11-20 13:50:15 GMT 49.09250 6.13059 36,000 349 400 0
2017-11-20 13:50:13 GMT 49.08778 6.13213 36,000 349 400 0
2017-11-20 13:50:11 GMT 49.08380 6.13341 36,000 349 400 0
2017-11-20 13:50:11 GMT 49.08637 6.13255 36,000 349 400 0
2017-11-20 13:50:08 GMT 49.07913 6.13488 36,000 349 400 0
2017-11-20 13:50:04 GMT 49.07117 6.13748 36,000 349 400 0
2017-11-20 13:50:02 GMT 49.06932 6.13803 36,000 349 400 0
2017-11-20 13:50:00 GMT 49.06393 6.13981 36,000 349 400 0
2017-11-20 13:49:58 GMT 49.06320 6.14002 36,000 349 400 0
2017-11-20 13:49:54 GMT 49.05597 6.14234 36,000 349 400 0
2017-11-20 13:49:52 GMT 49.05016 6.14424 36,000 349 400 0
2017-11-20 13:49:50 GMT 49.04654 6.14544 36,000 349 400 0
2017-11-20 13:49:49 GMT 49.04330 6.14649 36,000 349 400 0
2017-11-20 13:49:47 GMT 49.04150 6.14706 36,000 349 400 0
2017-11-20 13:49:44 GMT 49.03789 6.14819 36,000 349 400 0
2017-11-20 13:49:42 GMT 49.03315 6.14974 36,000 349 400 0
2017-11-20 13:49:40 GMT 49.02882 6.15111 36,000 349 400 0
2017-11-20 13:49:38 GMT 49.02519 6.15227 36,000 349 400 0
2017-11-20 13:49:36 GMT 49.02338 6.15291 36,000 349 400 0
2017-11-20 13:49:34 GMT 49.01907 6.15432 36,000 349 400 0
2017-11-20 13:49:32 GMT 49.01578 6.15538 36,000 349 400 0
2017-11-20 13:49:30 GMT 49.01145 6.15675 36,000 349 400 0
2017-11-20 13:49:28 GMT 49.00603 6.15847 36,000 349 400 0
2017-11-20 13:49:24 GMT 49.00130 6.16000 36,000 349 400 0
2017-11-20 13:49:22 GMT 48.99628 6.16160 36,000 349 400 0
2017-11-20 13:49:19 GMT 48.99190 6.16304 36,000 349 400 0
2017-11-20 13:49:19 GMT 48.99190 6.16304 36,000 349 400 0
2017-11-20 13:49:17 GMT 48.98757 6.16441 36,000 349 400 0
2017-11-20 13:49:13 GMT 48.98140 6.16636 36,000 349 400 0
2017-11-20 13:49:10 GMT 48.97636 6.16798 36,000 349 400 0
2017-11-20 13:49:08 GMT 48.97275 6.16911 36,000 349 400 0
2017-11-20 13:49:03 GMT 48.96155 6.17273 36,000 349 400 0
2017-11-20 13:48:59 GMT 48.95429 6.17504 36,000 349 400 0
2017-11-20 13:48:56 GMT 48.95070 6.17620 36,000 349 400 0
2017-11-20 13:48:52 GMT 48.94309 6.17868 36,000 348 400 0
2017-11-20 13:48:50 GMT 48.93767 6.18046 36,000 348 400 0
2017-11-20 13:48:48 GMT 48.93478 6.18140 36,000 348 400 0
2017-11-20 13:48:43 GMT 48.92789 6.18361 36,000 349 400 0
2017-11-20 13:48:41 GMT 48.92212 6.18544 36,000 349 400 0
2017-11-20 13:48:38 GMT 48.91742 6.18696 36,000 349 400 0
2017-11-20 13:48:38 GMT 48.91742 6.18696 36,000 349 400 0
2017-11-20 13:48:36 GMT 48.91379 6.18812 36,000 349 400 0
2017-11-20 13:48:34 GMT 48.90907 6.18967 36,000 349 400 0
2017-11-20 13:48:32 GMT 48.90727 6.19022 36,000 349 400 0
2017-11-20 13:48:30 GMT 48.90368 6.19137 36,000 349 400 0
2017-11-20 13:48:28 GMT 48.89749 6.19340 36,000 349 400 0
2017-11-20 13:48:28 GMT 48.89749 6.19340 36,000 349 400 0
2017-11-20 13:48:28 GMT 48.89749 6.19340 36,000 349 400 0
2017-11-20 13:48:26 GMT 48.89681 6.19361 36,000 349 400 0
2017-11-20 13:48:23 GMT 48.89065 6.19557 36,000 349 400 0
2017-11-20 13:48:21 GMT 48.88702 6.19672 36,000 349 400 0
2017-11-20 13:48:18 GMT 48.87980 6.19904 36,000 349 400 0
2017-11-20 13:48:18 GMT 48.87980 6.19904 36,000 349 400 0
2017-11-20 13:48:16 GMT 48.87761 6.19976 36,000 349 400 0
2017-11-20 13:48:16 GMT 48.87761 6.19976 36,000 349 400 0
2017-11-20 13:48:16 GMT 48.87761 6.19976 36,000 349 400 0
2017-11-20 13:48:16 GMT 48.87761 6.19976 36,000 349 400 0
2017-11-20 13:48:16 GMT 48.87761 6.19976 36,000 349 400 0
2017-11-20 13:48:15 GMT 48.87653 6.20009 36,000 349 400 0
2017-11-20 13:48:12 GMT 48.87040 6.20207 36,000 349 400 0
2017-11-20 13:48:09 GMT 48.86532 6.20366 36,000 349 400 0
2017-11-20 13:48:07 GMT 48.86133 6.20495 36,000 349 400 0
2017-11-20 13:48:05 GMT 48.85806 6.20597 36,000 349 400 0
2017-11-20 13:48:03 GMT 48.85373 6.20735 36,000 349 400 0
2017-11-20 13:48:01 GMT 48.85010 6.20850 36,000 349 400 0
2017-11-20 13:47:57 GMT 48.84214 6.21096 36,000 349 400 0
2017-11-20 13:47:55 GMT 48.83781 6.21234 36,000 349 400 0
2017-11-20 13:47:54 GMT 48.83781 6.21234 36,000 349 400 0
2017-11-20 13:47:51 GMT 48.83274 6.21392 36,000 349 400 0
2017-11-20 13:47:51 GMT 48.83274 6.21392 36,000 349 400 0
2017-11-20 13:47:49 GMT 48.82985 6.21479 36,000 349 400 0
2017-11-20 13:47:47 GMT 48.82512 6.21629 36,000 349 400 0
2017-11-20 13:47:45 GMT 48.82077 6.21756 36,000 349 400 0
2017-11-20 13:47:43 GMT 48.81896 6.21812 36,000 349 400 0
2017-11-20 13:47:43 GMT 48.81896 6.21812 36,000 349 400 0
2017-11-20 13:47:39 GMT 48.81207 6.22023 36,000 349 400 0
2017-11-20 13:47:37 GMT 48.80588 6.22202 36,000 350 401 0
2017-11-20 13:47:34 GMT 48.80191 6.22319 36,000 350 401 0
2017-11-20 13:47:32 GMT 48.79792 6.22440 36,000 350 401 0
2017-11-20 13:47:29 GMT 48.79390 6.22552 36,000 350 400 0
2017-11-20 13:47:27 GMT 48.78842 6.22708 36,000 350 401 0
2017-11-20 13:47:25 GMT 48.78404 6.22824 36,000 350 401 0
2017-11-20 13:47:22 GMT 48.77930 6.22953 36,000 351 401 0
2017-11-20 13:47:22 GMT 48.78116 6.22903 36,000 351 401 0
2017-11-20 13:47:20 GMT 48.77604 6.23041 36,000 351 401 0
2017-11-20 13:47:18 GMT 48.77348 6.23108 36,000 351 402 0
2017-11-20 13:47:16 GMT 48.77017 6.23192 36,000 353 403 0
2017-11-20 13:47:13 GMT 48.76356 6.23358 36,000 352 402 0
2017-11-20 13:47:11 GMT 48.75844 6.23474 36,000 352 402 0
2017-11-20 13:47:09 GMT 48.75695 6.23510 36,000 352 402 0
2017-11-20 13:47:07 GMT 48.75183 6.23626 36,000 353 403 0
2017-11-20 13:47:03 GMT 48.74556 6.23756 36,000 353 403 0
2017-11-20 13:47:01 GMT 48.74185 6.23833 36,000 353 404 0
2017-11-20 13:47:01 GMT 48.74185 6.23833 36,000 353 404 0
2017-11-20 13:46:59 GMT 48.73814 6.23904 36,000 354 403 0
2017-11-20 13:46:54 GMT 48.72780 6.24080 36,000 355 404 0
2017-11-20 13:46:51 GMT 48.72258 6.24164 36,000 355 405 0
2017-11-20 13:46:51 GMT 48.72258 6.24164 36,000 355 405 0
2017-11-20 13:46:47 GMT 48.71622 6.24247 36,000 356 406 0
2017-11-20 13:46:45 GMT 48.71026 6.24320 36,000 357 406 0
2017-11-20 13:46:43 GMT 48.70654 6.24363 36,000 357 406 0
2017-11-20 13:46:41 GMT 48.70464 6.24383 36,000 357 406 -64
2017-11-20 13:46:39 GMT 48.70128 6.24421 36,000 357 406 -64
2017-11-20 13:46:35 GMT 48.69264 6.24502 36,000 357 406 -64
2017-11-20 13:46:33 GMT 48.68889 6.24538 36,000 357 406 -64
2017-11-20 13:46:31 GMT 48.68554 6.24573 36,000 357 406 0
2017-11-20 13:46:29 GMT 48.68102 6.24616 36,000 357 406 0
2017-11-20 13:46:26 GMT 48.67690 6.24650 36,000 357 406 0
2017-11-20 13:46:23 GMT 48.66981 6.24717 36,000 357 406 0
2017-11-20 13:46:21 GMT 48.66792 6.24742 36,000 357 406 0
2017-11-20 13:46:19 GMT 48.66306 6.24782 36,000 357 406 0
2017-11-20 13:46:15 GMT 48.65556 6.24855 36,000 357 406 0
2017-11-20 13:46:15 GMT 48.65556 6.24855 36,000 357 406 0
2017-11-20 13:46:13 GMT 48.65071 6.24904 36,000 357 406 0
2017-11-20 13:46:11 GMT 48.64881 6.24920 36,000 357 406 0
2017-11-20 13:46:08 GMT 48.64320 6.24974 36,000 357 406 0
2017-11-20 13:46:05 GMT 48.63685 6.25035 36,000 357 406 0
2017-11-20 13:46:01 GMT 48.62861 6.25122 36,000 357 406 0
2017-11-20 13:45:58 GMT 48.62335 6.25173 36,000 357 406 0
2017-11-20 13:45:54 GMT 48.61697 6.25228 36,000 357 406 0
2017-11-20 13:45:52 GMT 48.61059 6.25296 36,000 357 406 0
2017-11-20 13:45:52 GMT 48.61134 6.25288 36,000 357 406 0
2017-11-20 13:45:50 GMT 48.60947 6.25305 36,000 357 406 0
2017-11-20 13:45:48 GMT 48.60498 6.25347 36,000 357 406 0
2017-11-20 13:45:46 GMT 48.60086 6.25390 36,000 357 406 0
2017-11-20 13:45:44 GMT 48.59709 6.25426 36,000 357 406 0
2017-11-20 13:45:40 GMT 48.58997 6.25488 36,000 357 406 0
2017-11-20 13:45:38 GMT 48.58508 6.25541 36,000 357 407 0
2017-11-20 13:45:38 GMT 48.58508 6.25541 36,000 357 407 0
2017-11-20 13:45:34 GMT 48.57982 6.25585 36,000 357 407 0
2017-11-20 13:45:30 GMT 48.57158 6.25664 36,000 357 407 0
2017-11-20 13:45:28 GMT 48.56671 6.25714 36,000 357 407 0
2017-11-20 13:45:26 GMT 48.56483 6.25729 36,000 357 407 0
2017-11-20 13:45:26 GMT 48.56483 6.25729 36,000 357 407 0
2017-11-20 13:45:24 GMT 48.55994 6.25777 36,000 357 407 0
2017-11-20 13:45:20 GMT 48.55165 6.25861 36,000 357 407 0
2017-11-20 13:45:18 GMT 48.54979 6.25881 36,000 357 407 0
2017-11-20 13:45:16 GMT 48.54453 6.25932 36,000 357 407 0
2017-11-20 13:45:16 GMT 48.54453 6.25932 36,000 357 407 0
2017-11-20 13:45:13 GMT 48.54002 6.25975 36,000 357 407 0
2017-11-20 13:45:09 GMT 48.53137 6.26052 36,000 357 407 0
2017-11-20 13:45:07 GMT 48.52757 6.26094 36,000 357 407 0
2017-11-20 13:45:05 GMT 48.52345 6.26134 36,000 357 407 -64
2017-11-20 13:45:05 GMT 48.52345 6.26134 36,000 357 407 -64
2017-11-20 13:45:03 GMT 48.52080 6.26157 36,000 357 407 0
2017-11-20 13:45:02 GMT 48.51967 6.26170 36,000 357 407 0
2017-11-20 13:44:59 GMT 48.51218 6.26242 36,000 357 407 0
2017-11-20 13:44:57 GMT 48.50841 6.26279 36,000 357 407 0
2017-11-20 13:44:55 GMT 48.50276 6.26333 36,000 357 407 0
2017-11-20 13:44:52 GMT 48.50087 6.26351 36,000 357 407 0
2017-11-20 13:44:50 GMT 48.49448 6.26411 36,000 357 407 0
2017-11-20 13:44:47 GMT 48.48960 6.26459 36,000 357 407 0
2017-11-20 13:44:45 GMT 48.48546 6.26495 36,000 357 407 0
2017-11-20 13:44:42 GMT 48.48093 6.26538 36,000 357 407 0
2017-11-20 13:44:38 GMT 48.47303 6.26611 36,000 357 407 0
2017-11-20 13:44:36 GMT 48.46889 6.26650 36,000 357 407 0
2017-11-20 13:44:36 GMT 48.47040 6.26636 36,000 357 407 0
2017-11-20 13:44:34 GMT 48.46591 6.26678 36,000 357 407 0
2017-11-20 13:44:34 GMT 48.46591 6.26678 36,000 357 407 0
2017-11-20 13:44:31 GMT 48.46102 6.26727 36,000 357 407 0
2017-11-20 13:44:29 GMT 48.45422 6.26792 36,000 357 407 0
2017-11-20 13:44:27 GMT 48.45273 6.26806 36,000 357 407 0
2017-11-20 13:44:25 GMT 48.44934 6.26840 36,000 357 407 0
2017-11-20 13:44:23 GMT 48.44370 6.26893 36,000 357 407 0
2017-11-20 13:44:21 GMT 48.44183 6.26911 36,000 357 407 0
2017-11-20 13:44:17 GMT 48.43393 6.26987 36,000 357 407 0
2017-11-20 13:44:15 GMT 48.43053 6.27017 36,000 357 407 0
2017-11-20 13:44:12 GMT 48.42453 6.27080 36,000 357 407 0
2017-11-20 13:44:09 GMT 48.41853 6.27136 36,000 357 407 0
2017-11-20 13:44:07 GMT 48.41363 6.27182 36,000 357 407 0
2017-11-20 13:44:05 GMT 48.41098 6.27207 36,000 357 407 0
2017-11-20 13:44:02 GMT 48.40609 6.27254 36,000 357 407 0
2017-11-20 13:44:01 GMT 48.40498 6.27263 36,000 357 407 0
2017-11-20 13:43:59 GMT 48.39934 6.27312 36,000 357 407 0
2017-11-20 13:43:57 GMT 48.39631 6.27341 36,000 357 407 0
2017-11-20 13:43:55 GMT 48.39184 6.27384 36,000 357 407 0
2017-11-20 13:43:52 GMT 48.38654 6.27435 36,000 357 407 0
2017-11-20 13:43:52 GMT 48.38654 6.27435 36,000 357 407 0
2017-11-20 13:43:48 GMT 48.37979 6.27500 36,000 357 407 0
2017-11-20 13:43:46 GMT 48.37413 6.27552 36,000 357 407 0
2017-11-20 13:43:45 GMT 48.37340 6.27559 36,000 357 407 0
2017-11-20 13:43:44 GMT 48.37229 6.27572 36,000 357 407 0
2017-11-20 13:43:41 GMT 48.36589 6.27629 36,000 357 407 0
2017-11-20 13:43:41 GMT 48.36589 6.27629 36,000 357 407 0
2017-11-20 13:43:39 GMT 48.36214 6.27664 36,000 357 407 0
2017-11-20 13:43:37 GMT 48.35874 6.27702 36,000 357 407 0
2017-11-20 13:43:34 GMT 48.35195 6.27760 36,000 357 407 0
2017-11-20 13:43:32 GMT 48.34743 6.27804 36,000 357 407 0
2017-11-20 13:43:31 GMT 48.34634 6.27812 36,000 357 407 0
2017-11-20 13:43:30 GMT 48.34483 6.27826 36,000 357 407 0
2017-11-20 13:43:30 GMT 48.34483 6.27826 36,000 357 407 0
2017-11-20 13:43:28 GMT 48.34181 6.27855 36,000 357 407 0
2017-11-20 13:43:25 GMT 48.33581 6.27918 36,000 357 407 0
2017-11-20 13:43:23 GMT 48.33319 6.27941 36,000 357 407 0
2017-11-20 13:43:21 GMT 48.32718 6.27999 36,000 357 407 0
2017-11-20 13:43:19 GMT 48.32565 6.28013 36,000 357 407 0
2017-11-20 13:43:17 GMT 48.32075 6.28059 36,000 357 407 0
2017-11-20 13:43:14 GMT 48.31403 6.28122 36,000 357 407 0
2017-11-20 13:43:12 GMT 48.30986 6.28165 36,000 357 407 0
2017-11-20 13:43:09 GMT 48.30614 6.28201 36,000 357 407 0
2017-11-20 13:43:09 GMT 48.30614 6.28201 36,000 357 407 0
2017-11-20 13:43:07 GMT 48.30311 6.28230 36,000 357 407 0
2017-11-20 13:43:05 GMT 48.29823 6.28277 36,000 357 407 0
2017-11-20 13:43:03 GMT 48.29334 6.28324 36,000 357 407 0
2017-11-20 13:43:01 GMT 48.29036 6.28353 36,000 357 407 0
2017-11-20 13:42:58 GMT 48.28435 6.28411 36,000 357 407 0
2017-11-20 13:42:54 GMT 48.27795 6.28467 36,000 357 407 0
2017-11-20 13:42:52 GMT 48.27304 6.28519 36,000 357 407 0
2017-11-20 13:42:48 GMT 48.26555 6.28584 36,000 357 407 0
2017-11-20 13:42:45 GMT 48.26103 6.28628 36,000 357 407 0
2017-11-20 13:42:43 GMT 48.25652 6.28671 36,000 357 407 0
2017-11-20 13:42:41 GMT 48.25354 6.28700 36,000 357 407 0
2017-11-20 13:42:39 GMT 48.24827 6.28750 36,000 357 407 0
2017-11-20 13:42:37 GMT 48.24564 6.28770 36,000 357 407 0
2017-11-20 13:42:36 GMT 48.24450 6.28787 36,000 357 407 0
2017-11-20 13:42:33 GMT 48.23964 6.28834 36,000 357 406 0
2017-11-20 13:42:31 GMT 48.23398 6.28881 36,000 357 406 0
2017-11-20 13:42:28 GMT 48.22877 6.28931 36,000 357 406 0
2017-11-20 13:42:26 GMT 48.22613 6.28960 36,000 357 406 0
2017-11-20 13:42:24 GMT 48.22160 6.29002 36,000 357 406 0
2017-11-20 13:42:22 GMT 48.21676 6.29047 36,000 357 406 0
2017-11-20 13:42:20 GMT 48.21373 6.29076 36,000 357 406 0
2017-11-20 13:42:18 GMT 48.20810 6.29129 36,000 357 406 0
2017-11-20 13:42:16 GMT 48.20698 6.29141 36,000 357 406 0
2017-11-20 13:42:14 GMT 48.20284 6.29179 36,000 357 406 0
2017-11-20 13:42:12 GMT 48.19835 6.29221 36,000 357 406 0
2017-11-20 13:42:07 GMT 48.18897 6.29307 36,000 357 406 0
2017-11-20 13:42:05 GMT 48.18673 6.29329 36,000 357 406 0
2017-11-20 13:42:05 GMT 48.18673 6.29329 36,000 357 406 0
2017-11-20 13:42:03 GMT 48.18073 6.29387 36,000 357 407 0
2017-11-20 13:42:01 GMT 48.17770 6.29415 36,000 357 407 0
2017-11-20 13:41:56 GMT 48.16759 6.29510 36,000 357 407 0
2017-11-20 13:41:54 GMT 48.16267 6.29553 36,000 357 407 0
2017-11-20 13:41:51 GMT 48.15894 6.29587 36,000 357 407 0
2017-11-20 13:41:49 GMT 48.15555 6.29620 36,000 357 407 0
2017-11-20 13:41:45 GMT 48.14614 6.29707 36,000 357 407 0
2017-11-20 13:41:42 GMT 48.14204 6.29750 36,000 357 407 0
2017-11-20 13:41:40 GMT 48.13939 6.29770 36,000 357 407 0
2017-11-20 13:41:38 GMT 48.13641 6.29798 36,000 357 407 0
2017-11-20 13:41:35 GMT 48.12849 6.29874 36,000 357 407 0
2017-11-20 13:41:32 GMT 48.12361 6.29918 36,000 357 407 0
2017-11-20 13:41:30 GMT 48.12099 6.29949 36,000 357 407 0
2017-11-20 13:41:27 GMT 48.11499 6.30004 36,000 357 407 0
2017-11-20 13:41:25 GMT 48.11046 6.30045 36,000 357 407 0
2017-11-20 13:41:23 GMT 48.10634 6.30087 36,000 357 407 0
2017-11-20 13:41:21 GMT 48.10446 6.30107 36,000 357 407 0
2017-11-20 13:41:19 GMT 48.09731 6.30172 36,000 357 407 0
2017-11-20 13:41:16 GMT 48.09467 6.30196 36,000 357 407 0
2017-11-20 13:41:13 GMT 48.08789 6.30265 36,000 357 407 0
2017-11-20 13:41:11 GMT 48.08336 6.30306 36,000 357 408 0
2017-11-20 13:41:11 GMT 48.08336 6.30306 36,000 357 408 0
2017-11-20 13:41:09 GMT 48.08073 6.30333 36,000 357 408 0
2017-11-20 13:41:07 GMT 48.07776 6.30362 36,000 357 408 0
2017-11-20 13:41:05 GMT 48.07245 6.30411 36,000 357 408 0
2017-11-20 13:41:02 GMT 48.06793 6.30453 36,000 357 408 0
2017-11-20 13:41:00 GMT 48.06342 6.30495 36,000 357 408 0
2017-11-20 13:40:58 GMT 48.06039 6.30524 36,000 357 408 0
2017-11-20 13:40:55 GMT 48.05173 6.30602 36,000 357 408 0
2017-11-20 13:40:53 GMT 48.04987 6.30615 36,000 357 408 0
2017-11-20 13:40:51 GMT 48.04684 6.30643 36,000 357 408 0
2017-11-20 13:40:49 GMT 48.04271 6.30684 36,000 357 408 0
2017-11-20 13:40:46 GMT 48.03702 6.30735 36,000 357 408 0
2017-11-20 13:40:44 GMT 48.03438 6.30759 36,000 357 408 0
2017-11-20 13:40:41 GMT 48.02799 6.30820 36,000 357 409 0
2017-11-20 13:40:39 GMT 48.02194 6.30876 36,000 357 409 0
2017-11-20 13:40:38 GMT 48.02307 6.30869 36,000 357 409 0
2017-11-20 13:40:37 GMT 48.02005 6.30897 36,000 357 409 0
2017-11-20 13:40:35 GMT 48.01742 6.30918 36,000 357 409 0
2017-11-20 13:40:33 GMT 48.01365 6.30953 36,000 357 409 0
2017-11-20 13:40:31 GMT 48.00760 6.31017 36,000 357 409 0
2017-11-20 13:40:29 GMT 48.00343 6.31055 36,000 357 409 0
2017-11-20 13:40:24 GMT 47.99515 6.31130 36,000 357 409 0
2017-11-20 13:40:20 GMT 47.98870 6.31193 36,000 357 409 0
2017-11-20 13:40:20 GMT 47.98870 6.31193 36,000 357 409 0
2017-11-20 13:40:18 GMT 47.98457 6.31233 36,000 357 409 0
2017-11-20 13:40:14 GMT 47.97511 6.31320 36,000 357 409 0
2017-11-20 13:40:11 GMT 47.97059 6.31362 36,000 357 409 0
2017-11-20 13:40:09 GMT 47.96645 6.31405 36,000 357 409 0
2017-11-20 13:40:06 GMT 47.95998 6.31460 36,000 357 409 0
2017-11-20 13:40:04 GMT 47.95811 6.31480 36,000 357 409 0
2017-11-20 13:40:01 GMT 47.95207 6.31535 36,000 357 409 0
2017-11-20 13:39:59 GMT 47.94754 6.31576 36,000 357 409 0
2017-11-20 13:39:57 GMT 47.94452 6.31604 36,000 357 409 0
2017-11-20 13:39:55 GMT 47.94187 6.31629 36,000 357 409 0
2017-11-20 13:39:53 GMT 47.93735 6.31672 36,000 357 409 0
2017-11-20 13:39:51 GMT 47.93243 6.31721 36,000 357 409 0
2017-11-20 13:39:48 GMT 47.92712 6.31769 36,000 357 409 0
2017-11-20 13:39:48 GMT 47.92790 6.31762 36,000 357 409 0
2017-11-20 13:39:46 GMT 47.92488 6.31789 36,000 357 409 0
2017-11-20 13:39:44 GMT 47.92035 6.31837 36,000 357 409 0
2017-11-20 13:39:42 GMT 47.91617 6.31876 36,000 357 409 0
2017-11-20 13:39:40 GMT 47.91315 6.31904 36,000 357 409 0
2017-11-20 13:39:38 GMT 47.90749 6.31954 36,000 357 409 0
2017-11-20 13:39:38 GMT 47.90675 6.31961 36,000 357 409 0
2017-11-20 13:39:37 GMT 47.90749 6.31954 36,000 357 409 0
2017-11-20 13:39:35 GMT 47.90183 6.32010 36,000 357 409 0
2017-11-20 13:39:33 GMT 47.89881 6.32038 36,000 357 409 0
2017-11-20 13:39:30 GMT 47.89316 6.32092 36,000 357 409 0
2017-11-20 13:39:28 GMT 47.89014 6.32119 36,000 357 409 0
2017-11-20 13:39:26 GMT 47.88634 6.32153 36,000 357 409 0
2017-11-20 13:39:25 GMT 47.88560 6.32160 36,000 357 409 0
2017-11-20 13:39:22 GMT 47.87878 6.32229 36,000 357 409 0
2017-11-20 13:39:19 GMT 47.87425 6.32270 36,000 357 409 0
2017-11-20 13:39:17 GMT 47.86821 6.32325 36,000 357 409 0
2017-11-20 13:39:16 GMT 47.86821 6.32325 36,000 357 409 0
2017-11-20 13:39:14 GMT 47.86295 6.32373 36,000 357 409 0
2017-11-20 13:39:11 GMT 47.85841 6.32421 36,000 357 409 0
2017-11-20 13:39:08 GMT 47.85310 6.32469 36,000 357 409 0
2017-11-20 13:39:06 GMT 47.84857 6.32510 36,000 357 409 0
2017-11-20 13:39:03 GMT 47.84295 6.32559 36,000 357 409 0
2017-11-20 13:39:01 GMT 47.83764 6.32608 36,000 357 409 0
2017-11-20 13:38:59 GMT 47.83498 6.32634 36,000 357 409 0
2017-11-20 13:38:57 GMT 47.83122 6.32668 36,000 357 409 0
2017-11-20 13:38:55 GMT 47.82554 6.32721 36,000 357 409 0
2017-11-20 13:38:51 GMT 47.82027 6.32770 36,000 357 409 0
2017-11-20 13:38:49 GMT 47.81576 6.32812 36,000 357 409 0
2017-11-20 13:38:47 GMT 47.81273 6.32841 36,000 357 409 0
2017-11-20 13:38:45 GMT 47.80971 6.32869 36,000 357 409 0
2017-11-20 13:38:43 GMT 47.80403 6.32922 36,000 357 409 0
2017-11-20 13:38:41 GMT 47.80137 6.32946 36,000 357 409 0
2017-11-20 13:38:38 GMT 47.79611 6.32996 36,000 357 410 0
2017-11-20 13:38:36 GMT 47.79081 6.33045 36,000 357 409 0
2017-11-20 13:38:34 GMT 47.78625 6.33087 36,000 357 409 0
2017-11-20 13:38:30 GMT 47.78173 6.33129 36,000 357 410 0
2017-11-20 13:38:28 GMT 47.77679 6.33176 36,000 357 410 0
2017-11-20 13:38:26 GMT 47.77191 6.33221 36,000 357 410 0
2017-11-20 13:38:25 GMT 47.76888 6.33249 36,000 357 410 0
2017-11-20 13:38:23 GMT 47.76734 6.33263 36,000 357 410 0
2017-11-20 13:38:21 GMT 47.76393 6.33293 36,000 357 410 0
2017-11-20 13:38:19 GMT 47.75940 6.33341 36,000 357 410 0
2017-11-20 13:38:17 GMT 47.75560 6.33376 36,000 357 410 0
2017-11-20 13:38:15 GMT 47.75221 6.33404 36,000 357 410 0
2017-11-20 13:38:13 GMT 47.74765 6.33446 36,000 357 410 0
2017-11-20 13:38:10 GMT 47.74314 6.33489 36,000 357 410 0
2017-11-20 13:38:08 GMT 47.73857 6.33531 36,000 357 410 0
2017-11-20 13:38:06 GMT 47.73480 6.33566 36,000 357 410 0
2017-11-20 13:38:04 GMT 47.73216 6.33588 36,000 357 410 0
2017-11-20 13:38:00 GMT 47.72196 6.33679 36,000 357 410 0
2017-11-20 13:37:58 GMT 47.71968 6.33700 36,000 357 410 0
2017-11-20 13:37:55 GMT 47.71248 6.33767 36,000 357 410 0
2017-11-20 13:37:55 GMT 47.71550 6.33739 36,000 357 410 0
2017-11-20 13:37:53 GMT 47.71060 6.33784 36,000 357 410 0
2017-11-20 13:37:51 GMT 47.70493 6.33836 36,000 357 410 0
2017-11-20 13:37:49 GMT 47.70415 6.33842 36,000 357 410 0
2017-11-20 13:37:47 GMT 47.69998 6.33876 36,000 357 410 0
2017-11-20 13:37:45 GMT 47.69547 6.33918 36,000 357 410 0
2017-11-20 13:37:43 GMT 47.69244 6.33946 36,000 357 410 0
2017-11-20 13:37:41 GMT 47.68788 6.33989 36,000 357 410 0
2017-11-20 13:37:39 GMT 47.68300 6.34035 36,000 357 410 0
2017-11-20 13:37:37 GMT 47.67842 6.34076 36,000 357 410 0
2017-11-20 13:37:35 GMT 47.67578 6.34101 36,000 357 410 0
2017-11-20 13:37:33 GMT 47.67316 6.34124 36,000 357 410 0
2017-11-20 13:37:32 GMT 47.67009 6.34152 36,000 357 410 0
2017-11-20 13:37:31 GMT 47.67009 6.34152 36,000 357 410 0
2017-11-20 13:37:29 GMT 47.66367 6.34214 36,000 357 410 0
2017-11-20 13:37:27 GMT 47.66103 6.34241 36,000 357 410 0
2017-11-20 13:37:23 GMT 47.65270 6.34316 36,000 357 410 -64
2017-11-20 13:37:20 GMT 47.64850 6.34355 36,000 357 410 -64
2017-11-20 13:37:18 GMT 47.64473 6.34390 36,000 357 410 0
2017-11-20 13:37:16 GMT 47.64130 6.34419 36,000 357 410 0
2017-11-20 13:37:13 GMT 47.63486 6.34482 36,000 357 410 -64
2017-11-20 13:37:11 GMT 47.63223 6.34509 36,000 357 411 0
2017-11-20 13:37:09 GMT 47.62843 6.34543 36,000 357 410 0
2017-11-20 13:37:07 GMT 47.62161 6.34605 36,000 357 410 0
2017-11-20 13:37:03 GMT 47.61516 6.34665 36,000 357 410 0
2017-11-20 13:37:03 GMT 47.61591 6.34658 36,000 357 410 0
2017-11-20 13:37:01 GMT 47.61324 6.34680 36,000 357 410 0
2017-11-20 13:36:58 GMT 47.60683 6.34742 36,000 357 410 0
2017-11-20 13:36:56 GMT 47.60188 6.34790 36,000 357 410 0
2017-11-20 13:36:55 GMT 47.60110 6.34797 36,000 357 410 0
2017-11-20 13:36:53 GMT 47.59580 6.34845 36,000 357 410 0
2017-11-20 13:36:51 GMT 47.59315 6.34869 36,000 357 410 0
2017-11-20 13:36:49 GMT 47.58824 6.34914 36,000 357 410 0
2017-11-20 13:36:49 GMT 47.58937 6.34904 36,000 357 410 0
2017-11-20 13:36:47 GMT 47.58673 6.34927 36,000 357 410 0
2017-11-20 13:36:44 GMT 47.57951 6.34989 36,000 357 410 0
2017-11-20 13:36:42 GMT 47.57611 6.35023 36,000 357 410 0
2017-11-20 13:36:40 GMT 47.57309 6.35051 36,000 357 410 0
2017-11-20 13:36:38 GMT 47.56968 6.35080 36,000 357 410 0
2017-11-20 13:36:36 GMT 47.56320 6.35140 36,000 357 410 0
2017-11-20 13:36:33 GMT 47.55828 6.35186 36,000 357 410 0
2017-11-20 13:36:31 GMT 47.55638 6.35202 36,000 357 410 0
2017-11-20 13:36:29 GMT 47.55185 6.35243 36,000 357 410 0
2017-11-20 13:36:27 GMT 47.54732 6.35284 36,000 357 410 0
2017-11-20 13:36:25 GMT 47.54352 6.35319 36,000 357 410 0
2017-11-20 13:36:23 GMT 47.53899 6.35360 36,000 357 410 0
2017-11-20 13:36:21 GMT 47.53596 6.35387 36,000 357 410 0
2017-11-20 13:36:21 GMT 47.53710 6.35376 36,000 357 410 0
2017-11-20 13:36:19 GMT 47.53254 6.35418 36,000 357 410 0
2017-11-20 13:36:17 GMT 47.52723 6.35468 36,000 357 410 0
2017-11-20 13:36:15 GMT 47.52420 6.35496 36,000 357 410 0
2017-11-20 13:36:12 GMT 47.52004 6.35539 36,000 357 410 0
2017-11-20 13:36:10 GMT 47.51666 6.35566 36,000 357 410 0
2017-11-20 13:36:08 GMT 47.51135 6.35615 36,000 357 410 0
2017-11-20 13:36:06 GMT 47.50754 6.35651 36,000 357 410 0
2017-11-20 13:36:03 GMT 47.50074 6.35714 36,000 357 410 0
2017-11-20 13:36:00 GMT 47.49733 6.35745 36,000 357 410 0
2017-11-20 13:36:00 GMT 47.49660 6.35751 36,000 357 410 0
2017-11-20 13:35:57 GMT 47.49129 6.35799 36,000 357 410 0
2017-11-20 13:35:54 GMT 47.48486 6.35862 36,000 357 410 0
2017-11-20 13:35:52 GMT 47.48105 6.35897 36,000 357 410 0
2017-11-20 13:35:50 GMT 47.47728 6.35932 36,000 357 410 0
2017-11-20 13:35:48 GMT 47.47351 6.35968 36,000 357 409 0
2017-11-20 13:35:46 GMT 47.46974 6.35996 36,000 357 409 0
2017-11-20 13:35:44 GMT 47.46707 6.36026 36,000 357 409 0
2017-11-20 13:35:41 GMT 47.45987 6.36087 36,000 357 409 -64
2017-11-20 13:35:38 GMT 47.45421 6.36143 36,000 357 409 0
2017-11-20 13:35:36 GMT 47.44894 6.36191 36,000 357 409 -64
2017-11-20 13:35:34 GMT 47.44707 6.36207 36,000 357 409 -64
2017-11-20 13:35:31 GMT 47.44027 6.36270 36,000 357 408 0
2017-11-20 13:35:31 GMT 47.44027 6.36270 36,000 357 408 0
2017-11-20 13:35:29 GMT 47.43910 6.36280 36,000 357 408 0
2017-11-20 13:35:27 GMT 47.43347 6.36334 36,000 357 408 -64
2017-11-20 13:35:24 GMT 47.42816 6.36383 36,000 357 408 0
2017-11-20 13:35:21 GMT 47.42175 6.36445 36,000 357 408 0
2017-11-20 13:35:19 GMT 47.41988 6.36461 36,000 357 408 0
2017-11-20 13:35:16 GMT 47.41196 6.36534 36,000 357 408 0
2017-11-20 13:35:13 GMT 47.40782 6.36573 36,000 357 408 0
2017-11-20 13:35:10 GMT 47.40028 6.36644 36,000 357 408 0
2017-11-20 13:35:08 GMT 47.39841 6.36665 36,000 357 408 0
2017-11-20 13:35:07 GMT 47.39763 6.36671 36,000 357 408 0
2017-11-20 13:35:05 GMT 47.39310 6.36713 36,000 357 408 0
2017-11-20 13:35:03 GMT 47.38897 6.36749 36,000 357 408 0
2017-11-20 13:35:00 GMT 47.38292 6.36806 36,000 357 408 0
2017-11-20 13:34:58 GMT 47.38028 6.36829 36,000 357 408 0
2017-11-20 13:34:55 GMT 47.37428 6.36891 36,000 357 408 0
2017-11-20 13:34:53 GMT 47.36975 6.36932 36,000 357 408 0
2017-11-20 13:34:50 GMT 47.36371 6.36987 36,000 357 408 0
2017-11-20 13:34:48 GMT 47.36069 6.37015 36,000 357 408 0
2017-11-20 13:34:46 GMT 47.35542 6.37063 36,000 357 408 0
2017-11-20 13:34:43 GMT 47.35126 6.37101 36,000 357 408 0
2017-11-20 13:34:40 GMT 47.34485 6.37159 36,000 357 408 0
2017-11-20 13:34:38 GMT 47.34183 6.37186 36,000 357 408 0
2017-11-20 13:34:35 GMT 47.33583 6.37241 36,000 357 408 0
2017-11-20 13:34:33 GMT 47.33203 6.37283 36,000 357 408 0
2017-11-20 13:34:31 GMT 47.32938 6.37306 36,000 357 408 0
2017-11-20 13:34:29 GMT 47.32487 6.37348 36,000 357 408 0
2017-11-20 13:34:27 GMT 47.32150 6.37379 36,000 357 408 0
2017-11-20 13:34:24 GMT 47.31583 6.37425 36,000 357 409 0
2017-11-20 13:34:22 GMT 47.31053 6.37475 36,000 357 409 0
2017-11-20 13:34:19 GMT 47.30562 6.37516 36,000 357 409 0
2017-11-20 13:34:17 GMT 47.30260 6.37544 36,000 357 409 0
2017-11-20 13:34:17 GMT 47.30260 6.37544 36,000 357 409 0
2017-11-20 13:34:14 GMT 47.29733 6.37592 36,000 357 409 0
2017-11-20 13:34:11 GMT 47.29167 6.37644 36,000 357 409 0
2017-11-20 13:34:09 GMT 47.28525 6.37701 36,000 357 409 0
2017-11-20 13:34:05 GMT 47.27882 6.37763 36,000 357 409 0
2017-11-20 13:34:01 GMT 47.26975 6.37841 36,000 357 410 0
2017-11-20 13:33:58 GMT 47.26634 6.37873 36,000 357 410 0
2017-11-20 13:33:56 GMT 47.26332 6.37901 36,000 357 410 0
2017-11-20 13:33:54 GMT 47.25764 6.37953 36,000 357 410 0
2017-11-20 13:33:51 GMT 47.25308 6.37996 36,000 357 410 0
2017-11-20 13:33:51 GMT 47.25192 6.38004 36,000 357 410 0
2017-11-20 13:33:48 GMT 47.24739 6.38045 36,000 357 410 0
2017-11-20 13:33:46 GMT 47.24321 6.38080 36,000 357 411 0
2017-11-20 13:33:44 GMT 47.23979 6.38113 36,000 357 411 0
2017-11-20 13:33:41 GMT 47.23414 6.38165 36,000 357 411 0
2017-11-20 13:33:37 GMT 47.22729 6.38228 36,000 357 411 0
2017-11-20 13:33:34 GMT 47.21933 6.38299 36,000 357 411 0
2017-11-20 13:33:31 GMT 47.21475 6.38340 36,000 357 411 0
2017-11-20 13:33:29 GMT 47.21095 6.38374 36,000 357 411 0
2017-11-20 13:33:27 GMT 47.20830 6.38404 36,000 357 412 0
2017-11-20 13:33:25 GMT 47.20448 6.38439 36,000 357 412 0
2017-11-20 13:33:23 GMT 47.19804 6.38498 36,000 357 412 0
2017-11-20 13:33:21 GMT 47.19727 6.38505 36,000 357 412 0
2017-11-20 13:33:19 GMT 47.19118 6.38560 36,000 357 412 -64
2017-11-20 13:33:17 GMT 47.18777 6.38587 36,000 357 412 0
2017-11-20 13:33:14 GMT 47.18246 6.38637 36,000 357 412 -64
2017-11-20 13:33:12 GMT 47.17978 6.38663 36,000 357 412 0
2017-11-20 13:33:10 GMT 47.17329 6.38721 36,000 357 412 0
2017-11-20 13:33:08 GMT 47.16952 6.38756 36,000 357 412 0
2017-11-20 13:33:05 GMT 47.16570 6.38792 36,000 357 412 0
2017-11-20 13:33:03 GMT 47.16189 6.38820 36,000 357 412 0
2017-11-20 13:33:00 GMT 47.15430 6.38890 36,000 357 412 0
2017-11-20 13:32:58 GMT 47.15085 6.38924 36,000 357 412 0
2017-11-20 13:32:56 GMT 47.14820 6.38947 36,000 357 412 0
2017-11-20 13:32:54 GMT 47.14364 6.38989 36,000 357 412 0
2017-11-20 13:32:52 GMT 47.14057 6.39017 36,000 357 412 0
2017-11-20 13:32:49 GMT 47.13526 6.39059 36,000 357 412 0
2017-11-20 13:32:46 GMT 47.12837 6.39123 36,000 357 412 0
2017-11-20 13:32:42 GMT 47.12152 6.39186 36,000 357 412 0
2017-11-20 13:32:40 GMT 47.11775 6.39221 36,000 357 412 0
2017-11-20 13:32:37 GMT 47.11166 6.39278 36,000 357 412 0
2017-11-20 13:32:35 GMT 47.10974 6.39294 36,000 357 412 0
2017-11-20 13:32:33 GMT 47.10328 6.39348 36,000 357 412 0
2017-11-20 13:32:31 GMT 47.10174 6.39362 36,000 357 412 0
2017-11-20 13:32:29 GMT 47.09643 6.39411 36,000 357 412 0
2017-11-20 13:32:27 GMT 47.09450 6.39432 36,000 357 412 0
2017-11-20 13:32:25 GMT 47.08880 6.39482 36,000 357 412 0
2017-11-20 13:32:23 GMT 47.08612 6.39507 36,000 357 412 0
2017-11-20 13:32:21 GMT 47.08154 6.39548 36,000 357 412 0
2017-11-20 13:32:19 GMT 47.07586 6.39594 36,000 357 412 0
2017-11-20 13:32:15 GMT 47.06976 6.39651 36,000 357 412 0
2017-11-20 13:32:12 GMT 47.06366 6.39707 36,000 357 412 0
2017-11-20 13:32:10 GMT 47.06177 6.39727 36,000 357 412 0
2017-11-20 13:32:07 GMT 47.05490 6.39789 36,000 357 412 0
2017-11-20 13:32:05 GMT 47.05146 6.39820 36,000 357 412 0
2017-11-20 13:32:02 GMT 47.04652 6.39864 36,000 357 412 0
2017-11-20 13:32:00 GMT 47.04272 6.39899 36,000 357 412 0
2017-11-20 13:31:58 GMT 47.03699 6.39954 36,000 357 412 0
2017-11-20 13:31:56 GMT 47.03317 6.39989 36,000 357 412 0
2017-11-20 13:31:53 GMT 47.02861 6.40031 36,000 357 412 0
2017-11-20 13:31:51 GMT 47.02368 6.40077 36,000 357 412 0
2017-11-20 13:31:51 GMT 47.02368 6.40077 36,000 357 412 0
2017-11-20 13:31:49 GMT 47.01948 6.40116 36,000 357 412 0
2017-11-20 13:31:47 GMT 47.01755 6.40132 36,000 357 412 0
2017-11-20 13:31:44 GMT 47.01185 6.40186 36,000 357 412 0
2017-11-20 13:31:42 GMT 47.00729 6.40228 36,000 357 412 0
2017-11-20 13:31:40 GMT 47.00421 6.40256 36,000 357 412 0
2017-11-20 13:31:40 GMT 47.00347 6.40264 36,000 357 412 0
2017-11-20 13:31:37 GMT 46.99891 6.40306 36,000 357 412 0
2017-11-20 13:31:35 GMT 46.99471 6.40345 36,000 357 412 0
2017-11-20 13:31:33 GMT 46.99168 6.40372 36,000 357 412 0
2017-11-20 13:31:30 GMT 46.98443 6.40440 36,000 357 412 0
2017-11-20 13:31:27 GMT 46.97795 6.40496 36,000 357 412 0
2017-11-20 13:31:25 GMT 46.97415 6.40530 36,000 357 412 0
2017-11-20 13:31:23 GMT 46.97223 6.40545 36,000 357 412 0
2017-11-20 13:31:20 GMT 46.96500 6.40613 36,000 357 412 0
2017-11-20 13:31:20 GMT 46.96500 6.40613 36,000 357 412 0
2017-11-20 13:31:17 GMT 46.96042 6.40654 36,000 357 412 0
2017-11-20 13:31:15 GMT 46.95547 6.40700 36,000 357 412 0
2017-11-20 13:31:13 GMT 46.95245 6.40728 36,000 357 412 0
2017-11-20 13:31:11 GMT 46.94863 6.40764 36,000 357 412 0
2017-11-20 13:31:09 GMT 46.94595 6.40784 36,000 357 413 0
2017-11-20 13:31:06 GMT 46.94025 6.40834 36,000 357 413 0
2017-11-20 13:31:03 GMT 46.93222 6.40908 36,000 357 413 0
2017-11-20 13:31:01 GMT 46.92954 6.40932 36,000 357 413 0
2017-11-20 13:30:59 GMT 46.92652 6.40954 36,000 357 413 -64
2017-11-20 13:30:56 GMT 46.92078 6.41004 36,000 357 413 0
2017-11-20 13:30:54 GMT 46.91625 6.41045 36,000 357 413 0
2017-11-20 13:30:52 GMT 46.91318 6.41073 36,000 357 413 0
2017-11-20 13:30:49 GMT 46.90709 6.41121 36,000 357 413 0
2017-11-20 13:30:46 GMT 46.90133 6.41172 36,000 357 413 0
2017-11-20 13:30:44 GMT 46.89565 6.41217 36,000 357 413 0
2017-11-20 13:30:42 GMT 46.89336 6.41238 36,000 357 413 0
2017-11-20 13:30:39 GMT 46.88839 6.41278 36,000 357 413 0
2017-11-20 13:30:39 GMT 46.88727 6.41293 36,000 357 413 0
2017-11-20 13:30:37 GMT 46.88457 6.41313 36,000 357 413 0
2017-11-20 13:30:36 GMT 46.88191 6.41334 36,000 357 413 0
2017-11-20 13:30:35 GMT 46.88113 6.41341 36,000 357 413 0
2017-11-20 13:30:32 GMT 46.87391 6.41404 36,000 357 413 0
2017-11-20 13:30:29 GMT 46.86702 6.41457 36,000 357 413 0
2017-11-20 13:30:28 GMT 46.86702 6.41457 36,000 357 413 0
2017-11-20 13:30:25 GMT 46.85902 6.41528 36,000 357 413 0
2017-11-20 13:30:23 GMT 46.85522 6.41561 36,000 357 413 0
2017-11-20 13:30:21 GMT 46.85445 6.41568 36,000 357 413 0
2017-11-20 13:30:19 GMT 46.84719 6.41622 36,000 357 413 0
2017-11-20 13:30:16 GMT 46.84189 6.41670 36,000 357 413 0
2017-11-20 13:30:14 GMT 46.83998 6.41689 36,000 357 413 0
2017-11-20 13:30:11 GMT 46.83463 6.41729 36,000 357 413 0
2017-11-20 13:30:08 GMT 46.82815 6.41787 36,000 357 413 0
2017-11-20 13:30:06 GMT 46.82318 6.41829 36,000 357 413 0
2017-11-20 13:30:03 GMT 46.81824 6.41869 36,000 357 413 0
2017-11-20 13:30:01 GMT 46.81476 6.41903 36,000 357 413 0
2017-11-20 13:29:57 GMT 46.80867 6.41957 36,000 357 413 0
2017-11-20 13:29:54 GMT 46.80297 6.42007 36,000 357 413 0
2017-11-20 13:29:52 GMT 46.79723 6.42057 36,000 357 413 0
2017-11-20 13:29:50 GMT 46.79533 6.42075 36,000 357 413 0
2017-11-20 13:29:47 GMT 46.78844 6.42144 36,000 357 413 0
2017-11-20 13:29:45 GMT 46.78272 6.42191 36,000 357 413 0
2017-11-20 13:29:40 GMT 46.77550 6.42261 36,000 357 413 0
2017-11-20 13:29:38 GMT 46.77015 6.42309 36,000 357 413 0
2017-11-20 13:29:36 GMT 46.76825 6.42325 36,000 357 413 0
2017-11-20 13:29:33 GMT 46.76212 6.42379 36,000 357 414 -128
2017-11-20 13:29:30 GMT 46.75603 6.42432 36,000 356 414 -256
2017-11-20 13:29:28 GMT 46.75106 6.42494 36,000 355 414 -256
2017-11-20 13:29:26 GMT 46.74921 6.42519 36,000 354 413 -256
2017-11-20 13:29:23 GMT 46.74352 6.42604 36,000 354 413 -256
2017-11-20 13:29:20 GMT 46.73483 6.42760 36,000 352 412 -192
2017-11-20 13:29:17 GMT 46.73072 6.42851 36,000 352 411 -192
2017-11-20 13:29:15 GMT 46.72810 6.42908 36,000 351 411 -192
2017-11-20 13:29:13 GMT 46.72397 6.43009 36,000 350 411 -192
2017-11-20 13:29:09 GMT 46.71503 6.43250 36,000 349 409 -192
2017-11-20 13:29:06 GMT 46.71061 6.43380 36,000 348 410 -192
2017-11-20 13:29:03 GMT 46.70288 6.43631 36,000 345 408 -192
2017-11-20 13:28:59 GMT 46.69664 6.43861 36,000 346 409 -192
2017-11-20 13:28:56 GMT 46.69301 6.43998 36,000 345 408 -192
2017-11-20 13:28:55 GMT 46.69194 6.44040 36,000 345 408 -192
2017-11-20 13:28:53 GMT 46.68613 6.44275 36,000 344 408 -192
2017-11-20 13:28:49 GMT 46.67928 6.44568 36,000 343 407 -192
2017-11-20 13:28:49 GMT 46.67928 6.44568 36,000 343 407 -192
2017-11-20 13:28:47 GMT 46.67714 6.44671 36,000 343 407 -192
2017-11-20 13:28:45 GMT 46.67390 6.44817 36,000 342 406 -192
2017-11-20 13:28:42 GMT 46.66612 6.45206 36,000 341 406 -192
2017-11-20 13:28:40 GMT 46.66328 6.45346 36,000 340 406 -192
2017-11-20 13:28:38 GMT 46.66080 6.45481 36,000 340 406 -192
2017-11-20 13:28:36 GMT 46.65624 6.45728 36,000 339 406 -192
2017-11-20 13:28:32 GMT 46.65001 6.46090 36,000 338 405 -192
2017-11-20 13:28:30 GMT 46.64584 6.46338 36,000 338 405 -128
2017-11-20 13:28:28 GMT 46.64172 6.46586 36,000 338 405 0
2017-11-20 13:28:25 GMT 46.63824 6.46800 36,000 338 403 64
2017-11-20 13:28:21 GMT 46.63138 6.47222 36,000 338 403 192
2017-11-20 13:28:19 GMT 46.62584 6.47550 36,000 339 403 192
2017-11-20 13:28:17 GMT 46.62481 6.47617 36,000 339 403 192
2017-11-20 13:28:15 GMT 46.62062 6.47857 36,000 340 403 192
2017-11-20 13:28:12 GMT 46.61364 6.48241 36,000 340 403 192
2017-11-20 13:28:07 GMT 46.60517 6.48681 36,000 342 404 192
2017-11-20 13:28:05 GMT 46.60238 6.48825 36,000 342 404 192
2017-11-20 13:28:03 GMT 46.60057 6.48910 36,000 343 404 192
2017-11-20 13:28:01 GMT 46.59631 6.49111 36,000 343 404 192
2017-11-20 13:27:59 GMT 46.59311 6.49265 36,000 344 404 192
2017-11-20 13:27:56 GMT 46.58702 6.49533 36,000 344 405 192
2017-11-20 13:27:54 GMT 46.58267 6.49721 36,000 345 405 192
2017-11-20 13:27:49 GMT 46.57471 6.50042 36,000 346 405 128
2017-11-20 13:27:47 GMT 46.57146 6.50164 36,000 346 405 128
2017-11-20 13:27:45 GMT 46.56523 6.50391 36,000 347 406 128
2017-11-20 13:27:40 GMT 46.55829 6.50631 36,000 348 406 128
2017-11-20 13:27:37 GMT 46.55205 6.50826 36,000 349 407 128
2017-11-20 13:27:34 GMT 46.54688 6.50980 36,000 349 407 128
2017-11-20 13:27:31 GMT 46.54243 6.51107 36,000 351 407 192
2017-11-20 13:27:29 GMT 46.53688 6.51256 36,000 351 407 192
2017-11-20 13:27:26 GMT 46.53204 6.51375 36,000 351 408 192
2017-11-20 13:27:26 GMT 46.53278 6.51362 36,000 351 408 192
2017-11-20 13:27:24 GMT 46.52794 6.51476 36,000 352 408 192
2017-11-20 13:27:24 GMT 46.52868 6.51455 36,000 352 407 192
2017-11-20 13:27:22 GMT 46.52380 6.51563 36,000 353 409 128
2017-11-20 13:27:18 GMT 46.51667 6.51709 36,000 353 408 192
2017-11-20 13:27:16 GMT 46.51295 6.51778 36,000 354 409 64
2017-11-20 13:27:16 GMT 46.51295 6.51778 36,000 354 409 64
2017-11-20 13:27:16 GMT 46.51295 6.51778 36,000 354 409 64
2017-11-20 13:27:15 GMT 46.51220 6.51791 36,000 354 409 64
2017-11-20 13:27:15 GMT 46.51220 6.51791 36,000 354 409 64
2017-11-20 13:27:13 GMT 46.50728 6.51878 36,000 354 409 64
2017-11-20 13:27:11 GMT 46.50353 6.51938 36,000 354 410 0
2017-11-20 13:27:09 GMT 46.49977 6.51998 36,000 354 410 0
2017-11-20 13:27:06 GMT 46.49300 6.52112 36,000 354 409 0
2017-11-20 13:27:03 GMT 46.48920 6.52173 36,000 354 409 0
2017-11-20 13:27:01 GMT 46.48622 6.52226 36,000 354 409 0
2017-11-20 13:26:59 GMT 46.48169 6.52300 36,000 354 409 0
2017-11-20 13:26:57 GMT 46.47831 6.52354 36,000 354 409 64
2017-11-20 13:26:54 GMT 46.47003 6.52492 36,000 354 409 0
2017-11-20 13:26:52 GMT 46.46590 6.52554 36,000 354 409 64
2017-11-20 13:26:50 GMT 46.46328 6.52602 36,000 354 409 0
2017-11-20 13:26:48 GMT 46.46025 6.52650 36,000 354 409 0
2017-11-20 13:26:45 GMT 46.45386 6.52755 36,000 354 409 0
2017-11-20 13:26:42 GMT 46.45010 6.52816 36,000 354 409 0
2017-11-20 13:26:40 GMT 46.44635 6.52876 36,000 354 409 0
2017-11-20 13:26:38 GMT 46.44070 6.52966 36,000 354 410 0
2017-11-20 13:26:34 GMT 46.43504 6.53064 36,000 354 410 0
2017-11-20 13:26:32 GMT 46.43056 6.53137 36,000 354 410 0
2017-11-20 13:26:30 GMT 46.42790 6.53178 36,000 354 410 0
2017-11-20 13:26:27 GMT 46.42036 6.53302 36,000 354 410 0
2017-11-20 13:26:24 GMT 46.41472 6.53392 36,000 354 410 0
2017-11-20 13:26:21 GMT 46.40868 6.53492 36,000 354 410 0
2017-11-20 13:26:17 GMT 46.40150 6.53611 36,000 354 411 0
2017-11-20 13:26:14 GMT 46.39624 6.53693 36,000 354 411 0
2017-11-20 13:26:12 GMT 46.39133 6.53774 36,000 354 411 0
2017-11-20 13:26:10 GMT 46.38865 6.53817 36,000 354 411 0
2017-11-20 13:26:07 GMT 46.38226 6.53921 36,000 354 411 0
2017-11-20 13:26:03 GMT 46.37695 6.54008 36,000 354 411 0
2017-11-20 13:26:01 GMT 46.37054 6.54119 36,000 354 411 0
2017-11-20 13:25:57 GMT 46.36524 6.54202 36,000 354 411 0
2017-11-20 13:25:54 GMT 46.35731 6.54336 36,000 354 411 0
2017-11-20 13:25:52 GMT 46.35467 6.54380 36,000 354 412 0
2017-11-20 13:25:50 GMT 46.35085 6.54442 36,000 354 412 -64
2017-11-20 13:25:46 GMT 46.34257 6.54572 36,000 354 412 0
2017-11-20 13:25:43 GMT 46.33836 6.54645 36,000 354 412 0
2017-11-20 13:25:41 GMT 46.33461 6.54705 36,000 354 412 0
2017-11-20 13:25:39 GMT 46.33003 6.54779 36,000 354 412 0
2017-11-20 13:25:36 GMT 46.32437 6.54874 36,000 354 412 0
2017-11-20 13:25:32 GMT 46.31529 6.55025 36,000 354 412 0
2017-11-20 13:25:30 GMT 46.31264 6.55067 36,000 354 412 0
2017-11-20 13:25:27 GMT 46.30806 6.55140 36,000 354 413 0
2017-11-20 13:25:23 GMT 46.29932 6.55286 36,000 354 413 0
2017-11-20 13:25:21 GMT 46.29593 6.55341 36,000 354 413 0
2017-11-20 13:25:19 GMT 46.29213 6.55401 36,000 354 413 0
2017-11-20 13:25:17 GMT 46.28796 6.55472 36,000 354 413 0
2017-11-20 13:25:13 GMT 46.27884 6.55616 36,000 354 413 0
2017-11-20 13:25:11 GMT 46.27693 6.55649 36,000 354 413 0
2017-11-20 13:25:09 GMT 46.27199 6.55726 36,000 354 413 0
2017-11-20 13:25:08 GMT 46.27199 6.55726 36,000 354 413 0
2017-11-20 13:25:06 GMT 46.26553 6.55837 36,000 354 413 0
2017-11-20 13:25:02 GMT 46.25984 6.55925 36,000 354 413 0
2017-11-20 13:25:00 GMT 46.25607 6.55987 36,000 354 413 0
2017-11-20 13:24:57 GMT 46.25151 6.56062 36,000 354 413 0
2017-11-20 13:24:55 GMT 46.24809 6.56118 36,000 354 413 0
2017-11-20 13:24:53 GMT 46.24200 6.56219 36,000 354 413 0
2017-11-20 13:24:51 GMT 46.23857 6.56275 36,000 354 413 0
2017-11-20 13:24:48 GMT 46.23138 6.56386 36,000 354 413 0
2017-11-20 13:24:46 GMT 46.22949 6.56419 36,000 354 413 0
2017-11-20 13:24:44 GMT 46.22452 6.56500 36,000 354 413 0
2017-11-20 13:24:41 GMT 46.22037 6.56570 36,000 354 413 0
2017-11-20 13:24:39 GMT 46.21655 6.56625 36,000 354 413 0
2017-11-20 13:24:37 GMT 46.21124 6.56715 36,000 354 413 0
2017-11-20 13:24:34 GMT 46.20519 6.56811 36,000 354 413 0
2017-11-20 13:24:31 GMT 46.19870 6.56915 36,000 354 413 0
2017-11-20 13:24:29 GMT 46.19760 6.56934 36,000 354 413 0
2017-11-20 13:24:26 GMT 46.19037 6.57049 36,000 354 413 0
2017-11-20 13:24:22 GMT 46.18506 6.57137 36,000 354 413 0
2017-11-20 13:24:20 GMT 46.18164 6.57195 36,000 354 413 0
2017-11-20 13:24:18 GMT 46.17668 6.57270 36,000 354 413 0
2017-11-20 13:24:15 GMT 46.17023 6.57381 36,000 354 413 0
2017-11-20 13:24:13 GMT 46.16567 6.57449 36,000 354 413 0
2017-11-20 13:24:10 GMT 46.15924 6.57559 36,000 354 413 0
2017-11-20 13:24:07 GMT 46.15505 6.57621 36,000 354 413 0
2017-11-20 13:24:05 GMT 46.15124 6.57683 36,000 354 413 0
2017-11-20 13:24:04 GMT 46.15124 6.57683 36,000 354 413 0
2017-11-20 13:24:04 GMT 46.14975 6.57710 36,000 354 413 0
2017-11-20 13:24:02 GMT 46.14706 6.57753 36,000 354 413 0
2017-11-20 13:24:00 GMT 46.14253 6.57826 36,000 354 413 0
2017-11-20 13:23:58 GMT 46.13873 6.57887 36,000 354 413 0
2017-11-20 13:23:56 GMT 46.13493 6.57954 36,000 354 413 0
2017-11-20 13:23:53 GMT 46.12729 6.58074 36,000 354 414 0
2017-11-20 13:23:51 GMT 46.12466 6.58115 36,000 354 414 0
2017-11-20 13:23:49 GMT 46.12276 6.58148 36,000 354 414 0
2017-11-20 13:23:47 GMT 46.11896 6.58208 36,000 354 414 0
2017-11-20 13:23:45 GMT 46.11516 6.58269 36,000 354 414 0
2017-11-20 13:23:43 GMT 46.11018 6.58349 36,000 354 414 0
2017-11-20 13:23:41 GMT 46.10641 6.58411 36,000 354 414 0
2017-11-20 13:23:39 GMT 46.10298 6.58463 36,000 354 414 0
2017-11-20 13:23:37 GMT 46.09918 6.58530 36,000 354 414 0
2017-11-20 13:23:35 GMT 46.09460 6.58597 36,000 354 414 0
2017-11-20 13:23:33 GMT 46.09081 6.58664 36,000 354 414 0
2017-11-20 13:23:31 GMT 46.08550 6.58744 36,000 354 414 0
2017-11-20 13:23:29 GMT 46.08206 6.58802 36,000 354 414 0
2017-11-20 13:23:27 GMT 46.08014 6.58831 36,000 354 414 0
2017-11-20 13:23:25 GMT 46.07712 6.58878 36,000 354 414 0
2017-11-20 13:23:23 GMT 46.07219 6.58960 36,000 354 414 0
2017-11-20 13:23:21 GMT 46.06874 6.59012 36,000 354 414 0
2017-11-20 13:23:18 GMT 46.06192 6.59126 36,000 354 414 0
2017-11-20 13:23:16 GMT 46.05999 6.59152 36,000 354 414 0
2017-11-20 13:23:14 GMT 46.05315 6.59262 36,000 354 414 0
2017-11-20 13:23:12 GMT 46.04933 6.59324 36,000 354 414 0
2017-11-20 13:23:07 GMT 46.04137 6.59454 36,000 354 414 0
2017-11-20 13:23:05 GMT 46.03757 6.59515 36,000 354 414 0
2017-11-20 13:23:01 GMT 46.03070 6.59628 36,000 354 414 0
2017-11-20 13:22:59 GMT 46.02612 6.59702 36,000 354 414 0
2017-11-20 13:22:57 GMT 46.02117 6.59784 36,000 354 414 0
2017-11-20 13:22:55 GMT 46.01740 6.59846 36,000 354 414 0
2017-11-20 13:22:52 GMT 46.01205 6.59928 36,000 354 414 0
2017-11-20 13:22:50 GMT 46.01015 6.59964 36,000 354 414 0
2017-11-20 13:22:48 GMT 46.00446 6.60052 36,000 354 414 0
2017-11-20 13:22:46 GMT 46.00255 6.60084 36,000 354 414 0
2017-11-20 13:22:44 GMT 45.99797 6.60158 36,000 354 414 0
2017-11-20 13:22:41 GMT 45.99072 6.60278 36,000 354 414 0
2017-11-20 13:22:38 GMT 45.98616 6.60347 36,000 354 414 0
2017-11-20 13:22:36 GMT 45.98086 6.60436 36,000 354 413 0
2017-11-20 13:22:34 GMT 45.97857 6.60471 36,000 354 413 0
2017-11-20 13:22:32 GMT 45.97440 6.60540 36,000 354 413 0
2017-11-20 13:22:30 GMT 45.97173 6.60580 36,000 354 413 0
2017-11-20 13:22:27 GMT 45.96642 6.60670 36,000 354 413 0
2017-11-20 13:22:27 GMT 45.96642 6.60670 36,000 354 413 0
2017-11-20 13:22:27 GMT 45.96642 6.60670 36,000 354 413 0
2017-11-20 13:22:24 GMT 45.96107 6.60752 36,000 354 413 0
2017-11-20 13:22:21 GMT 45.95348 6.60876 36,000 354 413 0
2017-11-20 13:22:19 GMT 45.95120 6.60917 36,000 354 413 0
2017-11-20 13:22:17 GMT 45.94743 6.60979 36,000 354 413 0
2017-11-20 13:22:15 GMT 45.94208 6.61061 36,000 354 413 0
2017-11-20 13:22:12 GMT 45.93677 6.61150 36,000 354 413 0
2017-11-20 13:22:10 GMT 45.93182 6.61230 36,000 354 413 0
2017-11-20 13:22:08 GMT 45.92993 6.61260 36,000 354 413 0
2017-11-20 13:22:06 GMT 45.92616 6.61322 36,000 354 413 0
2017-11-20 13:22:04 GMT 45.92313 6.61370 36,000 354 413 0
2017-11-20 13:22:01 GMT 45.91667 6.61471 36,000 354 413 0
2017-11-20 13:21:59 GMT 45.91247 6.61542 36,000 354 413 0
2017-11-20 13:21:56 GMT 45.90756 6.61618 36,000 354 413 0
2017-11-20 13:21:54 GMT 45.90339 6.61686 36,000 354 413 0
2017-11-20 13:21:48 GMT 45.89008 6.61899 36,000 354 413 0
2017-11-20 13:21:46 GMT 45.88896 6.61913 36,000 354 413 0
2017-11-20 13:21:44 GMT 45.88174 6.62027 36,000 354 413 0
2017-11-20 13:21:41 GMT 45.87830 6.62084 36,000 354 413 0
2017-11-20 13:21:37 GMT 45.87112 6.62201 36,000 354 413 0
2017-11-20 13:21:35 GMT 45.86733 6.62261 36,000 354 413 0
2017-11-20 13:21:35 GMT 45.86733 6.62261 36,000 354 413 0
2017-11-20 13:21:33 GMT 45.86353 6.62322 36,000 354 412 0
2017-11-20 13:21:30 GMT 45.85744 6.62415 36,000 354 412 0
2017-11-20 13:21:28 GMT 45.85213 6.62502 36,000 354 412 0
2017-11-20 13:21:26 GMT 45.84949 6.62544 36,000 354 412 0
2017-11-20 13:21:26 GMT 45.84949 6.62544 36,000 354 412 0
2017-11-20 13:21:24 GMT 45.84720 6.62585 36,000 354 412 0
2017-11-20 13:21:22 GMT 45.84078 6.62683 36,000 354 412 0
2017-11-20 13:21:18 GMT 45.83436 6.62791 36,000 354 412 0
2017-11-20 13:21:16 GMT 45.82979 6.62860 36,000 354 412 0
2017-11-20 13:21:13 GMT 45.82640 6.62918 36,000 354 411 0
2017-11-20 13:21:13 GMT 45.82449 6.62949 36,000 354 412 0
2017-11-20 13:21:08 GMT 45.81620 6.63080 36,000 354 412 0
2017-11-20 13:21:06 GMT 45.81276 6.63132 36,000 354 411 0
2017-11-20 13:21:06 GMT 45.81276 6.63132 36,000 354 411 0
2017-11-20 13:21:04 GMT 45.80823 6.63206 36,000 354 411 0
2017-11-20 13:21:02 GMT 45.80484 6.63258 36,000 354 411 0
2017-11-20 13:21:00 GMT 45.80028 6.63334 36,000 354 411 0
2017-11-20 13:20:58 GMT 45.79725 6.63382 36,000 354 411 0
2017-11-20 13:20:56 GMT 45.79312 6.63447 36,000 354 411 0
2017-11-20 13:20:54 GMT 45.79046 6.63492 36,000 354 411 0
2017-11-20 13:20:52 GMT 45.78594 6.63567 36,000 354 411 0
2017-11-20 13:20:49 GMT 45.77948 6.63668 36,000 354 411 0
2017-11-20 13:20:46 GMT 45.77384 6.63760 36,000 354 411 0
2017-11-20 13:20:44 GMT 45.76968 6.63822 36,000 354 412 0
2017-11-20 13:20:42 GMT 45.76779 6.63856 36,000 354 411 0
2017-11-20 13:20:40 GMT 45.76322 6.63924 36,000 354 412 0
2017-11-20 13:20:36 GMT 45.75302 6.64090 36,000 354 412 0
2017-11-20 13:20:34 GMT 45.75112 6.64117 36,000 354 412 0
2017-11-20 13:20:32 GMT 45.74735 6.64178 36,000 354 412 0
2017-11-20 13:20:31 GMT 45.74656 6.64192 36,000 354 412 0
2017-11-20 13:20:27 GMT 45.73822 6.64323 36,000 354 413 0
2017-11-20 13:20:25 GMT 45.73520 6.64371 36,000 354 413 0
2017-11-20 13:20:23 GMT 45.73143 6.64433 36,000 354 413 0
2017-11-20 13:20:21 GMT 45.72647 6.64512 36,000 354 413 0
2017-11-20 13:20:15 GMT 45.71467 6.64700 36,000 354 414 0
2017-11-20 13:20:12 GMT 45.70972 6.64780 36,000 354 415 0
2017-11-20 13:20:09 GMT 45.70441 6.64860 36,000 354 415 0
2017-11-20 13:20:06 GMT 45.69717 6.64982 36,000 354 415 -64
2017-11-20 13:20:03 GMT 45.69256 6.65050 36,000 354 416 -64
2017-11-20 13:20:01 GMT 45.68834 6.65122 36,000 354 416 -64
2017-11-20 13:19:57 GMT 45.67878 6.65270 36,000 354 416 -64
2017-11-20 13:19:55 GMT 45.67690 6.65303 36,000 354 416 -64
2017-11-20 13:19:53 GMT 45.67343 6.65360 36,000 354 416 -64
2017-11-20 13:19:50 GMT 45.66769 6.65450 36,000 354 416 -64
2017-11-20 13:19:45 GMT 45.65776 6.65611 36,000 354 417 -64
2017-11-20 13:19:42 GMT 45.65275 6.65689 36,000 354 417 -64
2017-11-20 13:19:40 GMT 45.64894 6.65751 36,000 354 417 -64
2017-11-20 13:19:39 GMT 45.64778 6.65771 36,000 354 417 -64
2017-11-20 13:19:37 GMT 45.64394 6.65832 36,000 354 417 -64
2017-11-20 13:19:34 GMT 45.63707 6.65939 36,000 354 416 0
2017-11-20 13:19:32 GMT 45.63400 6.65993 36,000 354 416 0
2017-11-20 13:19:30 GMT 45.63016 6.66053 36,000 354 416 0
2017-11-20 13:19:28 GMT 45.62673 6.66108 36,000 354 416 0
2017-11-20 13:19:24 GMT 45.61716 6.66254 36,000 354 416 64
2017-11-20 13:19:22 GMT 45.61370 6.66314 36,000 354 416 64
2017-11-20 13:19:20 GMT 45.61024 6.66368 36,000 354 416 0
2017-11-20 13:19:18 GMT 45.60645 6.66428 36,000 354 416 0
2017-11-20 13:19:14 GMT 45.59880 6.66549 36,000 354 416 0
2017-11-20 13:19:11 GMT 45.59308 6.66637 36,000 354 416 0
2017-11-20 13:19:09 GMT 45.59038 6.66683 36,000 354 416 0
2017-11-20 13:19:07 GMT 45.58502 6.66763 36,000 354 416 0
2017-11-20 13:19:04 GMT 45.57893 6.66863 36,000 354 415 0
2017-11-20 13:19:02 GMT 45.57469 6.66925 36,000 354 415 0
2017-11-20 13:18:58 GMT 45.56631 6.67056 36,000 354 415 0
2017-11-20 13:18:54 GMT 45.55985 6.67158 36,000 354 415 0
2017-11-20 13:18:51 GMT 45.55411 6.67248 36,000 354 414 0
2017-11-20 13:18:47 GMT 45.54727 6.67358 36,000 354 414 0
2017-11-20 13:18:44 GMT 45.54038 6.67466 36,000 354 414 0
2017-11-20 13:18:40 GMT 45.53471 6.67557 36,000 354 414 0
2017-11-20 13:18:40 GMT 45.53471 6.67557 36,000 354 414 0
2017-11-20 13:18:37 GMT 45.52936 6.67642 36,000 354 413 0
2017-11-20 13:18:35 GMT 45.52367 6.67734 36,000 354 413 0
2017-11-20 13:18:33 GMT 45.52103 6.67773 36,000 354 413 0
2017-11-20 13:18:31 GMT 45.51416 6.67884 36,000 354 413 0
2017-11-20 13:18:31 GMT 45.51529 6.67862 36,000 354 413 0
2017-11-20 13:18:28 GMT 45.51073 6.67935 36,000 354 413 64
2017-11-20 13:18:26 GMT 45.50807 6.67982 36,000 354 413 0
2017-11-20 13:18:23 GMT 45.50125 6.68086 36,000 354 414 0
2017-11-20 13:18:20 GMT 45.49589 6.68171 36,000 354 414 0
2017-11-20 13:18:16 GMT 45.48830 6.68289 36,000 354 414 0
2017-11-20 13:18:16 GMT 45.48907 6.68276 36,000 354 414 0
2017-11-20 13:18:13 GMT 45.48221 6.68387 36,000 354 415 0
2017-11-20 13:18:09 GMT 45.47497 6.68498 36,000 354 415 0
2017-11-20 13:18:06 GMT 45.47003 6.68577 36,000 354 415 0
2017-11-20 13:18:06 GMT 45.47003 6.68577 36,000 354 415 0
2017-11-20 13:18:02 GMT 45.46161 6.68714 36,000 354 416 0
2017-11-20 13:17:59 GMT 45.45589 6.68806 36,000 354 416 0
2017-11-20 13:17:58 GMT 45.45510 6.68820 36,000 354 416 0
2017-11-20 13:17:56 GMT 45.45053 6.68893 36,000 354 416 0
2017-11-20 13:17:54 GMT 45.44632 6.68956 36,000 354 416 0
2017-11-20 13:17:52 GMT 45.44364 6.69000 36,000 354 417 0
2017-11-20 13:17:50 GMT 45.43790 6.69093 36,000 354 417 0
2017-11-20 13:17:50 GMT 45.43790 6.69093 36,000 354 417 0
2017-11-20 13:17:47 GMT 45.43368 6.69161 36,000 354 417 0
2017-11-20 13:17:45 GMT 45.42870 6.69237 36,000 354 417 0
2017-11-20 13:17:43 GMT 45.42367 6.69315 36,000 354 418 0
2017-11-20 13:17:39 GMT 45.41560 6.69440 36,000 354 418 0
2017-11-20 13:17:38 GMT 45.41638 6.69434 36,000 354 418 0
2017-11-20 13:17:34 GMT 45.40869 6.69551 36,000 354 419 0
2017-11-20 13:17:32 GMT 45.40407 6.69623 36,000 354 419 0
2017-11-20 13:17:29 GMT 45.39830 6.69717 36,000 354 419 0
2017-11-20 13:17:28 GMT 45.39638 6.69747 36,000 354 419 0
2017-11-20 13:17:27 GMT 45.39560 6.69761 36,000 354 419 0
2017-11-20 13:17:27 GMT 45.39560 6.69761 36,000 354 419 0
2017-11-20 13:17:24 GMT 45.38904 6.69865 36,000 354 420 0
2017-11-20 13:17:22 GMT 45.38443 6.69932 36,000 354 420 0
2017-11-20 13:17:19 GMT 45.37866 6.70029 36,000 354 420 0
2017-11-20 13:17:17 GMT 45.37596 6.70072 36,000 354 420 -64
2017-11-20 13:17:15 GMT 45.36859 6.70186 36,000 354 421 -64
2017-11-20 13:17:11 GMT 45.36397 6.70258 36,000 354 421 -64
2017-11-20 13:17:08 GMT 45.35738 6.70360 36,000 354 422 -64
2017-11-20 13:17:06 GMT 45.35347 6.70421 36,000 354 422 -64
2017-11-20 13:17:04 GMT 45.35078 6.70467 36,000 354 422 -64
2017-11-20 13:17:01 GMT 45.34456 6.70565 36,000 354 422 -64
2017-11-20 13:16:57 GMT 45.33600 6.70696 36,000 354 423 -64
2017-11-20 13:16:54 GMT 45.32904 6.70807 36,000 354 423 -64
2017-11-20 13:16:51 GMT 45.32437 6.70885 36,000 354 423 -64
2017-11-20 13:16:47 GMT 45.31659 6.71003 36,000 354 423 -64
2017-11-20 13:16:45 GMT 45.31385 6.71050 36,000 354 423 -64
2017-11-20 13:16:43 GMT 45.30920 6.71124 36,000 354 423 -64
2017-11-20 13:16:40 GMT 45.30454 6.71198 36,000 354 423 -64
2017-11-20 13:16:38 GMT 45.29791 6.71297 36,000 354 423 -64
2017-11-20 13:16:37 GMT 45.29598 6.71332 36,000 354 423 -64
2017-11-20 13:16:35 GMT 45.29480 6.71350 36,000 354 423 -64
2017-11-20 13:16:33 GMT 45.28974 6.71425 36,000 354 423 -64
2017-11-20 13:16:31 GMT 45.28390 6.71520 36,000 354 423 -64
2017-11-20 13:16:26 GMT 45.27652 6.71633 36,000 354 423 -64
2017-11-20 13:16:24 GMT 45.27186 6.71707 36,000 354 423 -64
2017-11-20 13:16:22 GMT 45.26721 6.71781 36,000 354 422 64
2017-11-20 13:16:20 GMT 45.26409 6.71827 36,000 354 422 0
2017-11-20 13:16:16 GMT 45.25785 6.71921 36,000 354 422 0
2017-11-20 13:16:13 GMT 45.25205 6.72010 36,000 354 422 64
2017-11-20 13:16:10 GMT 45.24431 6.72134 36,000 354 421 64
2017-11-20 13:16:07 GMT 45.23849 6.72223 36,000 354 421 64
2017-11-20 13:16:03 GMT 45.23112 6.72337 36,000 354 421 64
2017-11-20 13:16:01 GMT 45.22728 6.72403 36,000 354 421 64
2017-11-20 13:15:59 GMT 45.22457 6.72444 36,000 354 421 64
2017-11-20 13:15:55 GMT 45.21410 6.72605 36,000 354 420 0
2017-11-20 13:15:53 GMT 45.21218 6.72638 36,000 354 420 0
2017-11-20 13:15:49 GMT 45.20446 6.72759 36,000 354 421 0
2017-11-20 13:15:44 GMT 45.19440 6.72913 35,975 354 421 0
2017-11-20 13:15:39 GMT 45.18549 6.73057 36,000 354 421 0
2017-11-20 13:15:35 GMT 45.17815 6.73174 36,000 354 421 -64
2017-11-20 13:15:33 GMT 45.17424 6.73234 36,000 354 422 -64
2017-11-20 13:15:29 GMT 45.16493 6.73381 36,000 354 422 -64
2017-11-20 13:15:27 GMT 45.16223 6.73423 36,000 354 422 -64
2017-11-20 13:15:25 GMT 45.15834 6.73488 36,000 354 422 -64
2017-11-20 13:15:23 GMT 45.15372 6.73560 36,000 354 422 -64
2017-11-20 13:15:19 GMT 45.14711 6.73663 36,000 354 422 -64
2017-11-20 13:15:14 GMT 45.13468 6.73857 36,000 354 422 -64
2017-11-20 13:15:12 GMT 45.13348 6.73874 36,000 354 422 -64
2017-11-20 13:15:08 GMT 45.12457 6.74018 36,000 354 422 0
2017-11-20 13:15:04 GMT 45.11834 6.74112 36,000 354 422 0
2017-11-20 13:15:02 GMT 45.11330 6.74188 36,000 354 422 0
2017-11-20 13:14:58 GMT 45.10634 6.74299 36,000 354 421 64
2017-11-20 13:14:58 GMT 45.10634 6.74299 36,000 354 421 64
2017-11-20 13:14:54 GMT 45.09897 6.74406 36,000 354 421 64
2017-11-20 13:14:51 GMT 45.09278 6.74507 36,000 354 421 64
2017-11-20 13:14:48 GMT 45.08620 6.74606 36,000 354 420 64
2017-11-20 13:14:44 GMT 45.07924 6.74711 36,000 354 420 64
2017-11-20 13:14:41 GMT 45.07379 6.74796 36,000 354 420 64
2017-11-20 13:14:37 GMT 45.06610 6.74914 36,000 354 420 64
2017-11-20 13:14:33 GMT 45.05796 6.75043 36,000 354 420 0
2017-11-20 13:14:31 GMT 45.05452 6.75097 36,000 354 420 0
2017-11-20 13:14:29 GMT 45.04985 6.75169 36,000 354 420 0
2017-11-20 13:14:27 GMT 45.04601 6.75228 36,000 354 420 0
2017-11-20 13:14:23 GMT 45.03869 6.75344 36,000 354 420 0
2017-11-20 13:14:21 GMT 45.03403 6.75418 36,000 354 420 0
2017-11-20 13:14:16 GMT 45.02513 6.75554 36,000 354 421 0
2017-11-20 13:14:12 GMT 45.01740 6.75679 36,000 354 421 0
2017-11-20 13:14:10 GMT 45.01392 6.75733 36,000 354 421 0
2017-11-20 13:14:05 GMT 45.00426 6.75882 36,000 354 422 0
2017-11-20 13:14:03 GMT 44.99995 6.75954 36,000 354 422 0
2017-11-20 13:14:00 GMT 44.99376 6.76048 36,000 354 422 0
2017-11-20 13:13:57 GMT 44.98599 6.76168 36,000 354 422 0
2017-11-20 13:13:55 GMT 44.98485 6.76182 36,000 354 422 0
2017-11-20 13:13:52 GMT 44.97668 6.76309 36,000 354 422 0
2017-11-20 13:13:49 GMT 44.97240 6.76379 36,000 354 422 0
2017-11-20 13:13:44 GMT 44.96346 6.76517 36,000 354 423 0
2017-11-20 13:13:42 GMT 44.95921 6.76581 36,000 354 423 0
2017-11-20 13:13:39 GMT 44.95336 6.76671 36,000 354 423 0
2017-11-20 13:13:35 GMT 44.94443 6.76810 36,000 354 423 0
2017-11-20 13:13:32 GMT 44.93976 6.76882 36,000 354 423 0
2017-11-20 13:13:28 GMT 44.93082 6.77019 36,000 354 423 0
2017-11-20 13:13:24 GMT 44.92379 6.77126 36,000 354 423 0
2017-11-20 13:13:21 GMT 44.91602 6.77240 36,000 354 423 0
2017-11-20 13:13:18 GMT 44.91174 6.77307 36,000 354 423 0
2017-11-20 13:13:16 GMT 44.90863 6.77359 36,000 354 423 0
2017-11-20 13:13:12 GMT 44.90012 6.77490 36,000 354 422 0
2017-11-20 13:13:10 GMT 44.89623 6.77549 36,000 354 422 0
2017-11-20 13:13:08 GMT 44.89233 6.77614 36,000 354 423 0
2017-11-20 13:13:04 GMT 44.88339 6.77756 36,000 354 423 0
2017-11-20 13:13:02 GMT 44.88027 6.77803 36,000 354 423 0
2017-11-20 13:12:59 GMT 44.87521 6.77883 36,000 354 423 0
2017-11-20 13:12:57 GMT 44.87210 6.77928 36,000 354 423 0
2017-11-20 13:12:52 GMT 44.86006 6.78118 36,000 354 424 -64
2017-11-20 13:12:50 GMT 44.85731 6.78164 36,000 354 424 -64
2017-11-20 13:12:48 GMT 44.85150 6.78252 36,000 354 424 -64
2017-11-20 13:12:44 GMT 44.84642 6.78334 36,000 354 424 -64
2017-11-20 13:12:41 GMT 44.83937 6.78439 36,000 354 425 -64
2017-11-20 13:12:39 GMT 44.83507 6.78506 36,000 354 425 -64
2017-11-20 13:12:37 GMT 44.83154 6.78563 36,000 354 425 -64
2017-11-20 13:12:32 GMT 44.82175 6.78714 36,000 354 426 0
2017-11-20 13:12:30 GMT 44.81942 6.78754 36,000 354 426 0
2017-11-20 13:12:28 GMT 44.81551 6.78814 36,000 354 426 0
2017-11-20 13:12:26 GMT 44.81081 6.78888 36,000 354 426 0
2017-11-20 13:12:21 GMT 44.79945 6.79066 36,000 354 427 0
2017-11-20 13:12:19 GMT 44.79433 6.79143 36,000 354 427 0
2017-11-20 13:12:14 GMT 44.78726 6.79250 36,000 354 427 0
2017-11-20 13:12:10 GMT 44.77821 6.79393 36,000 354 427 64
2017-11-20 13:12:06 GMT 44.77194 6.79485 36,000 354 428 64
2017-11-20 13:12:04 GMT 44.76801 6.79550 36,000 354 428 64
2017-11-20 13:11:58 GMT 44.75459 6.79753 36,000 354 428 0
2017-11-20 13:11:56 GMT 44.75066 6.79812 36,000 354 428 0
2017-11-20 13:11:54 GMT 44.74871 6.79846 36,000 354 429 0
2017-11-20 13:11:49 GMT 44.73807 6.80008 36,000 354 429 0
2017-11-20 13:11:47 GMT 44.73214 6.80094 36,000 354 429 256
2017-11-20 13:11:43 GMT 44.72664 6.80181 36,000 354 429 64
2017-11-20 13:11:39 GMT 44.71834 6.80302 36,000 354 429 256
2017-11-20 13:11:38 GMT 44.71715 6.80322 36,000 354 429 256
2017-11-20 13:11:35 GMT 44.71124 6.80413 35,975 354 427 2368
2017-11-20 13:11:32 GMT 44.70493 6.80505 35,975 354 429 448
2017-11-20 13:11:29 GMT 44.69820 6.80610 35,925 354 429 704
2017-11-20 13:11:27 GMT 44.69151 6.80708 35,900 354 429 960
2017-11-20 13:11:22 GMT 44.68400 6.80824 35,850 354 429 1280
2017-11-20 13:11:19 GMT 44.67806 6.80917 35,775 354 428 1472
2017-11-20 13:11:17 GMT 44.67412 6.80976 35,750 354 428 1536
2017-11-20 13:11:15 GMT 44.66940 6.81048 35,675 354 428 1536
2017-11-20 13:11:09 GMT 44.65682 6.81244 35,500 354 427 2048
2017-11-20 13:11:07 GMT 44.65288 6.81303 35,425 354 427 2240
2017-11-20 13:11:05 GMT 44.65011 6.81347 35,375 354 427 2240
2017-11-20 13:11:02 GMT 44.64462 6.81427 35,250 354 427 2432
2017-11-20 13:10:57 GMT 44.63635 6.81558 35,075 354 428 2432
2017-11-20 13:10:55 GMT 44.63126 6.81635 34,975 354 428 2560
2017-11-20 13:10:51 GMT 44.62339 6.81762 34,800 354 429 2688
2017-11-20 13:10:48 GMT 44.61745 6.81852 34,675 354 430 2880
2017-11-20 13:10:46 GMT 44.61429 6.81898 34,600 354 430 2880
2017-11-20 13:10:44 GMT 44.60953 6.81970 34,475 354 431 2944
2017-11-20 13:10:42 GMT 44.60519 6.82037 34,375 354 432 3008
2017-11-20 13:10:36 GMT 44.59169 6.82244 34,025 354 434 3072
2017-11-20 13:10:34 GMT 44.58966 6.82277 33,975 354 435 3072
2017-11-20 13:10:25 GMT 44.57167 6.82552 33,500 354 437 3136
2017-11-20 13:10:22 GMT 44.56563 6.82643 33,350 354 438 3136
2017-11-20 13:10:15 GMT 44.55152 6.82861 33,000 354 440 2944
2017-11-20 13:10:13 GMT 44.54787 6.82918 32,900 354 440 2880
2017-11-20 13:10:06 GMT 44.53326 6.83140 32,575 354 441 2368
2017-11-20 13:10:04 GMT 44.52880 6.83209 32,475 354 441 2240
2017-11-20 13:09:55 GMT 44.51176 6.83470 32,200 354 441 1536
2017-11-20 13:09:53 GMT 44.50687 6.83544 32,125 354 438 832
2017-11-20 13:09:45 GMT 44.49028 6.83801 32,000 354 439 0
2017-11-20 13:09:43 GMT 44.48746 6.83839 32,000 354 438 -64
2017-11-20 13:09:35 GMT 44.47014 6.84108 32,000 354 438 -64
2017-11-20 13:09:32 GMT 44.46488 6.84187 32,025 354 438 -64
2017-11-20 13:09:24 GMT 44.44839 6.84442 32,000 354 438 384
2017-11-20 13:09:22 GMT 44.44514 6.84488 32,000 354 438 448
2017-11-20 13:09:19 GMT 44.43830 6.84596 31,975 354 438 832
2017-11-20 13:09:15 GMT 44.42986 6.84723 31,925 354 439 896
2017-11-20 13:09:13 GMT 44.42418 6.84814 31,875 354 440 1216
2017-11-20 13:09:11 GMT 44.42340 6.84828 31,875 354 440 1216
2017-11-20 13:09:04 GMT 44.40921 6.85044 31,725 354 443 1600
2017-11-20 13:09:02 GMT 44.40348 6.85125 31,650 354 444 1664
2017-11-20 13:08:59 GMT 44.39900 6.85194 31,600 354 445 1728
2017-11-20 13:08:53 GMT 44.38504 6.85410 31,400 354 448 1984
2017-11-20 13:08:51 GMT 44.38048 6.85480 31,325 354 449 2240
2017-11-20 13:08:48 GMT 44.37511 6.85560 31,225 354 449 2240
2017-11-20 13:08:40 GMT 44.35818 6.85808 30,900 354 450 3136
2017-11-20 13:08:34 GMT 44.34575 6.85996 30,550 354 451 3200
2017-11-20 13:08:31 GMT 44.33954 6.86090 30,375 354 452 2944
2017-11-20 13:08:29 GMT 44.33620 6.86135 30,300 354 452 2816
2017-11-20 13:08:20 GMT 44.31789 6.86404 29,950 355 451 1728
2017-11-20 13:08:20 GMT 44.31706 6.86417 29,925 355 450 1664
2017-11-20 13:08:17 GMT 44.31125 6.86502 29,850 355 450 1600
2017-11-20 13:08:10 GMT 44.29642 6.86717 29,675 355 446 1664
2017-11-20 13:08:07 GMT 44.29069 6.86803 29,600 355 445 1856
2017-11-20 13:07:59 GMT 44.27518 6.87025 29,300 354 442 2944
2017-11-20 13:07:57 GMT 44.27110 6.87084 29,225 354 442 2944
2017-11-20 13:07:48 GMT 44.25243 6.87365 28,750 354 441 2304
2017-11-20 13:07:46 GMT 44.24835 6.87424 28,675 354 441 2176
2017-11-20 13:07:38 GMT 44.23054 6.87698 28,425 354 438 1600
2017-11-20 13:07:36 GMT 44.22770 6.87744 28,375 354 437 1664
2017-11-20 13:07:31 GMT 44.21846 6.87888 28,250 354 435 2048
2017-11-20 13:07:26 GMT 44.20689 6.88059 28,025 354 432 2688
2017-11-20 13:07:19 GMT 44.19176 6.88287 27,700 354 431 2432
2017-11-20 13:07:14 GMT 44.18385 6.88405 27,525 353 431 2240
2017-11-20 13:07:08 GMT 44.16934 6.88709 27,200 349 429 2496
2017-11-20 13:07:04 GMT 44.16425 6.88843 27,100 349 428 2560
2017-11-20 13:06:56 GMT 44.14963 6.89300 26,725 346 427 2688
2017-11-20 13:06:54 GMT 44.14428 6.89497 26,575 345 427 2560
2017-11-20 13:06:52 GMT 44.14046 6.89647 26,500 344 426 2496
2017-11-20 13:06:48 GMT 44.13180 6.90024 26,300 342 425 2240
2017-11-20 13:06:46 GMT 44.12998 6.90111 26,250 341 425 2240
2017-11-20 13:06:43 GMT 44.12443 6.90382 26,125 340 424 2304
2017-11-20 13:06:36 GMT 44.11174 6.91086 25,800 336 422 2432
2017-11-20 13:06:34 GMT 44.10815 6.91308 25,700 336 421 2432
2017-11-20 13:06:32 GMT 44.10531 6.91485 25,650 336 420 2432
2017-11-20 13:06:27 GMT 44.09436 6.92190 25,400 336 418 2112
2017-11-20 13:06:24 GMT 44.09121 6.92387 25,325 336 417 1984
2017-11-20 13:06:22 GMT 44.08627 6.92701 25,225 336 417 1920
2017-11-20 13:06:14 GMT 44.07271 6.93569 24,975 336 411 2368
2017-11-20 13:06:11 GMT 44.06751 6.93904 24,875 336 410 2688
2017-11-20 13:06:11 GMT 44.06751 6.93904 24,875 336 410 2688
2017-11-20 13:06:04 GMT 44.05508 6.94689 24,500 336 408 3648
2017-11-20 13:06:01 GMT 44.04996 6.95019 24,325 336 409 3456
2017-11-20 13:06:00 GMT 44.04927 6.95064 24,300 336 408 3648
2017-11-20 13:05:55 GMT 44.03966 6.95677 23,975 336 408 2752
2017-11-20 13:05:53 GMT 44.03691 6.95850 23,900 336 408 2368
2017-11-20 13:05:49 GMT 44.03073 6.96246 23,750 336 407 1856
2017-11-20 13:05:47 GMT 44.02627 6.96527 23,675 336 407 1792
2017-11-20 13:05:44 GMT 44.02185 6.96814 23,625 336 405 1856
2017-11-20 13:05:42 GMT 44.01877 6.97011 23,550 336 404 1984
2017-11-20 13:05:39 GMT 44.01302 6.97376 23,450 336 404 2112
2017-11-20 13:05:39 GMT 44.01197 6.97442 23,425 336 404 2176
2017-11-20 13:05:34 GMT 44.00418 6.97938 23,250 336 404 2368
2017-11-20 13:05:32 GMT 44.00143 6.98111 23,200 336 404 2432
2017-11-20 13:05:29 GMT 43.99603 6.98462 23,075 336 403 2624
2017-11-20 13:05:27 GMT 43.99333 6.98635 23,000 336 403 2752
2017-11-20 13:05:24 GMT 43.98688 6.99044 22,825 336 402 3136
2017-11-20 13:05:22 GMT 43.98349 6.99260 22,725 336 402 3200
2017-11-20 13:05:18 GMT 43.97809 6.99607 22,550 336 401 3456
2017-11-20 13:05:14 GMT 43.96903 7.00193 22,225 336 401 3264
2017-11-20 13:05:11 GMT 43.96632 7.00366 22,150 336 401 3200
2017-11-20 13:05:07 GMT 43.95960 7.00800 21,950 336 399 3264
2017-11-20 13:05:03 GMT 43.95188 7.01294 21,700 336 398 3328
2017-11-20 13:05:01 GMT 43.94884 7.01483 21,600 336 398 3392
2017-11-20 13:04:57 GMT 43.94182 7.01935 21,375 336 397 3392
2017-11-20 13:04:56 GMT 43.94117 7.01981 21,325 336 397 3392
2017-11-20 13:04:53 GMT 43.93447 7.02406 21,125 336 397 3328
2017-11-20 13:04:49 GMT 43.92781 7.02831 20,900 336 395 3328
2017-11-20 13:04:46 GMT 43.92446 7.03040 20,775 336 395 3328
2017-11-20 13:04:46 GMT 43.92446 7.03040 20,775 336 395 3328
2017-11-20 13:04:43 GMT 43.91684 7.03527 20,550 336 395 3328
2017-11-20 13:04:40 GMT 43.91419 7.03700 20,450 336 394 3328
2017-11-20 13:04:38 GMT 43.90854 7.04060 20,250 336 393 3328
2017-11-20 13:04:36 GMT 43.90723 7.04145 20,200 336 393 3328
2017-11-20 13:04:32 GMT 43.89997 7.04603 19,975 336 391 3328
2017-11-20 13:04:29 GMT 43.89536 7.04897 19,800 336 390 3328
2017-11-20 13:04:26 GMT 43.89043 7.05214 19,650 336 389 3328
2017-11-20 13:04:21 GMT 43.88255 7.05712 19,375 336 388 3328
2017-11-20 13:04:18 GMT 43.87601 7.06127 19,175 336 387 3456
2017-11-20 13:04:14 GMT 43.87116 7.06434 19,000 336 386 3584
2017-11-20 13:04:11 GMT 43.86626 7.06747 18,825 336 385 3840
2017-11-20 13:04:08 GMT 43.85980 7.07155 18,575 336 384 4032
2017-11-20 13:04:04 GMT 43.85527 7.07443 18,375 336 383 4032
2017-11-20 13:04:01 GMT 43.84914 7.07833 18,125 336 383 3968
2017-11-20 13:03:58 GMT 43.84462 7.08121 17,950 336 383 3840
2017-11-20 13:03:53 GMT 43.83750 7.08572 17,675 336 383 3840
2017-11-20 13:03:51 GMT 43.83303 7.08860 17,475 336 382 3840
2017-11-20 13:03:47 GMT 43.82758 7.09206 17,275 336 381 3840
2017-11-20 13:03:42 GMT 43.81958 7.09723 16,950 335 379 3840
2017-11-20 13:03:40 GMT 43.81609 7.09947 16,800 335 379 3904
2017-11-20 13:03:38 GMT 43.81096 7.10279 16,600 335 378 3904
2017-11-20 13:03:30 GMT 43.79956 7.11013 16,150 335 376 3776
2017-11-20 13:03:27 GMT 43.79517 7.11301 15,975 335 375 3712
2017-11-20 13:03:22 GMT 43.78731 7.11809 15,675 335 373 3776
2017-11-20 13:03:19 GMT 43.78294 7.12091 15,525 336 372 3776
2017-11-20 13:03:17 GMT 43.77947 7.12310 15,375 335 370 3904
2017-11-20 13:03:14 GMT 43.77479 7.12607 15,200 336 369 3968
2017-11-20 13:03:12 GMT 43.77172 7.12810 15,050 336 369 3968
2017-11-20 13:03:09 GMT 43.76706 7.13108 14,875 336 368 3968
2017-11-20 13:03:06 GMT 43.76241 7.13405 14,675 336 367 3904
2017-11-20 13:03:02 GMT 43.75626 7.13804 14,425 336 366 3840
2017-11-20 13:02:59 GMT 43.75099 7.14137 14,225 336 365 3712
2017-11-20 13:02:56 GMT 43.74700 7.14386 14,050 336 364 3648
2017-11-20 13:02:52 GMT 43.74184 7.14718 13,850 336 361 3712
2017-11-20 13:02:46 GMT 43.73149 7.15370 13,425 336 359 4288
2017-11-20 13:02:43 GMT 43.72754 7.15615 13,250 336 358 4480
2017-11-20 13:02:38 GMT 43.71941 7.16136 12,850 336 357 4224
2017-11-20 13:02:35 GMT 43.71584 7.16366 12,675 336 357 4032
2017-11-20 13:02:32 GMT 43.71162 7.16628 12,500 336 355 3648
2017-11-20 13:02:27 GMT 43.70417 7.17106 12,200 336 353 3008
2017-11-20 13:02:25 GMT 43.70059 7.17329 12,075 336 350 2624
2017-11-20 13:02:23 GMT 43.69675 7.17573 11,975 336 348 2368
2017-11-20 13:02:17 GMT 43.68855 7.18091 11,750 336 342 1856
2017-11-20 13:02:14 GMT 43.68512 7.18302 11,700 336 337 1728
2017-11-20 13:02:12 GMT 43.68197 7.18499 11,625 336 333 1664
2017-11-20 13:02:06 GMT 43.67298 7.19055 11,450 337 325 1536
2017-11-20 13:02:04 GMT 43.67023 7.19219 11,400 337 321 1472
2017-11-20 13:02:02 GMT 43.66754 7.19389 11,350 337 319 1472
2017-11-20 13:01:56 GMT 43.65999 7.19840 11,225 337 309 1472
2017-11-20 13:01:53 GMT 43.65580 7.20088 11,150 337 305 1472
2017-11-20 13:01:51 GMT 43.65376 7.20213 11,125 337 301 1472
2017-11-20 13:01:48 GMT 43.64910 7.20487 11,025 338 283 1472
2017-11-20 13:01:45 GMT 43.64635 7.20652 10,975 338 292 1472
2017-11-20 13:01:43 GMT 43.64333 7.20824 10,925 338 289 1472
2017-11-20 13:01:41 GMT 43.64109 7.20952 10,875 338 286 1472
2017-11-20 13:01:36 GMT 43.63358 7.21387 10,750 338 277 1664
2017-11-20 13:01:31 GMT 43.62840 7.21680 10,625 338 270 2688
2017-11-20 13:01:25 GMT 43.62126 7.22089 10,325 338 268 3648
2017-11-20 13:01:21 GMT 43.61712 7.22325 10,100 337 268 3712
2017-11-20 13:01:13 GMT 43.60800 7.22874 9,600 336 270 3776
2017-11-20 13:01:10 GMT 43.60501 7.23054 9,450 336 270 3712
2017-11-20 13:01:04 GMT 43.59789 7.23496 9,075 337 270 3392
2017-11-20 13:01:01 GMT 43.59375 7.23744 8,875 337 270 3200
2017-11-20 13:00:54 GMT 43.58598 7.24208 8,525 334 270 2752
2017-11-20 13:00:50 GMT 43.58221 7.24472 8,350 328 269 2176
2017-11-20 13:00:44 GMT 43.57494 7.25181 7,975 315 268 2048
2017-11-20 13:00:40 GMT 43.57206 7.25601 7,800 306 267 2304
2017-11-20 13:00:33 GMT 43.56757 7.26618 7,450 290 268 2112
2017-11-20 13:00:29 GMT 43.56619 7.27171 7,300 283 268 1984
2017-11-20 13:00:23 GMT 43.56498 7.28387 7,050 268 267 1536
2017-11-20 13:00:19 GMT 43.56519 7.28898 6,950 262 266 1728
2017-11-20 13:00:12 GMT 43.56724 7.30073 6,775 245 260 1280
2017-11-20 13:00:09 GMT 43.56862 7.30495 6,725 241 257 1344
2017-11-20 13:00:02 GMT 43.57345 7.31493 6,575 225 248 1856
2017-11-20 12:59:59 GMT 43.57573 7.31807 6,525 219 245 1856
2017-11-20 12:59:52 GMT 43.58286 7.32494 6,325 205 238 2176
2017-11-20 12:59:48 GMT 43.58626 7.32716 6,225 200 237 2752
2017-11-20 12:59:40 GMT 43.59468 7.32984 5,925 181 233 2944
2017-11-20 12:59:38 GMT 43.59640 7.32991 5,875 178 232 2944
2017-11-20 12:59:31 GMT 43.60478 7.32860 5,575 163 227 3328
2017-11-20 12:59:28 GMT 43.60739 7.32756 5,475 160 226 3456
2017-11-20 12:59:18 GMT 43.61651 7.32147 4,925 146 225 4608
2017-11-20 12:59:08 GMT 43.62506 7.31249 4,275 140 230 2624
2017-11-20 12:58:59 GMT 43.63211 7.30447 3,925 140 222 2304
2017-11-20 12:58:57 GMT 43.63337 7.30303 3,850 140 222 2304
2017-11-20 12:58:47 GMT 43.64156 7.29368 3,375 140 218 3072
2017-11-20 12:58:37 GMT 43.64914 7.28508 2,925 140 213 2240
2017-11-20 12:58:27 GMT 43.65673 7.27628 2,550 139 203 2112
2017-11-20 12:58:17 GMT 43.66383 7.26765 2,175 137 195 2432
2017-11-20 12:58:07 GMT 43.67042 7.25837 1,800 124 186 1856
2017-11-20 12:57:56 GMT 43.67415 7.24738 1,400 92 181 2560
2017-11-20 12:57:46 GMT 43.67322 7.23641 900 58 178 2816
2017-11-20 12:57:35 GMT 43.66823 7.22672 325 45 175 3072
2017-11-20 12:57:25 GMT 43.66232 7.21847 -100 44 163 384
2017-11-20 12:57:15 GMT 43.65739 7.21171 0 45 125 0
2017-11-20 12:57:15 GMT 43.65739 7.21171 0 45 125 0
2017-11-20 12:57:04 GMT 43.65378 7.20677 0 45 65 0
2017-11-20 12:56:54 GMT 43.65239 7.20484 0 45 10 0
2017-11-20 12:56:44 GMT 43.65225 7.20466 0 36 0 0
2017-11-20 12:56:33 GMT 43.65222 7.20463 0 36 3 0
2017-11-20 12:56:23 GMT 43.65200 7.20443 0 70 8 0
2017-11-20 12:56:12 GMT 43.65214 7.20388 0 132 12 0
2017-11-20 12:56:03 GMT 43.65251 7.20334 0 135 12 0
2017-11-20 12:55:52 GMT 43.65288 7.20288 0 154 10 0
2017-11-20 12:55:42 GMT 43.65329 7.20289 0 219 9 0
2017-11-20 12:55:31 GMT 43.65360 7.20328 0 225 10 0
2017-11-20 12:55:22 GMT 43.65390 7.20369 0 225 13 0
2017-11-20 12:55:15 GMT 43.65418 7.20407 0 225 15 0
2017-11-20 12:55:11 GMT 43.65439 7.20437 0 225 14 0
2017-11-20 12:55:02 GMT 43.65476 7.20487 0 225 12 0
2017-11-20 12:54:59 GMT 43.65485 7.20499 0 225 12 0
2017-11-20 12:54:50 GMT 43.65521 7.20551 0 225 15 0
2017-11-20 12:54:41 GMT 43.65562 7.20609 0 225 18 0
2017-11-20 12:54:33 GMT 43.65615 7.20679 0 225 16 0
2017-11-20 12:54:31 GMT 43.65620 7.20686 0 225 16 0
2017-11-20 12:54:27 GMT 43.65641 7.20716 0 225 17 0
2017-11-20 12:54:21 GMT 43.65675 7.20762 0 225 18 0
2017-11-20 12:54:13 GMT 43.65719 7.20822 0 225 19 0
2017-11-20 12:54:10 GMT 43.65739 7.20852 0 225 18 0
2017-11-20 12:54:04 GMT 43.65772 7.20898 0 225 18 0
2017-11-20 12:54:00 GMT 43.65796 7.20929 0 225 21 0
2017-11-20 12:53:58 GMT 43.65810 7.20949 0 225 22 0
2017-11-20 12:53:50 GMT 43.65868 7.21027 0 225 23 0
2017-11-20 12:53:48 GMT 43.65890 7.21058 0 225 23 0
2017-11-20 12:53:40 GMT 43.65945 7.21134 0 225 22 0
2017-11-20 12:53:37 GMT 43.65964 7.21161 0 225 21 0
2017-11-20 12:53:30 GMT 43.66011 7.21226 0 225 20 0
2017-11-20 12:53:26 GMT 43.66038 7.21261 0 225 19 0
2017-11-20 12:53:20 GMT 43.66080 7.21319 0 225 18 0
2017-11-20 12:53:16 GMT 43.66096 7.21341 0 225 18 0
2017-11-20 12:53:09 GMT 43.66135 7.21395 0 225 17 0
2017-11-20 12:53:02 GMT 43.66172 7.21445 0 225 16 0
2017-11-20 12:52:59 GMT 43.66188 7.21467 0 225 15 0
2017-11-20 12:52:48 GMT 43.66235 7.21532 0 225 13 0
2017-11-20 12:52:39 GMT 43.66273 7.21591 0 219 13 0
2017-11-20 12:52:28 GMT 43.66326 7.21604 0 135 11 0
2017-11-20 12:52:23 GMT 43.66342 7.21581 0 129 12 0
2017-11-20 12:52:13 GMT 43.66381 7.21533 0 174 11 0
2017-11-20 12:52:06 GMT 43.66414 7.21540 0 222 12 0
2017-11-20 12:52:02 GMT 43.66428 7.21557 0 225 12 0
2017-11-20 12:51:52 GMT 43.66467 7.21612 0 225 13 0
2017-11-20 12:51:46 GMT 43.66493 7.21647 0 225 13 0
2017-11-20 12:51:43 GMT 43.66509 7.21668 0 225 13 0
2017-11-20 12:51:36 GMT 43.66532 7.21700 0 225 11 0
2017-11-20 12:51:32 GMT 43.66550 7.21723 0 225 10 0
2017-11-20 12:51:27 GMT 43.66566 7.21748 0 225 9 0
2017-11-20 12:51:22 GMT 43.66579 7.21764 0 225 8 0
2017-11-20 12:50:52 GMT 43.66622 7.21826 0 0 2 0
2017-11-20 12:47:47 GMT 43.66623 7.21826 0 0 1 0
2017-11-20 12:47:43 GMT 43.66622 7.21825 0 0 1 0
2017-11-20 12:47:40 GMT 43.66620 7.21823 0 0 1 0
2017-11-20 12:47:30 GMT 43.66617 7.21818 0 0 1 0
2017-11-20 12:47:23 GMT 43.66616 7.21815 0 0 2 0
2017-11-20 12:47:20 GMT 43.66616 7.21811 0 0 2 0
2017-11-20 12:47:13 GMT 43.66615 7.21807 0 0 2 0
2017-11-20 12:47:10 GMT 43.66614 7.21803 0 0 2 0
2017-11-20 12:47:00 GMT 43.66613 7.21791 0 0 3 0
2017-11-20 12:46:48 GMT 43.66613 7.21777 0 0 2 0
We lost coverage of the aircraft here for a total of 224 minutes
2017-11-20 09:02:28 GMT 43.66612 7.21692 0 225 6 0
2017-11-20 09:02:18 GMT 43.66611 7.21725 0 272 8 0
2017-11-20 09:02:11 GMT 43.66608 7.21754 0 225 6 0
2017-11-20 09:02:08 GMT 43.66605 7.21766 0 225 5 0
2017-11-20 09:02:02 GMT 43.66601 7.21779 0 225 5 0
2017-11-20 09:01:51 GMT 43.66601 7.21792 0 225 4 0
2017-11-20 09:01:41 GMT 43.66601 7.21794 0 225 4 0
2017-11-20 09:01:26 GMT 43.66601 7.21794 0 225 4 0
2017-11-20 09:01:21 GMT 43.66601 7.21794 0 225 4 0
2017-11-20 09:01:16 GMT 43.66601 7.21794 0 225 4 0
2017-11-20 09:01:11 GMT 43.66601 7.21794 0 225 4 0
2017-11-20 09:01:01 GMT 43.66601 7.21794 0 225 4 0
2017-11-20 09:00:57 GMT 43.66601 7.21794 0 225 4 0
2017-11-20 09:00:47 GMT 43.66601 7.21794 0 225 4 0
2017-11-20 09:00:26 GMT 43.66601 7.21794 0 225 4 0
2017-11-20 09:00:17 GMT 43.66601 7.21794 0 225 4 0
2017-11-20 09:00:11 GMT 43.66601 7.21794 0 225 4 0
2017-11-20 09:00:06 GMT 43.66601 7.21794 0 225 4 0
2017-11-20 09:00:01 GMT 43.66601 7.21794 0 225 4 0
2017-11-20 08:59:56 GMT 43.66601 7.21794 0 225 4 0
2017-11-20 08:59:51 GMT 43.66601 7.21794 0 225 4 0
2017-11-20 08:59:41 GMT 43.66601 7.21794 0 225 4 0
2017-11-20 08:59:37 GMT 43.66601 7.21794 0 225 4 0
2017-11-20 08:59:27 GMT 43.66601 7.21794 0 225 4 0
2017-11-20 08:59:17 GMT 43.66601 7.21794 0 225 4 0
2017-11-20 08:59:13 GMT 43.66601 7.21794 0 225 4 0
2017-11-20 08:59:08 GMT 43.66601 7.21794 0 225 4 0
2017-11-20 08:58:57 GMT 43.66601 7.21794 0 225 4 0
2017-11-20 08:58:52 GMT 43.66601 7.21794 0 225 4 0
2017-11-20 08:58:47 GMT 43.66601 7.21794 0 225 4 0
2017-11-20 08:58:42 GMT 43.66601 7.21794 0 225 4 0
2017-11-20 08:58:37 GMT 43.66601 7.21794 0 225 4 0
2017-11-20 08:58:27 GMT 43.66601 7.21794 0 225 4 0
2017-11-20 08:58:13 GMT 43.66601 7.21794 0 225 4 0
2017-11-20 08:58:07 GMT 43.66601 7.21794 0 225 4 0
2017-11-20 08:58:02 GMT 43.66601 7.21794 0 225 4 0
2017-11-20 08:57:57 GMT 43.66601 7.21794 0 225 4 0
2017-11-20 08:57:52 GMT 43.66601 7.21794 0 225 4 0
2017-11-20 08:57:48 GMT 43.66601 7.21794 0 225 4 0
2017-11-20 08:57:38 GMT 43.66601 7.21794 0 225 4 0
2017-11-20 08:57:36 GMT 43.66601 7.21794 0 225 4 0
2017-11-20 08:57:30 GMT 43.66601 7.21794 0 225 4 0
2017-11-20 08:57:25 GMT 43.66601 7.21794 0 225 4 0
2017-11-20 08:57:19 GMT 43.66601 7.21794 0 225 4 0
2017-11-20 08:57:15 GMT 43.66601 7.21794 0 225 4 0
2017-11-20 08:57:08 GMT 43.66602 7.21795 0 225 5 0
2017-11-20 08:57:05 GMT 43.66605 7.21799 0 225 7 0
2017-11-20 08:56:55 GMT 43.66627 7.21832 0 233 8 0
2017-11-20 08:56:45 GMT 43.66644 7.21870 0 267 8 0
2017-11-20 08:56:34 GMT 43.66636 7.21915 0 312 8 0
2017-11-20 08:56:22 GMT 43.66604 7.21960 0 315 8 0
2017-11-20 08:56:12 GMT 43.66584 7.21989 0 317 3 0
2017-11-20 08:56:00 GMT 43.66577 7.22000 0 317 3 0
2017-11-20 08:55:29 GMT 43.66575 7.22003 0 317 4 0
2017-11-20 08:54:54 GMT 43.66575 7.22003 0 317 4 0
2017-11-20 08:54:24 GMT 43.66575 7.22003 0 317 4 0
2017-11-20 08:53:54 GMT 43.66575 7.22003 0 317 4 0
2017-11-20 08:53:15 GMT 43.66575 7.22003 0 317 4 0
2017-11-20 08:52:59 GMT 43.66574 7.22003 0 317 4 0
2017-11-20 08:52:29 GMT 43.66575 7.22003 0 317 4 0
2017-11-20 08:52:19 GMT 43.66574 7.22003 0 317 3 0
2017-11-20 08:51:40 GMT 43.66575 7.22003 0 317 3 0
2017-11-20 08:51:30 GMT 43.66568 7.22013 0 317 5 0
2017-11-20 08:51:25 GMT 43.66557 7.22027 0 317 8 0
2017-11-20 08:51:19 GMT 43.66541 7.22046 0 331 9 0
2017-11-20 08:51:14 GMT 43.66519 7.22059 0 5 12 0
2017-11-20 08:51:10 GMT 43.66497 7.22055 0 16 14 0
2017-11-20 08:51:04 GMT 43.66467 7.22042 0 19 16 0
2017-11-20 08:50:54 GMT 43.66388 7.22006 0 25 23 0
2017-11-20 08:50:45 GMT 43.66298 7.21931 0 39 22 0
2017-11-20 08:50:39 GMT 43.66247 7.21870 0 45 30 0
2017-11-20 08:50:34 GMT 43.66208 7.21819 0 45 45 0
2017-11-20 08:50:27 GMT 43.66078 7.21638 0 45 84 0
2017-11-20 08:50:23 GMT 43.65976 7.21497 0 45 98 0
2017-11-20 08:50:14 GMT 43.65628 7.21018 0 45 140 0
2017-11-20 08:50:06 GMT 43.65312 7.20582 -200 44 146 -576
2017-11-20 08:50:03 GMT 43.65129 7.20337 -125 45 147 -576
2017-11-20 08:49:57 GMT 43.64822 7.19912 -50 45 148 -832
2017-11-20 08:49:52 GMT 43.64639 7.19662 0 45 149 -832
2017-11-20 08:49:42 GMT 43.64100 7.18918 150 44 150 -768
2017-11-20 08:49:35 GMT 43.63792 7.18499 250 45 151 -832
2017-11-20 08:49:32 GMT 43.63625 7.18264 300 45 151 -832
2017-11-20 08:49:25 GMT 43.63257 7.17765 400 44 150 -832
2017-11-20 08:49:22 GMT 43.63119 7.17580 450 44 150 -832
2017-11-20 08:49:11 GMT 43.62615 7.16884 575 45 150 -832
2017-11-20 08:49:04 GMT 43.62268 7.16411 675 45 149 -896
2017-11-20 08:49:00 GMT 43.62076 7.16143 725 45 150 -896
2017-11-20 08:48:53 GMT 43.61693 7.15609 850 45 151 -832
2017-11-20 08:48:51 GMT 43.61591 7.15472 875 45 150 -832
2017-11-20 08:48:43 GMT 43.61237 7.14981 975 45 152 -896
2017-11-20 08:48:39 GMT 43.61028 7.14693 1,025 45 152 -896
2017-11-20 08:48:34 GMT 43.60716 7.14268 1,125 44 154 -832
2017-11-20 08:48:30 GMT 43.60565 7.14060 1,175 44 156 -832
2017-11-20 08:48:23 GMT 43.60190 7.13549 1,250 45 164 -832
2017-11-20 08:48:20 GMT 43.60020 7.13313 1,300 45 166 -832
2017-11-20 08:48:12 GMT 43.59608 7.12751 1,425 45 173 -1024
2017-11-20 08:48:09 GMT 43.59450 7.12529 1,475 45 174 -896
2017-11-20 08:47:59 GMT 43.58839 7.11691 1,625 44 180 -960
2017-11-20 08:47:49 GMT 43.58230 7.10855 1,800 44 185 -960
2017-11-20 08:47:47 GMT 43.58109 7.10691 1,825 44 187 -960
2017-11-20 08:47:36 GMT 43.57452 7.09793 2,025 44 191 -1088
2017-11-20 08:47:28 GMT 43.56931 7.09082 2,150 45 195 -1088
2017-11-20 08:47:26 GMT 43.56805 7.08906 2,175 45 195 -1152
2017-11-20 08:47:16 GMT 43.56148 7.08011 2,375 45 195 -1088
2017-11-20 08:47:07 GMT 43.55572 7.07225 2,550 45 195 -1088
2017-11-20 08:47:05 GMT 43.55139 7.06630 2,675 44 194 -960
2017-11-20 08:46:57 GMT 43.54944 7.06363 2,725 44 194 -960
2017-11-20 08:46:46 GMT 43.54230 7.05386 2,825 45 193 -64
2017-11-20 08:46:39 GMT 43.53772 7.04754 2,825 45 193 0
2017-11-20 08:46:37 GMT 43.53607 7.04531 2,825 45 193 0
2017-11-20 08:46:25 GMT 43.52951 7.03622 2,825 45 193 64
2017-11-20 08:46:16 GMT 43.52325 7.02767 2,800 45 197 0
2017-11-20 08:46:06 GMT 43.51648 7.01828 2,800 44 204 -128
2017-11-20 08:45:55 GMT 43.50938 7.00889 2,825 42 205 -128
2017-11-20 08:45:46 GMT 43.50297 7.00110 2,850 37 208 -256
2017-11-20 08:45:44 GMT 43.50181 6.99973 2,850 37 208 -256
2017-11-20 08:45:34 GMT 43.49324 6.99214 2,850 20 215 -1152
2017-11-20 08:45:24 GMT 43.48333 6.98914 2,950 2 220 -1088
2017-11-20 08:45:13 GMT 43.47262 6.98881 3,075 0 225 -640
2017-11-20 08:45:02 GMT 43.46094 6.98874 3,225 0 227 -960
2017-11-20 08:44:53 GMT 43.45065 6.98871 3,375 0 227 -960
2017-11-20 08:44:42 GMT 43.43989 6.98874 3,525 0 228 -896
2017-11-20 08:44:32 GMT 43.42909 6.98877 3,700 0 229 -1024
2017-11-20 08:44:22 GMT 43.41746 6.98887 3,875 0 228 -1088
2017-11-20 08:44:12 GMT 43.40773 6.98887 4,050 0 228 -1024
2017-11-20 08:44:02 GMT 43.39696 6.98884 4,250 0 226 -1280
2017-11-20 08:43:51 GMT 43.38510 6.98868 4,500 0 224 -1280
2017-11-20 08:43:41 GMT 43.37519 6.98848 4,700 0 222 -1152
2017-11-20 08:43:31 GMT 43.36490 6.98829 4,900 0 222 -960
2017-11-20 08:43:21 GMT 43.35402 6.98813 5,050 0 223 -704
2017-11-20 08:43:10 GMT 43.34358 6.98794 5,150 1 227 -576
2017-11-20 08:43:00 GMT 43.33255 6.98762 5,225 1 234 -512
2017-11-20 08:42:50 GMT 43.32120 6.98724 5,325 0 241 -704
2017-11-20 08:42:38 GMT 43.30902 6.98731 5,425 356 247 -1216
2017-11-20 08:42:29 GMT 43.29777 6.98894 5,600 352 252 -1280
2017-11-20 08:42:19 GMT 43.28571 6.99142 5,825 352 257 -1344
2017-11-20 08:42:08 GMT 43.27328 6.99384 6,050 353 266 -1664
2017-11-20 08:41:58 GMT 43.26048 6.99613 6,425 353 269 -2880
2017-11-20 08:41:47 GMT 43.24745 6.99842 6,950 354 265 -3072
2017-11-20 08:41:37 GMT 43.23528 7.00040 7,425 354 264 -2368
2017-11-20 08:41:27 GMT 43.22282 7.00235 7,800 354 268 -2048
2017-11-20 08:41:16 GMT 43.20868 7.00449 8,125 354 272 -1088
2017-11-20 08:41:05 GMT 43.19604 7.00647 8,275 354 275 -1024
2017-11-20 08:40:55 GMT 43.18337 7.00851 8,450 354 276 -1280
2017-11-20 08:40:45 GMT 43.17036 7.01065 8,650 354 277 -1024
2017-11-20 08:40:34 GMT 43.15622 7.01292 8,850 354 279 -1024
2017-11-20 08:40:32 GMT 43.15315 7.01337 8,875 354 280 -960
2017-11-20 08:40:24 GMT 43.14303 7.01503 9,000 354 283 -896
2017-11-20 08:40:22 GMT 43.14094 7.01536 9,025 353 284 -896
2017-11-20 08:40:14 GMT 43.13022 7.01726 9,125 353 287 -896
2017-11-20 08:40:11 GMT 43.12623 7.01791 9,175 353 288 -832
2017-11-20 08:40:04 GMT 43.11639 7.01969 9,275 353 292 -960
2017-11-20 08:40:01 GMT 43.11291 7.02026 9,300 353 293 -960
2017-11-20 08:39:52 GMT 43.10104 7.02236 9,425 353 297 -576
2017-11-20 08:39:43 GMT 43.08810 7.02461 9,475 353 304 -256
2017-11-20 08:39:33 GMT 43.07346 7.02716 9,525 353 312 -256
2017-11-20 08:39:28 GMT 43.06654 7.02838 9,525 353 316 -256
2017-11-20 08:39:23 GMT 43.05807 7.02981 9,550 353 320 -256
2017-11-20 08:39:16 GMT 43.04887 7.03138 9,575 353 324 -256
2017-11-20 08:39:12 GMT 43.04318 7.03236 9,575 353 329 -256
2017-11-20 08:39:09 GMT 43.03833 7.03321 9,600 353 332 -320
2017-11-20 08:39:02 GMT 43.02759 7.03502 9,625 353 338 -384
2017-11-20 08:38:51 GMT 43.01129 7.03777 9,675 353 346 -448
2017-11-20 08:38:48 GMT 43.00589 7.03871 9,700 353 350 -512
2017-11-20 08:38:40 GMT 42.99390 7.04083 9,750 353 360 -896
2017-11-20 08:38:37 GMT 42.98868 7.04172 9,800 353 358 -768
2017-11-20 08:38:31 GMT 42.97815 7.04364 9,875 353 363 -1152
2017-11-20 08:38:27 GMT 42.97147 7.04486 9,950 353 364 -1472
2017-11-20 08:38:21 GMT 42.96111 7.04675 10,100 353 366 -1984
2017-11-20 08:38:11 GMT 42.94295 7.04995 10,500 353 366 -2304
2017-11-20 08:38:06 GMT 42.93620 7.05113 10,650 353 366 -2304
2017-11-20 08:38:00 GMT 42.92610 7.05296 10,875 353 366 -2240
2017-11-20 08:37:56 GMT 42.91939 7.05414 11,000 353 366 -2240
2017-11-20 08:37:50 GMT 42.90864 7.05610 11,250 353 366 -2240
2017-11-20 08:37:44 GMT 42.90019 7.05769 11,425 353 367 -2176
2017-11-20 08:37:39 GMT 42.89179 7.05924 11,600 353 367 -2240
2017-11-20 08:37:35 GMT 42.88369 7.06074 11,775 353 368 -2240
2017-11-20 08:37:33 GMT 42.88034 7.06140 11,850 353 368 -2240
2017-11-20 08:37:29 GMT 42.87190 7.06293 12,025 353 368 -2240
2017-11-20 08:37:26 GMT 42.86984 7.06332 12,075 353 368 -2240
2017-11-20 08:37:24 GMT 42.86650 7.06389 12,150 353 368 -2240
2017-11-20 08:37:17 GMT 42.85259 7.06630 12,450 353 369 -2176
2017-11-20 08:37:13 GMT 42.84789 7.06715 12,550 353 369 -2112
2017-11-20 08:37:07 GMT 42.83635 7.06918 12,775 353 370 -2048
2017-11-20 08:37:02 GMT 42.82919 7.07041 12,925 353 371 -1984
2017-11-20 08:36:57 GMT 42.81796 7.07245 13,125 353 372 -1984
2017-11-20 08:36:50 GMT 42.80841 7.07417 13,300 353 373 -2048
2017-11-20 08:36:47 GMT 42.80260 7.07519 13,425 353 373 -2048
2017-11-20 08:36:39 GMT 42.78955 7.07757 13,675 353 375 -2240
2017-11-20 08:36:36 GMT 42.78268 7.07882 13,825 353 375 -2240
2017-11-20 08:36:31 GMT 42.77476 7.08024 14,000 353 376 -2240
2017-11-20 08:36:29 GMT 42.77131 7.08082 14,050 353 375 -2240
2017-11-20 08:36:27 GMT 42.76886 7.08125 14,125 353 375 -2240
2017-11-20 08:36:25 GMT 42.76507 7.08190 14,200 353 375 -2176
2017-11-20 08:36:21 GMT 42.75920 7.08294 14,325 353 377 -2112
2017-11-20 08:36:17 GMT 42.75125 7.08427 14,475 353 377 -2112
2017-11-20 08:36:13 GMT 42.74361 7.08561 14,625 353 378 -2112
2017-11-20 08:36:11 GMT 42.74017 7.08625 14,700 353 378 -2112
2017-11-20 08:36:08 GMT 42.73533 7.08708 14,800 353 379 -2176
2017-11-20 08:36:06 GMT 42.73183 7.08765 14,850 353 379 -2112
2017-11-20 08:36:02 GMT 42.72350 7.08918 15,025 353 379 -2176
2017-11-20 08:35:56 GMT 42.71407 7.09086 15,225 353 380 -2240
2017-11-20 08:35:53 GMT 42.71023 7.09155 15,300 353 380 -2240
2017-11-20 08:35:46 GMT 42.69731 7.09380 15,575 353 381 -2048
2017-11-20 08:35:39 GMT 42.68435 7.09608 15,800 353 383 -1984
2017-11-20 08:35:35 GMT 42.67593 7.09755 15,950 354 385 -1984
2017-11-20 08:35:29 GMT 42.66779 7.09885 16,125 354 385 -1984
2017-11-20 08:35:25 GMT 42.66038 7.10004 16,250 354 386 -1984
2017-11-20 08:35:18 GMT 42.64827 7.10196 16,475 354 388 -1856
2017-11-20 08:35:14 GMT 42.64151 7.10297 16,575 354 389 -1792
2017-11-20 08:35:08 GMT 42.62965 7.10483 16,775 353 390 -1856
2017-11-20 08:35:04 GMT 42.62248 7.10605 16,900 353 393 -1920
2017-11-20 08:34:58 GMT 42.61130 7.10803 17,075 353 394 -1920
2017-11-20 08:34:52 GMT 42.60113 7.10978 17,250 353 396 -1792
2017-11-20 08:34:47 GMT 42.59204 7.11141 17,400 353 398 -1856
2017-11-20 08:34:44 GMT 42.58692 7.11231 17,475 353 399 -1920
2017-11-20 08:34:41 GMT 42.58072 7.11340 17,600 353 401 -1984
2017-11-20 08:34:36 GMT 42.57262 7.11477 17,725 353 402 -2112
2017-11-20 08:34:34 GMT 42.56783 7.11563 17,825 353 402 -2176
2017-11-20 08:34:30 GMT 42.56117 7.11678 17,950 353 403 -2624
2017-11-20 08:34:24 GMT 42.54935 7.11876 18,275 353 400 -4160
2017-11-20 08:34:19 GMT 42.54021 7.12033 18,600 353 397 -4864
2017-11-20 08:34:13 GMT 42.52971 7.12214 19,125 353 391 -6208
2017-11-20 08:34:10 GMT 42.52398 7.12317 19,450 353 390 -6336
2017-11-20 08:34:05 GMT 42.51537 7.12470 19,950 353 389 -6272
2017-11-20 08:34:03 GMT 42.51183 7.12527 20,175 353 387 -6144
2017-11-20 08:34:00 GMT 42.50541 7.12642 20,525 353 386 -5888
2017-11-20 08:33:55 GMT 42.49689 7.12789 21,000 353 385 -5440
2017-11-20 08:33:53 GMT 42.49335 7.12853 21,200 353 386 -5312
2017-11-20 08:33:49 GMT 42.48734 7.12963 21,475 353 386 -4928
2017-11-20 08:33:44 GMT 42.47740 7.13144 21,925 353 388 -4608
2017-11-20 08:33:42 GMT 42.47491 7.13192 22,025 353 388 -4608
2017-11-20 08:33:39 GMT 42.46884 7.13300 22,300 353 389 -4992
2017-11-20 08:33:37 GMT 42.46458 7.13375 22,475 353 389 -4416
2017-11-20 08:33:33 GMT 42.45813 7.13487 22,775 353 389 -4544
2017-11-20 08:33:31 GMT 42.45529 7.13537 22,900 353 390 -4288
2017-11-20 08:33:27 GMT 42.44777 7.13671 23,175 353 393 -4096
2017-11-20 08:33:22 GMT 42.43799 7.13843 23,525 353 396 -4288
2017-11-20 08:33:16 GMT 42.42524 7.14067 24,025 354 411 -4096
2017-11-20 08:33:12 GMT 42.42123 7.14130 24,200 353 399 -4608
2017-11-20 08:33:10 GMT 42.41757 7.14192 24,350 353 400 -4544
2017-11-20 08:33:01 GMT 42.39917 7.14511 25,075 353 404 -4288
2017-11-20 08:32:55 GMT 42.38837 7.14693 25,500 354 406 -4224
2017-11-20 08:32:50 GMT 42.37939 7.14839 25,825 354 410 -4096
2017-11-20 08:32:46 GMT 42.37259 7.14942 26,050 354 412 -4160
2017-11-20 08:32:40 GMT 42.36159 7.15104 26,450 354 415 -4352
2017-11-20 08:32:34 GMT 42.34932 7.15279 26,900 354 420 -4544
2017-11-20 08:32:30 GMT 42.33893 7.15427 27,325 354 420 -4608
2017-11-20 08:32:25 GMT 42.33234 7.15516 27,575 354 424 -4992
2017-11-20 08:32:22 GMT 42.32650 7.15600 27,800 354 424 -4992
2017-11-20 08:32:20 GMT 42.32144 7.15678 28,025 354 424 -4992
2017-11-20 08:32:15 GMT 42.31170 7.15823 28,450 354 425 -5376
2017-11-20 08:32:09 GMT 42.30151 7.15976 28,900 354 425 -5632
2017-11-20 08:32:02 GMT 42.28666 7.16187 29,625 355 426 -5760
2017-11-20 08:31:58 GMT 42.27725 7.16315 30,100 355 426 -5632
2017-11-20 08:31:53 GMT 42.26981 7.16415 30,450 355 427 -5184
2017-11-20 08:31:50 GMT 42.26115 7.16533 30,825 355 426 -5312
2017-11-20 08:31:48 GMT 42.25919 7.16558 30,900 355 427 -5120
2017-11-20 08:31:38 GMT 42.24065 7.16821 31,725 354 431 -5504
2017-11-20 08:31:34 GMT 42.23112 7.16958 32,150 354 432 -5504
2017-11-20 08:31:30 GMT 42.22358 7.17069 32,500 354 432 -5440
2017-11-20 08:31:28 GMT 42.22037 7.17113 32,650 354 433 -5184
2017-11-20 08:31:18 GMT 42.20035 7.17394 33,450 354 439 -3136
2017-11-20 08:31:07 GMT 42.17793 7.17713 33,900 354 448 -832
2017-11-20 08:30:57 GMT 42.15771 7.18001 34,000 355 450 0
2017-11-20 08:30:48 GMT 42.13615 7.18302 34,000 355 450 0
2017-11-20 08:30:47 GMT 42.13531 7.18314 34,000 355 450 0
2017-11-20 08:30:36 GMT 42.11297 7.18627 34,000 355 450 0
2017-11-20 08:30:27 GMT 42.09430 7.18887 34,000 355 450 0
2017-11-20 08:30:21 GMT 42.08189 7.19061 34,000 355 450 0
2017-11-20 08:30:17 GMT 42.07317 7.19183 34,000 355 450 0
2017-11-20 08:30:13 GMT 42.06615 7.19280 34,000 355 450 0
2017-11-20 08:30:11 GMT 42.06158 7.19343 34,000 355 450 0
2017-11-20 08:30:07 GMT 42.05161 7.19483 34,000 355 450 0
2017-11-20 08:30:03 GMT 42.04584 7.19566 34,000 355 450 0
2017-11-20 08:30:01 GMT 42.03960 7.19654 34,000 355 450 0
2017-11-20 08:29:56 GMT 42.03131 7.19773 34,000 355 450 0
2017-11-20 08:29:54 GMT 42.02554 7.19854 34,000 355 450 0
2017-11-20 08:29:51 GMT 42.01726 7.19973 34,000 355 450 0
2017-11-20 08:29:46 GMT 42.00897 7.20085 34,000 355 450 0
2017-11-20 08:29:44 GMT 42.00485 7.20141 34,000 355 450 0
2017-11-20 08:29:39 GMT 41.99612 7.20262 34,000 355 450 0
2017-11-20 08:29:36 GMT 41.98705 7.20390 34,000 355 450 0
2017-11-20 08:29:33 GMT 41.98206 7.20460 34,000 355 450 0
2017-11-20 08:29:30 GMT 41.97583 7.20547 34,000 355 450 0
2017-11-20 08:29:24 GMT 41.96343 7.20716 34,000 355 450 0
2017-11-20 08:29:22 GMT 41.95972 7.20767 34,000 355 450 0
2017-11-20 08:29:17 GMT 41.94729 7.20939 34,000 355 450 0
2017-11-20 08:29:14 GMT 41.94394 7.20991 34,000 355 450 0
2017-11-20 08:29:09 GMT 41.93319 7.21138 34,000 355 450 0
2017-11-20 08:29:03 GMT 41.92076 7.21310 34,000 355 450 0
2017-11-20 08:28:58 GMT 41.91079 7.21450 34,000 355 450 0
2017-11-20 08:28:54 GMT 41.90213 7.21571 34,000 355 450 0
2017-11-20 08:28:52 GMT 41.89879 7.21621 34,000 355 450 0
2017-11-20 08:28:45 GMT 41.88430 7.21821 34,000 355 450 0
2017-11-20 08:28:42 GMT 41.87727 7.21920 34,000 355 450 0
2017-11-20 08:28:33 GMT 41.85818 7.22182 34,000 355 451 0
2017-11-20 08:28:29 GMT 41.84948 7.22300 34,000 355 451 0
2017-11-20 08:28:26 GMT 41.84367 7.22383 34,000 355 451 0
2017-11-20 08:28:22 GMT 41.83533 7.22498 34,000 355 452 0
2017-11-20 08:28:19 GMT 41.83035 7.22562 34,000 355 452 0
2017-11-20 08:28:16 GMT 41.82330 7.22657 34,000 355 453 0
2017-11-20 08:28:10 GMT 41.81038 7.22830 34,000 355 453 0
2017-11-20 08:28:00 GMT 41.78952 7.23098 34,000 355 453 0
2017-11-20 08:27:57 GMT 41.78119 7.23201 34,000 355 453 0
2017-11-20 08:27:53 GMT 41.77322 7.23300 34,000 356 453 0
2017-11-20 08:27:49 GMT 41.76654 7.23375 34,000 356 453 0
2017-11-20 08:27:44 GMT 41.75738 7.23481 34,000 356 454 0
2017-11-20 08:27:41 GMT 41.75107 7.23545 34,000 356 454 0
2017-11-20 08:27:37 GMT 41.74106 7.23648 34,000 357 453 0
2017-11-20 08:27:32 GMT 41.73061 7.23737 34,000 357 453 0
2017-11-20 08:27:21 GMT 41.70795 7.23899 34,000 358 454 64
2017-11-20 08:27:12 GMT 41.68655 7.23986 34,000 0 455 64
2017-11-20 08:27:04 GMT 41.67357 7.23993 34,000 1 455 64
2017-11-20 08:27:01 GMT 41.66639 7.23980 34,000 1 455 64
2017-11-20 08:26:51 GMT 41.64496 7.23874 34,000 2 454 0
2017-11-20 08:26:42 GMT 41.62692 7.23756 34,000 2 455 0
2017-11-20 08:26:40 GMT 41.62230 7.23731 34,000 2 455 0
2017-11-20 08:26:33 GMT 41.60797 7.23637 34,000 2 455 0
2017-11-20 08:26:28 GMT 41.59621 7.23562 34,000 2 455 0
2017-11-20 08:26:23 GMT 41.58656 7.23501 34,000 2 455 0
2017-11-20 08:26:20 GMT 41.58023 7.23456 34,000 2 455 0
2017-11-20 08:26:14 GMT 41.56677 7.23375 34,000 2 455 0
2017-11-20 08:26:12 GMT 41.56426 7.23356 34,000 2 455 0
2017-11-20 08:26:09 GMT 41.55753 7.23312 34,000 2 455 0
2017-11-20 08:26:01 GMT 41.54112 7.23207 34,000 2 455 0
2017-11-20 08:25:54 GMT 41.52388 7.23100 34,000 2 455 0
2017-11-20 08:25:51 GMT 41.51971 7.23069 34,000 2 455 0
2017-11-20 08:25:49 GMT 41.51550 7.23044 34,000 2 455 0
2017-11-20 08:25:41 GMT 41.49870 7.22938 34,000 2 455 0
2017-11-20 08:25:41 GMT 41.49657 7.22926 34,000 2 455 0
2017-11-20 08:25:38 GMT 41.49028 7.22882 34,000 2 455 0
2017-11-20 08:25:38 GMT 41.49028 7.22882 34,000 2 455 0
2017-11-20 08:25:30 GMT 41.47474 7.22785 34,000 2 455 0
2017-11-20 08:25:29 GMT 41.47390 7.22779 34,000 2 455 0
2017-11-20 08:25:28 GMT 41.47134 7.22766 34,000 2 455 0
2017-11-20 08:25:19 GMT 41.45202 7.22645 34,000 2 455 0
2017-11-20 08:25:19 GMT 41.45202 7.22645 34,000 2 454 0
2017-11-20 08:25:10 GMT 41.43310 7.22526 34,000 2 454 0
2017-11-20 08:25:10 GMT 41.43019 7.22504 34,000 2 454 0
2017-11-20 08:25:08 GMT 41.42595 7.22479 34,000 2 454 0
2017-11-20 08:25:04 GMT 41.41882 7.22432 34,000 2 454 0
2017-11-20 08:25:00 GMT 41.41127 7.22382 34,000 2 454 0
2017-11-20 08:24:58 GMT 41.40793 7.22364 34,000 2 454 0
2017-11-20 08:24:56 GMT 41.40412 7.22338 34,000 2 454 0
2017-11-20 08:24:49 GMT 41.38943 7.22245 34,000 2 454 0
2017-11-20 08:24:47 GMT 41.38480 7.22214 34,000 2 454 0
2017-11-20 08:24:38 GMT 41.36637 7.22089 34,000 3 454 0
2017-11-20 08:24:29 GMT 41.34663 7.21954 34,000 3 454 0
2017-11-20 08:24:29 GMT 41.34581 7.21948 34,000 3 454 0
2017-11-20 08:24:27 GMT 41.34369 7.21933 34,000 3 454 0
2017-11-20 08:24:26 GMT 41.33950 7.21902 34,000 3 454 0
2017-11-20 08:24:25 GMT 41.33699 7.21883 34,000 3 454 0
2017-11-20 08:24:20 GMT 41.32736 7.21820 34,000 3 453 0
2017-11-20 08:24:17 GMT 41.32191 7.21777 34,000 3 453 0
2017-11-20 08:24:15 GMT 41.31729 7.21747 34,000 3 453 0
2017-11-20 08:24:06 GMT 41.29884 7.21619 34,000 3 453 0
2017-11-20 08:23:56 GMT 41.27870 7.21472 34,000 3 453 0
2017-11-20 08:23:52 GMT 41.26907 7.21402 34,000 3 453 0
2017-11-20 08:23:48 GMT 41.25818 7.21321 34,000 3 454 0
2017-11-20 08:23:48 GMT 41.25818 7.21321 34,000 3 454 0
2017-11-20 08:23:46 GMT 41.25483 7.21296 34,000 3 454 0
2017-11-20 08:23:36 GMT 41.23677 7.21155 34,000 3 454 0
2017-11-20 08:23:36 GMT 41.23677 7.21155 34,000 3 454 0
2017-11-20 08:23:34 GMT 41.23260 7.21124 34,000 3 454 0
2017-11-20 08:23:25 GMT 41.21329 7.20984 34,000 3 454 0
2017-11-20 08:23:16 GMT 41.19440 7.20847 34,000 3 454 0
2017-11-20 08:23:14 GMT 41.19021 7.20815 34,000 2 454 0
2017-11-20 08:23:05 GMT 41.17044 7.20697 34,000 2 454 -64
2017-11-20 08:23:03 GMT 41.16754 7.20684 34,000 1 454 0
2017-11-20 08:22:58 GMT 41.15660 7.20641 34,000 1 454 0
2017-11-20 08:22:52 GMT 41.14275 7.20599 34,000 1 454 0
2017-11-20 08:22:48 GMT 41.13519 7.20575 34,000 1 454 0
2017-11-20 08:22:44 GMT 41.12723 7.20547 34,000 1 454 0
2017-11-20 08:22:38 GMT 41.11294 7.20503 34,000 1 454 0
2017-11-20 08:22:34 GMT 41.10539 7.20485 34,000 1 454 0
2017-11-20 08:22:28 GMT 41.09026 7.20447 34,000 1 454 0
2017-11-20 08:22:23 GMT 41.08272 7.20428 34,000 1 454 0
2017-11-20 08:22:21 GMT 41.07811 7.20416 34,000 1 454 0
2017-11-20 08:22:17 GMT 41.07056 7.20398 34,000 0 454 0
2017-11-20 08:22:13 GMT 41.06173 7.20378 34,000 0 454 0
2017-11-20 08:22:09 GMT 41.05251 7.20360 34,000 0 453 0
2017-11-20 08:22:07 GMT 41.05000 7.20354 34,000 0 453 0
2017-11-20 08:22:03 GMT 41.03994 7.20335 34,000 0 453 0
2017-11-20 08:22:00 GMT 41.03448 7.20325 34,000 0 453 0
2017-11-20 08:21:57 GMT 41.02821 7.20316 34,000 0 453 0
2017-11-20 08:21:52 GMT 41.01773 7.20294 34,000 0 453 0
2017-11-20 08:21:47 GMT 41.00722 7.20279 34,000 0 453 0
2017-11-20 08:21:42 GMT 40.99632 7.20260 34,000 0 453 0
2017-11-20 08:21:40 GMT 40.99213 7.20254 34,000 1 453 0
2017-11-20 08:21:37 GMT 40.98587 7.20245 34,000 0 453 0
2017-11-20 08:21:31 GMT 40.97370 7.20223 34,000 0 453 0
2017-11-20 08:21:29 GMT 40.96994 7.20215 34,000 0 453 0
2017-11-20 08:21:27 GMT 40.96448 7.20210 34,000 0 453 0
2017-11-20 08:21:24 GMT 40.95735 7.20197 34,000 1 453 0
2017-11-20 08:21:24 GMT 40.95735 7.20197 34,000 1 453 0
2017-11-20 08:21:19 GMT 40.94897 7.20178 34,000 1 453 0
2017-11-20 08:21:16 GMT 40.94269 7.20160 34,000 1 453 0
2017-11-20 08:21:13 GMT 40.93474 7.20136 34,000 1 453 64
2017-11-20 08:21:11 GMT 40.93096 7.20123 34,000 1 453 64
2017-11-20 08:21:06 GMT 40.92175 7.20085 34,000 2 454 64
2017-11-20 08:21:03 GMT 40.91464 7.20038 34,000 3 453 64
2017-11-20 08:21:03 GMT 40.91464 7.20038 34,000 3 453 0
2017-11-20 08:21:03 GMT 40.91464 7.20038 34,000 3 453 64
2017-11-20 08:21:00 GMT 40.90878 7.19995 34,000 3 453 0
2017-11-20 08:20:56 GMT 40.90080 7.19929 34,000 3 453 0
2017-11-20 08:20:50 GMT 40.88782 7.19818 34,000 3 453 0
2017-11-20 08:20:46 GMT 40.87862 7.19739 34,000 3 453 0
2017-11-20 08:20:41 GMT 40.87024 7.19665 34,000 3 453 0
2017-11-20 08:20:39 GMT 40.86560 7.19630 34,000 3 453 0
2017-11-20 08:20:35 GMT 40.85683 7.19556 34,000 3 453 0
2017-11-20 08:20:31 GMT 40.84717 7.19473 34,000 3 454 0
2017-11-20 08:20:31 GMT 40.84845 7.19482 34,000 3 454 0
2017-11-20 08:20:31 GMT 40.84845 7.19482 34,000 3 454 0
2017-11-20 08:20:29 GMT 40.84382 7.19442 34,000 3 454 0
2017-11-20 08:20:26 GMT 40.83628 7.19380 34,000 3 454 0
2017-11-20 08:20:21 GMT 40.82661 7.19293 34,000 3 455 0
2017-11-20 08:20:21 GMT 40.82661 7.19293 34,000 3 455 0
2017-11-20 08:20:21 GMT 40.82661 7.19293 34,000 3 455 0
2017-11-20 08:20:18 GMT 40.81988 7.19238 34,000 3 455 0
2017-11-20 08:20:15 GMT 40.81398 7.19183 34,000 3 455 0
2017-11-20 08:20:08 GMT 40.79927 7.19061 34,000 3 455 0
2017-11-20 08:20:05 GMT 40.79297 7.19006 34,000 3 455 0
2017-11-20 08:20:00 GMT 40.78285 7.18921 34,000 3 455 0
2017-11-20 08:19:58 GMT 40.77822 7.18880 34,000 3 455 0
2017-11-20 08:19:55 GMT 40.77231 7.18830 34,000 3 455 0
2017-11-20 08:19:51 GMT 40.76349 7.18756 34,000 3 455 0
2017-11-20 08:19:48 GMT 40.75676 7.18701 34,000 3 455 0
2017-11-20 08:19:44 GMT 40.74916 7.18640 34,000 3 455 0
2017-11-20 08:19:34 GMT 40.72815 7.18463 34,000 3 455 0
2017-11-20 08:19:25 GMT 40.70588 7.18275 34,000 3 455 0
2017-11-20 08:19:20 GMT 40.69789 7.18213 34,000 3 455 0
2017-11-20 08:19:18 GMT 40.69368 7.18176 34,000 3 455 0
2017-11-20 08:19:16 GMT 40.68903 7.18138 34,000 3 455 0
2017-11-20 08:19:14 GMT 40.68568 7.18113 34,000 3 455 0
2017-11-20 08:19:04 GMT 40.66464 7.17938 34,000 3 455 0
2017-11-20 08:18:54 GMT 40.64276 7.17757 34,000 3 455 0
2017-11-20 08:18:46 GMT 40.62674 7.17619 34,000 3 456 0
2017-11-20 08:18:43 GMT 40.62172 7.17576 34,000 3 456 0
2017-11-20 08:18:35 GMT 40.60359 7.17419 34,000 3 456 0
2017-11-20 08:18:33 GMT 40.59934 7.17389 34,000 3 456 0
2017-11-20 08:18:28 GMT 40.58839 7.17291 34,000 3 456 0
2017-11-20 08:18:26 GMT 40.58414 7.17261 34,000 3 456 0
2017-11-20 08:18:26 GMT 40.58414 7.17261 34,000 3 456 0
2017-11-20 08:18:23 GMT 40.57865 7.17214 34,000 3 457 0
2017-11-20 08:18:21 GMT 40.57358 7.17170 34,000 3 457 0
2017-11-20 08:18:17 GMT 40.56599 7.17108 34,000 3 457 0
2017-11-20 08:18:17 GMT 40.56599 7.17108 34,000 3 457 0
2017-11-20 08:18:13 GMT 40.55713 7.17029 34,000 3 457 0
2017-11-20 08:18:08 GMT 40.54407 7.16920 34,000 3 456 0
2017-11-20 08:18:07 GMT 40.54151 7.16902 34,000 3 456 0
2017-11-20 08:18:03 GMT 40.53603 7.16858 34,000 3 456 0
2017-11-20 08:17:59 GMT 40.52760 7.16785 34,000 3 456 0
2017-11-20 08:17:53 GMT 40.51410 7.16675 34,000 3 456 0
2017-11-20 08:17:42 GMT 40.49174 7.16490 34,000 3 456 0
2017-11-20 08:17:35 GMT 40.47702 7.16370 34,000 3 456 0
2017-11-20 08:17:35 GMT 40.47702 7.16370 34,000 3 456 0
2017-11-20 08:17:35 GMT 40.47702 7.16370 34,000 3 456 0
2017-11-20 08:17:33 GMT 40.47070 7.16315 34,000 3 456 0
2017-11-20 08:17:28 GMT 40.46227 7.16240 34,000 3 456 0
2017-11-20 08:17:25 GMT 40.45720 7.16196 34,000 3 456 0
2017-11-20 08:17:25 GMT 40.45720 7.16196 34,000 3 456 0
2017-11-20 08:17:25 GMT 40.45720 7.16196 34,000 3 456 0
2017-11-20 08:17:22 GMT 40.45001 7.16138 34,000 3 456 0
2017-11-20 08:17:18 GMT 40.43951 7.16046 34,000 3 455 0
2017-11-20 08:17:16 GMT 40.43527 7.16009 34,000 3 455 0
2017-11-20 08:17:15 GMT 40.43527 7.16009 34,000 3 455 0
2017-11-20 08:17:15 GMT 40.43611 7.16022 34,000 3 455 0
2017-11-20 08:17:12 GMT 40.42896 7.15961 34,000 3 455 0
2017-11-20 08:17:05 GMT 40.41380 7.15832 34,000 3 455 0
2017-11-20 08:17:02 GMT 40.40669 7.15772 34,000 3 454 0
2017-11-20 08:16:51 GMT 40.38481 7.15585 34,000 3 454 0
2017-11-20 08:16:41 GMT 40.36427 7.15418 34,000 3 454 0
2017-11-20 08:16:31 GMT 40.34287 7.15241 34,000 3 454 0
2017-11-20 08:16:21 GMT 40.32104 7.15066 34,000 3 454 0
2017-11-20 08:16:08 GMT 40.29456 7.14850 34,000 3 455 0
2017-11-20 08:15:50 GMT 40.25707 7.14536 34,000 3 455 0
2017-11-20 08:15:50 GMT 40.25707 7.14536 34,000 3 455 0
2017-11-20 08:15:50 GMT 40.25707 7.14536 34,000 3 455 0
2017-11-20 08:15:45 GMT 40.24654 7.14447 34,000 3 455 0
2017-11-20 08:15:43 GMT 40.24068 7.14398 34,000 3 455 0
2017-11-20 08:15:42 GMT 40.24068 7.14398 34,000 3 455 0
2017-11-20 08:15:40 GMT 40.23519 7.14349 34,000 3 455 0
2017-11-20 08:15:33 GMT 40.21918 7.14217 34,000 3 455 0
2017-11-20 08:15:33 GMT 40.21918 7.14217 34,000 3 455 0
2017-11-20 08:15:32 GMT 40.21750 7.14205 34,000 3 455 0
2017-11-20 08:15:23 GMT 40.19856 7.14044 34,000 3 455 0
2017-11-20 08:15:21 GMT 40.19562 7.14024 34,000 3 455 0
2017-11-20 08:15:21 GMT 40.19562 7.14024 34,000 3 455 0
2017-11-20 08:15:21 GMT 40.19562 7.14024 34,000 3 455 0
2017-11-20 08:15:19 GMT 40.19143 7.13987 34,000 3 455 0
2017-11-20 08:15:11 GMT 40.17499 7.13855 34,000 3 455 0
2017-11-20 08:15:11 GMT 40.17499 7.13855 34,000 3 455 0
2017-11-20 08:15:11 GMT 40.17499 7.13855 34,000 3 455 0
2017-11-20 08:15:08 GMT 40.16826 7.13800 34,000 3 455 0
2017-11-20 08:15:02 GMT 40.15398 7.13684 34,000 3 455 0
2017-11-20 08:15:02 GMT 40.15398 7.13684 34,000 3 455 0
2017-11-20 08:15:01 GMT 40.15398 7.13684 34,000 3 455 0
2017-11-20 08:14:59 GMT 40.14847 7.13637 34,000 3 456 0
2017-11-20 08:14:49 GMT 40.12784 7.13464 34,000 3 456 0
2017-11-20 08:14:34 GMT 40.09580 7.13202 34,000 3 455 0
2017-11-20 08:14:28 GMT 40.08441 7.13106 34,000 3 455 0
2017-11-20 08:14:18 GMT 40.06337 7.12925 34,000 3 455 0
2017-11-20 08:14:08 GMT 40.04149 7.12744 34,000 3 455 0
2017-11-20 08:13:58 GMT 40.02040 7.12576 34,000 3 456 0
2017-11-20 08:13:47 GMT 39.99806 7.12390 34,000 3 456 0
2017-11-20 08:13:36 GMT 39.97487 7.12201 34,000 3 455 0
2017-11-20 08:13:27 GMT 39.95595 7.12042 34,000 3 455 0
2017-11-20 08:13:17 GMT 39.93447 7.11864 34,000 3 455 0
2017-11-20 08:13:07 GMT 39.91301 7.11687 34,000 3 455 0
2017-11-20 08:12:57 GMT 39.89195 7.11514 34,000 3 455 0
2017-11-20 08:12:47 GMT 39.87007 7.11335 34,000 3 455 0
2017-11-20 08:12:36 GMT 39.84819 7.11156 34,000 3 455 0
2017-11-20 08:12:26 GMT 39.82670 7.10986 34,000 3 455 0
2017-11-20 08:12:16 GMT 39.80482 7.10809 34,000 3 455 0
2017-11-20 08:12:06 GMT 39.78377 7.10632 34,000 3 456 0
2017-11-20 08:11:55 GMT 39.76227 7.10457 34,000 3 457 0
2017-11-20 08:11:45 GMT 39.73983 7.10272 34,000 3 458 0
2017-11-20 08:11:35 GMT 39.71905 7.10099 34,000 3 458 0
2017-11-20 08:11:25 GMT 39.69786 7.09926 34,000 3 459 0
2017-11-20 08:11:15 GMT 39.67619 7.09747 34,000 3 459 0
2017-11-20 08:11:04 GMT 39.65413 7.09570 34,000 3 460 0
2017-11-20 08:10:55 GMT 39.63285 7.09393 34,000 3 460 0
2017-11-20 08:10:44 GMT 39.61074 7.09216 34,000 3 460 0
2017-11-20 08:10:34 GMT 39.58905 7.09042 34,000 3 460 0
2017-11-20 08:10:24 GMT 39.56776 7.08875 34,000 3 460 0
2017-11-20 08:10:14 GMT 39.54608 7.08697 34,000 3 461 0
2017-11-20 08:10:04 GMT 39.52392 7.08527 34,000 3 461 0
2017-11-20 08:09:53 GMT 39.50217 7.08355 34,000 3 461 0
2017-11-20 08:09:42 GMT 39.47910 7.08176 34,000 3 461 0
2017-11-20 08:09:33 GMT 39.45903 7.08020 34,000 3 462 0
2017-11-20 08:09:23 GMT 39.43726 7.07854 34,000 3 462 0
2017-11-20 08:09:12 GMT 39.41505 7.07687 34,000 3 462 0
2017-11-20 08:09:02 GMT 39.39363 7.07526 34,000 3 463 0
2017-11-20 08:08:52 GMT 39.37179 7.07361 34,000 3 464 0
2017-11-20 08:08:42 GMT 39.34992 7.07203 34,000 3 464 0
2017-11-20 08:08:32 GMT 39.32803 7.07043 34,000 3 463 0
2017-11-20 08:08:22 GMT 39.30707 7.06887 34,000 3 463 0
2017-11-20 08:08:12 GMT 39.28436 7.06714 34,000 3 463 0
2017-11-20 08:08:01 GMT 39.26295 7.06555 34,000 3 463 0
2017-11-20 08:07:51 GMT 39.24153 7.06390 34,000 3 463 0
2017-11-20 08:07:41 GMT 39.21881 7.06212 34,000 3 464 0
2017-11-20 08:07:30 GMT 39.19652 7.06021 34,000 3 465 0
2017-11-20 08:07:20 GMT 39.17548 7.05835 34,000 4 466 0
2017-11-20 08:07:10 GMT 39.15397 7.05627 34,000 4 466 0
2017-11-20 08:07:00 GMT 39.13202 7.05400 34,000 4 466 0
2017-11-20 08:06:50 GMT 39.10923 7.05139 34,000 5 467 0
2017-11-20 08:06:40 GMT 39.08777 7.04852 34,000 6 467 0
2017-11-20 08:06:29 GMT 39.06454 7.04517 34,000 6 468 0
2017-11-20 08:06:19 GMT 39.04392 7.04181 34,000 7 468 0
2017-11-20 08:06:09 GMT 39.02206 7.03782 34,000 8 468 0
2017-11-20 08:05:59 GMT 39.00069 7.03346 34,000 9 468 0
2017-11-20 08:05:48 GMT 38.97805 7.02869 34,000 9 467 0
2017-11-20 08:05:39 GMT 38.95584 7.02386 34,000 9 467 0
2017-11-20 08:05:28 GMT 38.93495 7.01943 34,000 9 468 0
2017-11-20 08:05:18 GMT 38.91311 7.01483 34,000 9 468 0
2017-11-20 08:05:08 GMT 38.89090 7.01013 34,000 9 468 0
2017-11-20 08:04:58 GMT 38.86995 7.00575 34,000 9 468 0
2017-11-20 08:04:48 GMT 38.84728 7.00092 34,000 9 468 0
2017-11-20 08:04:37 GMT 38.82592 6.99640 34,000 9 468 0
2017-11-20 08:04:27 GMT 38.80412 6.99184 34,000 9 468 0
2017-11-20 08:04:17 GMT 38.78192 6.98713 34,000 9 468 0
2017-11-20 08:04:06 GMT 38.76009 6.98248 34,000 9 468 0
2017-11-20 08:03:56 GMT 38.73789 6.97778 34,000 9 467 0
2017-11-20 08:03:46 GMT 38.71657 6.97333 34,000 9 467 0
2017-11-20 08:03:35 GMT 38.69441 6.96869 34,000 9 466 0
2017-11-20 08:03:25 GMT 38.67270 6.96414 34,000 9 465 0
2017-11-20 08:03:16 GMT 38.65146 6.95966 34,000 9 465 0
2017-11-20 08:03:05 GMT 38.62895 6.95496 34,000 9 464 0
2017-11-20 08:02:55 GMT 38.60777 6.95050 34,000 9 464 0
2017-11-20 08:02:45 GMT 38.58701 6.94617 34,000 9 463 0
2017-11-20 08:02:34 GMT 38.56503 6.94157 34,000 9 463 0
2017-11-20 08:02:25 GMT 38.54344 6.93701 34,000 9 463 0
2017-11-20 08:02:14 GMT 38.52146 6.93237 34,000 9 463 0
2017-11-20 08:02:04 GMT 38.49985 6.92784 34,000 9 464 0
2017-11-20 08:01:53 GMT 38.47783 6.92324 34,000 9 464 0
2017-11-20 08:01:43 GMT 38.45586 6.91858 34,000 9 464 0
2017-11-20 08:01:34 GMT 38.43511 6.91425 34,000 9 464 0
2017-11-20 08:01:22 GMT 38.41137 6.90927 34,000 9 464 0
2017-11-20 08:01:12 GMT 38.39058 6.90497 34,000 9 464 0
2017-11-20 08:01:03 GMT 38.37026 6.90070 34,000 9 464 0
2017-11-20 08:00:52 GMT 38.34862 6.89613 34,000 9 464 0
2017-11-20 08:00:42 GMT 38.32700 6.89164 34,000 9 465 0
2017-11-20 08:00:32 GMT 38.30489 6.88708 34,000 9 466 0
2017-11-20 08:00:22 GMT 38.28321 6.88258 34,000 9 466 -64
2017-11-20 08:00:11 GMT 38.26149 6.87808 34,000 9 467 0
2017-11-20 08:00:02 GMT 38.23973 6.87350 34,000 9 467 64
2017-11-20 07:59:51 GMT 38.21800 6.86897 34,000 9 468 0
2017-11-20 07:59:41 GMT 38.19616 6.86442 34,000 9 469 0
2017-11-20 07:59:30 GMT 38.17342 6.85973 34,000 9 470 0
2017-11-20 07:59:19 GMT 38.14984 6.85487 34,000 9 470 0
2017-11-20 07:59:09 GMT 38.12878 6.85056 34,000 9 470 0
2017-11-20 07:59:00 GMT 38.10818 6.84629 34,000 9 470 0
2017-11-20 07:58:43 GMT 38.07177 6.83869 34,000 9 469 0
2017-11-20 07:58:39 GMT 38.06360 6.83700 34,000 9 469 0
2017-11-20 07:58:29 GMT 38.04222 6.83256 34,000 9 469 0
2017-11-20 07:58:18 GMT 38.01861 6.82765 34,000 9 469 0
2017-11-20 07:58:09 GMT 37.99933 6.82368 34,000 9 469 0
2017-11-20 07:57:55 GMT 37.96977 6.81761 34,000 9 468 0
2017-11-20 07:57:49 GMT 37.95566 6.81468 34,000 9 468 0
2017-11-20 07:57:37 GMT 37.93002 6.80942 34,000 9 468 0
We lost coverage of the aircraft here for a total of 330 minutes
2017-11-20 02:27:32 GMT -8.43294 12.93787 30,000 340 510 0
2017-11-20 02:27:21 GMT -8.45027 12.94441 30,000 340 510 0
2017-11-20 02:27:10 GMT -8.47421 12.95344 30,000 340 510 0
2017-11-20 02:27:00 GMT -8.49820 12.96247 30,000 340 510 0
2017-11-20 02:26:49 GMT -8.52127 12.97113 30,000 340 510 0
2017-11-20 02:26:40 GMT -8.54352 12.97951 30,000 340 511 0
2017-11-20 02:26:29 GMT -8.56617 12.98802 30,000 340 511 0
2017-11-20 02:26:18 GMT -8.58797 12.99622 30,000 340 511 0
2017-11-20 02:26:08 GMT -8.61195 13.00530 30,000 340 511 0
2017-11-20 02:25:58 GMT -8.63599 13.01433 30,000 340 511 0
2017-11-20 02:25:47 GMT -8.65955 13.02320 30,000 340 511 0
2017-11-20 02:25:37 GMT -8.68181 13.03158 30,000 340 511 0
2017-11-20 02:25:26 GMT -8.70447 13.04012 30,000 340 511 0
2017-11-20 02:25:17 GMT -8.72892 13.04934 30,000 340 511 0
2017-11-20 02:25:06 GMT -8.75117 13.05772 30,000 340 511 0
2017-11-20 02:24:55 GMT -8.77337 13.06611 30,000 340 510 0
2017-11-20 02:24:46 GMT -8.79694 13.07499 30,000 340 510 0
2017-11-20 02:24:33 GMT -8.82271 13.08472 30,000 340 510 0
2017-11-20 02:24:23 GMT -8.84491 13.09305 30,000 340 511 0

Making use of Plane Finder data

You are free to use the raw flight data, aircraft information and images provided in this report for your own purposes provided the data is correctly attributed to Plane Finder. We ask that you please credit Plane Finder and link to planefinder.net in close proximity to the content.

Optionally one of the following logos (no smaller then 150x24px) can be used and must link to planefinder.net

Embedding the Plane Finder map

You are welcome to embed the Plane Finder playback map on your website to offer visitors a more interactive experience. We suggest using the following HTML code:

<iframe src="//planefinder.net/data/report/KL598-PH-BVA-7700-squawk-2017-11-20/map" width="800" height="600" seamless="seamless"></iframe>

Where our data comes from

Plane Finder has a global network of data feeds and antenna radars that receive data broadcast directly from aircraft. The primary technologies used are ADS-B and MLAT. We also show feeds from the FAA and a FLARM glider feed.

Click here to find out more about the Plane Finder network.

How we collect our data